<?xml version="1.0" encoding="UTF-8" standalone="no" ?>
<gpx xmlns="http://www.topografix.com/GPX/1/1" xmlns:xsi="http://www.w3.org/2001/XMLSchema-instance" xsi:schemaLocation="http://www.topografix.com/GPX/1/1 http://www.topografix.com/GPX/1/1/gpx.xsd" version="1.1" creator="VisuGPX - https://www.visugpx.com">
  <metadata>
    <name>Tanay Chalavornaire Bouveret</name>
    <desc><![CDATA[Tanay Chalavornaire Bouveret]]></desc>
  </metadata>
  <trk>
    <name><![CDATA[Tanay Chalavornaire Vouvry]]></name>
    <trkseg>
      <trkpt lat="46.33717" lon="6.89731">
        <ele>381</ele>
        <time>2013-08-17T05:57:51Z</time>
      </trkpt>
      <trkpt lat="46.33716" lon="6.89728">
        <ele>380.60000610352</ele>
        <time>2013-08-17T05:57:52Z</time>
      </trkpt>
      <trkpt lat="46.33711" lon="6.89728">
        <ele>381</ele>
        <time>2013-08-17T05:57:55Z</time>
      </trkpt>
      <trkpt lat="46.33708" lon="6.89729">
        <ele>381</ele>
        <time>2013-08-17T05:57:57Z</time>
      </trkpt>
      <trkpt lat="46.33704" lon="6.89725">
        <ele>380.60000610352</ele>
        <time>2013-08-17T05:58:56Z</time>
      </trkpt>
      <trkpt lat="46.33696" lon="6.8969">
        <ele>380.60000610352</ele>
        <time>2013-08-17T05:59:05Z</time>
      </trkpt>
      <trkpt lat="46.33685" lon="6.89634">
        <ele>380.60000610352</ele>
        <time>2013-08-17T05:59:17Z</time>
      </trkpt>
      <trkpt lat="46.33683" lon="6.89606">
        <ele>380.60000610352</ele>
        <time>2013-08-17T05:59:22Z</time>
      </trkpt>
      <trkpt lat="46.33681" lon="6.89588">
        <ele>380.60000610352</ele>
        <time>2013-08-17T05:59:25Z</time>
      </trkpt>
      <trkpt lat="46.33668" lon="6.89512">
        <ele>381.20001220703</ele>
        <time>2013-08-17T05:59:36Z</time>
      </trkpt>
      <trkpt lat="46.33664" lon="6.89468">
        <ele>381.60000610352</ele>
        <time>2013-08-17T05:59:44Z</time>
      </trkpt>
      <trkpt lat="46.33665" lon="6.89441">
        <ele>382</ele>
        <time>2013-08-17T05:59:49Z</time>
      </trkpt>
      <trkpt lat="46.33663" lon="6.8942">
        <ele>382</ele>
        <time>2013-08-17T05:59:52Z</time>
      </trkpt>
      <trkpt lat="46.33657" lon="6.8938">
        <ele>382.20001220703</ele>
        <time>2013-08-17T05:59:57Z</time>
      </trkpt>
      <trkpt lat="46.33657" lon="6.89365">
        <ele>382.60000610352</ele>
        <time>2013-08-17T05:59:59Z</time>
      </trkpt>
      <trkpt lat="46.3365" lon="6.8933">
        <ele>382.60000610352</ele>
        <time>2013-08-17T06:00:04Z</time>
      </trkpt>
      <trkpt lat="46.33645" lon="6.89286">
        <ele>383.20001220703</ele>
        <time>2013-08-17T06:00:11Z</time>
      </trkpt>
      <trkpt lat="46.33644" lon="6.89263">
        <ele>384.20001220703</ele>
        <time>2013-08-17T06:00:15Z</time>
      </trkpt>
      <trkpt lat="46.33636" lon="6.89188">
        <ele>385.60000610352</ele>
        <time>2013-08-17T06:00:28Z</time>
      </trkpt>
      <trkpt lat="46.33631" lon="6.8915">
        <ele>387</ele>
        <time>2013-08-17T06:00:35Z</time>
      </trkpt>
      <trkpt lat="46.3363" lon="6.89104">
        <ele>388.60000610352</ele>
        <time>2013-08-17T06:00:45Z</time>
      </trkpt>
      <trkpt lat="46.33632" lon="6.89101">
        <ele>389.20001220703</ele>
        <time>2013-08-17T06:00:50Z</time>
      </trkpt>
      <trkpt lat="46.33639" lon="6.89086">
        <ele>389.60000610352</ele>
        <time>2013-08-17T06:00:55Z</time>
      </trkpt>
      <trkpt lat="46.33654" lon="6.89033">
        <ele>391.60000610352</ele>
        <time>2013-08-17T06:01:10Z</time>
      </trkpt>
      <trkpt lat="46.3366" lon="6.88993">
        <ele>393</ele>
        <time>2013-08-17T06:01:21Z</time>
      </trkpt>
      <trkpt lat="46.33667" lon="6.88951">
        <ele>394.20001220703</ele>
        <time>2013-08-17T06:01:32Z</time>
      </trkpt>
      <trkpt lat="46.33692" lon="6.88929">
        <ele>395.60000610352</ele>
        <time>2013-08-17T06:01:43Z</time>
      </trkpt>
      <trkpt lat="46.33728" lon="6.88921">
        <ele>397.20001220703</ele>
        <time>2013-08-17T06:01:55Z</time>
      </trkpt>
      <trkpt lat="46.33769" lon="6.88908">
        <ele>399.20001220703</ele>
        <time>2013-08-17T06:02:10Z</time>
      </trkpt>
      <trkpt lat="46.33773" lon="6.88867">
        <ele>401</ele>
        <time>2013-08-17T06:02:21Z</time>
      </trkpt>
      <trkpt lat="46.3377" lon="6.88825">
        <ele>402.60000610352</ele>
        <time>2013-08-17T06:02:32Z</time>
      </trkpt>
      <trkpt lat="46.33769" lon="6.88775">
        <ele>404.60000610352</ele>
        <time>2013-08-17T06:02:45Z</time>
      </trkpt>
      <trkpt lat="46.3375" lon="6.88734">
        <ele>406</ele>
        <time>2013-08-17T06:02:58Z</time>
      </trkpt>
      <trkpt lat="46.33717" lon="6.88713">
        <ele>407</ele>
        <time>2013-08-17T06:03:11Z</time>
      </trkpt>
      <trkpt lat="46.33685" lon="6.88681">
        <ele>408.20001220703</ele>
        <time>2013-08-17T06:03:24Z</time>
      </trkpt>
      <trkpt lat="46.3366" lon="6.88666">
        <ele>409.60000610352</ele>
        <time>2013-08-17T06:03:33Z</time>
      </trkpt>
      <trkpt lat="46.33644" lon="6.88662">
        <ele>408.20001220703</ele>
        <time>2013-08-17T06:03:37Z</time>
      </trkpt>
      <trkpt lat="46.33636" lon="6.88656">
        <ele>408.20001220703</ele>
        <time>2013-08-17T06:03:39Z</time>
      </trkpt>
      <trkpt lat="46.33616" lon="6.88652">
        <ele>410.60000610352</ele>
        <time>2013-08-17T06:03:46Z</time>
      </trkpt>
      <trkpt lat="46.33598" lon="6.88651">
        <ele>413.60000610352</ele>
        <time>2013-08-17T06:03:55Z</time>
      </trkpt>
      <trkpt lat="46.33573" lon="6.88649">
        <ele>416.60000610352</ele>
        <time>2013-08-17T06:04:07Z</time>
      </trkpt>
      <trkpt lat="46.33546" lon="6.88645">
        <ele>419.60000610352</ele>
        <time>2013-08-17T06:04:21Z</time>
      </trkpt>
      <trkpt lat="46.33535" lon="6.88639">
        <ele>420.60000610352</ele>
        <time>2013-08-17T06:04:27Z</time>
      </trkpt>
      <trkpt lat="46.33531" lon="6.8863">
        <ele>421.60000610352</ele>
        <time>2013-08-17T06:04:31Z</time>
      </trkpt>
      <trkpt lat="46.33522" lon="6.88584">
        <ele>424.20001220703</ele>
        <time>2013-08-17T06:04:46Z</time>
      </trkpt>
      <trkpt lat="46.33502" lon="6.88553">
        <ele>425.60000610352</ele>
        <time>2013-08-17T06:04:58Z</time>
      </trkpt>
      <trkpt lat="46.33478" lon="6.8853">
        <ele>427.60000610352</ele>
        <time>2013-08-17T06:05:11Z</time>
      </trkpt>
      <trkpt lat="46.33456" lon="6.88508">
        <ele>429.60000610352</ele>
        <time>2013-08-17T06:05:23Z</time>
      </trkpt>
      <trkpt lat="46.33446" lon="6.88496">
        <ele>430.60000610352</ele>
        <time>2013-08-17T06:05:29Z</time>
      </trkpt>
      <trkpt lat="46.33443" lon="6.88488">
        <ele>431.60000610352</ele>
        <time>2013-08-17T06:05:32Z</time>
      </trkpt>
      <trkpt lat="46.33421" lon="6.88472">
        <ele>433.20001220703</ele>
        <time>2013-08-17T06:05:43Z</time>
      </trkpt>
      <trkpt lat="46.33401" lon="6.88453">
        <ele>435.20001220703</ele>
        <time>2013-08-17T06:05:55Z</time>
      </trkpt>
      <trkpt lat="46.33382" lon="6.88425">
        <ele>438.20001220703</ele>
        <time>2013-08-17T06:06:09Z</time>
      </trkpt>
      <trkpt lat="46.3339" lon="6.88395">
        <ele>441</ele>
        <time>2013-08-17T06:06:21Z</time>
      </trkpt>
      <trkpt lat="46.3341" lon="6.88365">
        <ele>443.60000610352</ele>
        <time>2013-08-17T06:06:35Z</time>
      </trkpt>
      <trkpt lat="46.3343" lon="6.88339">
        <ele>446.20001220703</ele>
        <time>2013-08-17T06:06:48Z</time>
      </trkpt>
      <trkpt lat="46.33433" lon="6.88333">
        <ele>446.60000610352</ele>
        <time>2013-08-17T06:06:51Z</time>
      </trkpt>
      <trkpt lat="46.33449" lon="6.88309">
        <ele>448.20001220703</ele>
        <time>2013-08-17T06:07:04Z</time>
      </trkpt>
      <trkpt lat="46.33469" lon="6.88287">
        <ele>451.20001220703</ele>
        <time>2013-08-17T06:07:17Z</time>
      </trkpt>
      <trkpt lat="46.33491" lon="6.88268">
        <ele>453.60000610352</ele>
        <time>2013-08-17T06:07:30Z</time>
      </trkpt>
      <trkpt lat="46.33513" lon="6.8825">
        <ele>455.60000610352</ele>
        <time>2013-08-17T06:07:41Z</time>
      </trkpt>
      <trkpt lat="46.33529" lon="6.88235">
        <ele>457.60000610352</ele>
        <time>2013-08-17T06:07:53Z</time>
      </trkpt>
      <trkpt lat="46.33545" lon="6.88222">
        <ele>459.20001220703</ele>
        <time>2013-08-17T06:08:03Z</time>
      </trkpt>
      <trkpt lat="46.33565" lon="6.88204">
        <ele>462</ele>
        <time>2013-08-17T06:08:17Z</time>
      </trkpt>
      <trkpt lat="46.33588" lon="6.88177">
        <ele>464.60000610352</ele>
        <time>2013-08-17T06:08:33Z</time>
      </trkpt>
      <trkpt lat="46.33592" lon="6.88167">
        <ele>465.60000610352</ele>
        <time>2013-08-17T06:08:38Z</time>
      </trkpt>
      <trkpt lat="46.33604" lon="6.88136">
        <ele>467.60000610352</ele>
        <time>2013-08-17T06:08:52Z</time>
      </trkpt>
      <trkpt lat="46.33618" lon="6.88098">
        <ele>470.60000610352</ele>
        <time>2013-08-17T06:09:09Z</time>
      </trkpt>
      <trkpt lat="46.33623" lon="6.88052">
        <ele>473.20001220703</ele>
        <time>2013-08-17T06:09:27Z</time>
      </trkpt>
      <trkpt lat="46.33622" lon="6.8801">
        <ele>476</ele>
        <time>2013-08-17T06:09:42Z</time>
      </trkpt>
      <trkpt lat="46.33637" lon="6.87983">
        <ele>477.20001220703</ele>
        <time>2013-08-17T06:09:56Z</time>
      </trkpt>
      <trkpt lat="46.33663" lon="6.87994">
        <ele>479</ele>
        <time>2013-08-17T06:10:10Z</time>
      </trkpt>
      <trkpt lat="46.33687" lon="6.88018">
        <ele>482</ele>
        <time>2013-08-17T06:10:26Z</time>
      </trkpt>
      <trkpt lat="46.33709" lon="6.88051">
        <ele>485.20001220703</ele>
        <time>2013-08-17T06:10:43Z</time>
      </trkpt>
      <trkpt lat="46.33729" lon="6.8809">
        <ele>488.20001220703</ele>
        <time>2013-08-17T06:11:01Z</time>
      </trkpt>
      <trkpt lat="46.33759" lon="6.88106">
        <ele>490.20001220703</ele>
        <time>2013-08-17T06:11:18Z</time>
      </trkpt>
      <trkpt lat="46.33796" lon="6.88113">
        <ele>493.20001220703</ele>
        <time>2013-08-17T06:11:37Z</time>
      </trkpt>
      <trkpt lat="46.3383" lon="6.88109">
        <ele>495.60000610352</ele>
        <time>2013-08-17T06:11:53Z</time>
      </trkpt>
      <trkpt lat="46.33863" lon="6.88092">
        <ele>498.20001220703</ele>
        <time>2013-08-17T06:12:11Z</time>
      </trkpt>
      <trkpt lat="46.33897" lon="6.8808">
        <ele>501.20001220703</ele>
        <time>2013-08-17T06:12:30Z</time>
      </trkpt>
      <trkpt lat="46.33931" lon="6.88061">
        <ele>504.20001220703</ele>
        <time>2013-08-17T06:12:49Z</time>
      </trkpt>
      <trkpt lat="46.33957" lon="6.88029">
        <ele>506.60000610352</ele>
        <time>2013-08-17T06:13:07Z</time>
      </trkpt>
      <trkpt lat="46.33976" lon="6.87999">
        <ele>509.20001220703</ele>
        <time>2013-08-17T06:13:24Z</time>
      </trkpt>
      <trkpt lat="46.33996" lon="6.87991">
        <ele>511</ele>
        <time>2013-08-17T06:13:37Z</time>
      </trkpt>
      <trkpt lat="46.34018" lon="6.88008">
        <ele>513.40002441406</ele>
        <time>2013-08-17T06:13:51Z</time>
      </trkpt>
      <trkpt lat="46.34032" lon="6.88045">
        <ele>516.40002441406</ele>
        <time>2013-08-17T06:14:07Z</time>
      </trkpt>
      <trkpt lat="46.34039" lon="6.88085">
        <ele>519.40002441406</ele>
        <time>2013-08-17T06:14:23Z</time>
      </trkpt>
      <trkpt lat="46.3406" lon="6.88116">
        <ele>521.40002441406</ele>
        <time>2013-08-17T06:14:38Z</time>
      </trkpt>
      <trkpt lat="46.34089" lon="6.88137">
        <ele>524.40002441406</ele>
        <time>2013-08-17T06:14:55Z</time>
      </trkpt>
      <trkpt lat="46.34121" lon="6.88162">
        <ele>527.40002441406</ele>
        <time>2013-08-17T06:15:13Z</time>
      </trkpt>
      <trkpt lat="46.3415" lon="6.88191">
        <ele>530.40002441406</ele>
        <time>2013-08-17T06:15:31Z</time>
      </trkpt>
      <trkpt lat="46.34171" lon="6.88224">
        <ele>533</ele>
        <time>2013-08-17T06:15:46Z</time>
      </trkpt>
      <trkpt lat="46.34194" lon="6.88264">
        <ele>534.40002441406</ele>
        <time>2013-08-17T06:16:03Z</time>
      </trkpt>
      <trkpt lat="46.34198" lon="6.88268">
        <ele>534.40002441406</ele>
        <time>2013-08-17T06:16:05Z</time>
      </trkpt>
      <trkpt lat="46.34207" lon="6.88251">
        <ele>535.20001220703</ele>
        <time>2013-08-17T06:16:13Z</time>
      </trkpt>
      <trkpt lat="46.34202" lon="6.88244">
        <ele>535.40002441406</ele>
        <time>2013-08-17T06:16:16Z</time>
      </trkpt>
      <trkpt lat="46.34175" lon="6.88209">
        <ele>536.59997558594</ele>
        <time>2013-08-17T06:16:32Z</time>
      </trkpt>
      <trkpt lat="46.34157" lon="6.88176">
        <ele>539.40002441406</ele>
        <time>2013-08-17T06:16:48Z</time>
      </trkpt>
      <trkpt lat="46.34142" lon="6.88148">
        <ele>542.40002441406</ele>
        <time>2013-08-17T06:17:01Z</time>
      </trkpt>
      <trkpt lat="46.34116" lon="6.88124">
        <ele>545.40002441406</ele>
        <time>2013-08-17T06:17:16Z</time>
      </trkpt>
      <trkpt lat="46.341" lon="6.88096">
        <ele>547.40002441406</ele>
        <time>2013-08-17T06:17:29Z</time>
      </trkpt>
      <trkpt lat="46.34091" lon="6.88066">
        <ele>550.40002441406</ele>
        <time>2013-08-17T06:17:42Z</time>
      </trkpt>
      <trkpt lat="46.34086" lon="6.88022">
        <ele>553.40002441406</ele>
        <time>2013-08-17T06:17:59Z</time>
      </trkpt>
      <trkpt lat="46.34082" lon="6.8798">
        <ele>556</ele>
        <time>2013-08-17T06:18:15Z</time>
      </trkpt>
      <trkpt lat="46.34078" lon="6.87946">
        <ele>559</ele>
        <time>2013-08-17T06:18:28Z</time>
      </trkpt>
      <trkpt lat="46.34067" lon="6.87914">
        <ele>561.20001220703</ele>
        <time>2013-08-17T06:18:40Z</time>
      </trkpt>
      <trkpt lat="46.34056" lon="6.87876">
        <ele>564.20001220703</ele>
        <time>2013-08-17T06:18:56Z</time>
      </trkpt>
      <trkpt lat="46.34047" lon="6.87843">
        <ele>567.20001220703</ele>
        <time>2013-08-17T06:19:11Z</time>
      </trkpt>
      <trkpt lat="46.34029" lon="6.87828">
        <ele>568.59997558594</ele>
        <time>2013-08-17T06:19:24Z</time>
      </trkpt>
      <trkpt lat="46.34007" lon="6.87832">
        <ele>571</ele>
        <time>2013-08-17T06:19:38Z</time>
      </trkpt>
      <trkpt lat="46.33979" lon="6.87854">
        <ele>574</ele>
        <time>2013-08-17T06:19:54Z</time>
      </trkpt>
      <trkpt lat="46.33958" lon="6.8788">
        <ele>576.40002441406</ele>
        <time>2013-08-17T06:20:09Z</time>
      </trkpt>
      <trkpt lat="46.33947" lon="6.8789">
        <ele>577.20001220703</ele>
        <time>2013-08-17T06:20:15Z</time>
      </trkpt>
      <trkpt lat="46.3394" lon="6.87886">
        <ele>578.20001220703</ele>
        <time>2013-08-17T06:20:19Z</time>
      </trkpt>
      <trkpt lat="46.33922" lon="6.8787">
        <ele>581.20001220703</ele>
        <time>2013-08-17T06:20:32Z</time>
      </trkpt>
      <trkpt lat="46.33901" lon="6.87861">
        <ele>583.40002441406</ele>
        <time>2013-08-17T06:20:44Z</time>
      </trkpt>
      <trkpt lat="46.3388" lon="6.87842">
        <ele>586</ele>
        <time>2013-08-17T06:20:58Z</time>
      </trkpt>
      <trkpt lat="46.33877" lon="6.8784">
        <ele>586.20001220703</ele>
        <time>2013-08-17T06:21:00Z</time>
      </trkpt>
      <trkpt lat="46.33865" lon="6.87825">
        <ele>588.20001220703</ele>
        <time>2013-08-17T06:21:10Z</time>
      </trkpt>
      <trkpt lat="46.33848" lon="6.87807">
        <ele>590</ele>
        <time>2013-08-17T06:21:23Z</time>
      </trkpt>
      <trkpt lat="46.33828" lon="6.8779">
        <ele>592.40002441406</ele>
        <time>2013-08-17T06:21:36Z</time>
      </trkpt>
      <trkpt lat="46.33803" lon="6.87791">
        <ele>595</ele>
        <time>2013-08-17T06:21:50Z</time>
      </trkpt>
      <trkpt lat="46.33774" lon="6.87789">
        <ele>598</ele>
        <time>2013-08-17T06:22:07Z</time>
      </trkpt>
      <trkpt lat="46.3377" lon="6.87786">
        <ele>598.59997558594</ele>
        <time>2013-08-17T06:22:10Z</time>
      </trkpt>
      <trkpt lat="46.33765" lon="6.87782">
        <ele>599.20001220703</ele>
        <time>2013-08-17T06:22:14Z</time>
      </trkpt>
      <trkpt lat="46.33744" lon="6.87759">
        <ele>601.40002441406</ele>
        <time>2013-08-17T06:22:28Z</time>
      </trkpt>
      <trkpt lat="46.33731" lon="6.87727">
        <ele>604.20001220703</ele>
        <time>2013-08-17T06:22:43Z</time>
      </trkpt>
      <trkpt lat="46.33725" lon="6.87696">
        <ele>606.40002441406</ele>
        <time>2013-08-17T06:22:56Z</time>
      </trkpt>
      <trkpt lat="46.33712" lon="6.87662">
        <ele>609.20001220703</ele>
        <time>2013-08-17T06:23:09Z</time>
      </trkpt>
      <trkpt lat="46.33691" lon="6.87644">
        <ele>612.20001220703</ele>
        <time>2013-08-17T06:23:22Z</time>
      </trkpt>
      <trkpt lat="46.3367" lon="6.8763">
        <ele>614.40002441406</ele>
        <time>2013-08-17T06:23:35Z</time>
      </trkpt>
      <trkpt lat="46.33649" lon="6.87596">
        <ele>617.40002441406</ele>
        <time>2013-08-17T06:23:52Z</time>
      </trkpt>
      <trkpt lat="46.33622" lon="6.87571">
        <ele>620</ele>
        <time>2013-08-17T06:24:09Z</time>
      </trkpt>
      <trkpt lat="46.336" lon="6.8755">
        <ele>622</ele>
        <time>2013-08-17T06:24:23Z</time>
      </trkpt>
      <trkpt lat="46.33577" lon="6.87523">
        <ele>624.40002441406</ele>
        <time>2013-08-17T06:24:39Z</time>
      </trkpt>
      <trkpt lat="46.33564" lon="6.87489">
        <ele>627.20001220703</ele>
        <time>2013-08-17T06:24:55Z</time>
      </trkpt>
      <trkpt lat="46.33544" lon="6.87466">
        <ele>629.40002441406</ele>
        <time>2013-08-17T06:25:09Z</time>
      </trkpt>
      <trkpt lat="46.33528" lon="6.87433">
        <ele>632</ele>
        <time>2013-08-17T06:25:24Z</time>
      </trkpt>
      <trkpt lat="46.33518" lon="6.87401">
        <ele>635</ele>
        <time>2013-08-17T06:25:40Z</time>
      </trkpt>
      <trkpt lat="46.33512" lon="6.87385">
        <ele>636.20001220703</ele>
        <time>2013-08-17T06:25:49Z</time>
      </trkpt>
      <trkpt lat="46.33508" lon="6.87381">
        <ele>637</ele>
        <time>2013-08-17T06:25:52Z</time>
      </trkpt>
      <trkpt lat="46.33506" lon="6.87375">
        <ele>637.40002441406</ele>
        <time>2013-08-17T06:25:56Z</time>
      </trkpt>
      <trkpt lat="46.33482" lon="6.8735">
        <ele>640.40002441406</ele>
        <time>2013-08-17T06:26:12Z</time>
      </trkpt>
      <trkpt lat="46.33462" lon="6.87321">
        <ele>643.40002441406</ele>
        <time>2013-08-17T06:26:28Z</time>
      </trkpt>
      <trkpt lat="46.33465" lon="6.87288">
        <ele>646</ele>
        <time>2013-08-17T06:26:42Z</time>
      </trkpt>
      <trkpt lat="46.33468" lon="6.87254">
        <ele>649</ele>
        <time>2013-08-17T06:26:55Z</time>
      </trkpt>
      <trkpt lat="46.33468" lon="6.87246">
        <ele>649.59997558594</ele>
        <time>2013-08-17T06:26:58Z</time>
      </trkpt>
      <trkpt lat="46.33478" lon="6.87218">
        <ele>652.40002441406</ele>
        <time>2013-08-17T06:27:10Z</time>
      </trkpt>
      <trkpt lat="46.33491" lon="6.87188">
        <ele>655</ele>
        <time>2013-08-17T06:27:27Z</time>
      </trkpt>
      <trkpt lat="46.33488" lon="6.87151">
        <ele>657.20001220703</ele>
        <time>2013-08-17T06:27:42Z</time>
      </trkpt>
      <trkpt lat="46.33484" lon="6.87114">
        <ele>660.20001220703</ele>
        <time>2013-08-17T06:27:59Z</time>
      </trkpt>
      <trkpt lat="46.3347" lon="6.87084">
        <ele>662.40002441406</ele>
        <time>2013-08-17T06:28:15Z</time>
      </trkpt>
      <trkpt lat="46.33455" lon="6.87065">
        <ele>664.40002441406</ele>
        <time>2013-08-17T06:28:27Z</time>
      </trkpt>
      <trkpt lat="46.33455" lon="6.87053">
        <ele>665.20001220703</ele>
        <time>2013-08-17T06:28:33Z</time>
      </trkpt>
      <trkpt lat="46.33462" lon="6.87055">
        <ele>665.40002441406</ele>
        <time>2013-08-17T06:28:38Z</time>
      </trkpt>
      <trkpt lat="46.33479" lon="6.87083">
        <ele>666.40002441406</ele>
        <time>2013-08-17T06:28:51Z</time>
      </trkpt>
      <trkpt lat="46.33496" lon="6.87116">
        <ele>668.40002441406</ele>
        <time>2013-08-17T06:29:08Z</time>
      </trkpt>
      <trkpt lat="46.33501" lon="6.87151">
        <ele>671.40002441406</ele>
        <time>2013-08-17T06:29:24Z</time>
      </trkpt>
      <trkpt lat="46.33503" lon="6.87195">
        <ele>674</ele>
        <time>2013-08-17T06:29:41Z</time>
      </trkpt>
      <trkpt lat="46.33508" lon="6.87233">
        <ele>676.40002441406</ele>
        <time>2013-08-17T06:29:56Z</time>
      </trkpt>
      <trkpt lat="46.3352" lon="6.87263">
        <ele>678.59997558594</ele>
        <time>2013-08-17T06:30:10Z</time>
      </trkpt>
      <trkpt lat="46.3353" lon="6.87289">
        <ele>681.20001220703</ele>
        <time>2013-08-17T06:30:25Z</time>
      </trkpt>
      <trkpt lat="46.33546" lon="6.87307">
        <ele>682.59997558594</ele>
        <time>2013-08-17T06:30:44Z</time>
      </trkpt>
      <trkpt lat="46.33554" lon="6.87313">
        <ele>684</ele>
        <time>2013-08-17T06:30:50Z</time>
      </trkpt>
      <trkpt lat="46.33567" lon="6.87323">
        <ele>685</ele>
        <time>2013-08-17T06:31:00Z</time>
      </trkpt>
      <trkpt lat="46.33582" lon="6.87334">
        <ele>686.40002441406</ele>
        <time>2013-08-17T06:31:16Z</time>
      </trkpt>
      <trkpt lat="46.33599" lon="6.8734">
        <ele>688.40002441406</ele>
        <time>2013-08-17T06:31:31Z</time>
      </trkpt>
      <trkpt lat="46.33614" lon="6.87336">
        <ele>690</ele>
        <time>2013-08-17T06:31:45Z</time>
      </trkpt>
      <trkpt lat="46.33635" lon="6.87333">
        <ele>691.40002441406</ele>
        <time>2013-08-17T06:32:00Z</time>
      </trkpt>
      <trkpt lat="46.33657" lon="6.87342">
        <ele>693.20001220703</ele>
        <time>2013-08-17T06:32:12Z</time>
      </trkpt>
      <trkpt lat="46.33661" lon="6.87343">
        <ele>693.40002441406</ele>
        <time>2013-08-17T06:32:14Z</time>
      </trkpt>
      <trkpt lat="46.33679" lon="6.87353">
        <ele>695.20001220703</ele>
        <time>2013-08-17T06:32:26Z</time>
      </trkpt>
      <trkpt lat="46.33699" lon="6.87362">
        <ele>697</ele>
        <time>2013-08-17T06:32:39Z</time>
      </trkpt>
      <trkpt lat="46.33704" lon="6.87367">
        <ele>697.40002441406</ele>
        <time>2013-08-17T06:32:43Z</time>
      </trkpt>
      <trkpt lat="46.33723" lon="6.87378">
        <ele>699.20001220703</ele>
        <time>2013-08-17T06:32:56Z</time>
      </trkpt>
      <trkpt lat="46.3374" lon="6.87401">
        <ele>701.40002441406</ele>
        <time>2013-08-17T06:33:12Z</time>
      </trkpt>
      <trkpt lat="46.33743" lon="6.87404">
        <ele>701.59997558594</ele>
        <time>2013-08-17T06:33:14Z</time>
      </trkpt>
      <trkpt lat="46.33747" lon="6.87411">
        <ele>702.59997558594</ele>
        <time>2013-08-17T06:33:19Z</time>
      </trkpt>
      <trkpt lat="46.33763" lon="6.87434">
        <ele>705.40002441406</ele>
        <time>2013-08-17T06:33:35Z</time>
      </trkpt>
      <trkpt lat="46.33772" lon="6.8745">
        <ele>707</ele>
        <time>2013-08-17T06:33:46Z</time>
      </trkpt>
      <trkpt lat="46.33775" lon="6.87452">
        <ele>707.40002441406</ele>
        <time>2013-08-17T06:33:49Z</time>
      </trkpt>
      <trkpt lat="46.33792" lon="6.87463">
        <ele>709.40002441406</ele>
        <time>2013-08-17T06:34:02Z</time>
      </trkpt>
      <trkpt lat="46.33809" lon="6.87471">
        <ele>711.20001220703</ele>
        <time>2013-08-17T06:34:16Z</time>
      </trkpt>
      <trkpt lat="46.33827" lon="6.87478">
        <ele>712.40002441406</ele>
        <time>2013-08-17T06:34:29Z</time>
      </trkpt>
      <trkpt lat="46.33836" lon="6.8748">
        <ele>713</ele>
        <time>2013-08-17T06:34:34Z</time>
      </trkpt>
      <trkpt lat="46.33862" lon="6.87489">
        <ele>715.40002441406</ele>
        <time>2013-08-17T06:34:50Z</time>
      </trkpt>
      <trkpt lat="46.33892" lon="6.87504">
        <ele>718</ele>
        <time>2013-08-17T06:35:05Z</time>
      </trkpt>
      <trkpt lat="46.33916" lon="6.87517">
        <ele>720.40002441406</ele>
        <time>2013-08-17T06:35:20Z</time>
      </trkpt>
      <trkpt lat="46.33941" lon="6.87514">
        <ele>723.40002441406</ele>
        <time>2013-08-17T06:35:35Z</time>
      </trkpt>
      <trkpt lat="46.33967" lon="6.87494">
        <ele>725.40002441406</ele>
        <time>2013-08-17T06:35:51Z</time>
      </trkpt>
      <trkpt lat="46.33973" lon="6.87485">
        <ele>726.40002441406</ele>
        <time>2013-08-17T06:35:56Z</time>
      </trkpt>
      <trkpt lat="46.3396" lon="6.87481">
        <ele>727.40002441406</ele>
        <time>2013-08-17T06:36:04Z</time>
      </trkpt>
      <trkpt lat="46.33956" lon="6.87485">
        <ele>728</ele>
        <time>2013-08-17T06:36:07Z</time>
      </trkpt>
      <trkpt lat="46.3393" lon="6.87495">
        <ele>730</ele>
        <time>2013-08-17T06:36:21Z</time>
      </trkpt>
      <trkpt lat="46.33907" lon="6.87482">
        <ele>732.40002441406</ele>
        <time>2013-08-17T06:36:35Z</time>
      </trkpt>
      <trkpt lat="46.33888" lon="6.87461">
        <ele>734.40002441406</ele>
        <time>2013-08-17T06:36:49Z</time>
      </trkpt>
      <trkpt lat="46.33873" lon="6.8745">
        <ele>735.59997558594</ele>
        <time>2013-08-17T06:36:58Z</time>
      </trkpt>
      <trkpt lat="46.33851" lon="6.87436">
        <ele>738.40002441406</ele>
        <time>2013-08-17T06:37:12Z</time>
      </trkpt>
      <trkpt lat="46.33828" lon="6.87424">
        <ele>740.59997558594</ele>
        <time>2013-08-17T06:37:26Z</time>
      </trkpt>
      <trkpt lat="46.33813" lon="6.87395">
        <ele>743.20001220703</ele>
        <time>2013-08-17T06:37:42Z</time>
      </trkpt>
      <trkpt lat="46.338" lon="6.87364">
        <ele>745.40002441406</ele>
        <time>2013-08-17T06:37:59Z</time>
      </trkpt>
      <trkpt lat="46.33797" lon="6.87337">
        <ele>746.40002441406</ele>
        <time>2013-08-17T06:38:12Z</time>
      </trkpt>
      <trkpt lat="46.33791" lon="6.87306">
        <ele>748.40002441406</ele>
        <time>2013-08-17T06:38:25Z</time>
      </trkpt>
      <trkpt lat="46.33782" lon="6.87274">
        <ele>750.40002441406</ele>
        <time>2013-08-17T06:38:39Z</time>
      </trkpt>
      <trkpt lat="46.3378" lon="6.87262">
        <ele>751.40002441406</ele>
        <time>2013-08-17T06:38:44Z</time>
      </trkpt>
      <trkpt lat="46.33771" lon="6.8724">
        <ele>753.20001220703</ele>
        <time>2013-08-17T06:38:54Z</time>
      </trkpt>
      <trkpt lat="46.33771" lon="6.87235">
        <ele>753.59997558594</ele>
        <time>2013-08-17T06:38:56Z</time>
      </trkpt>
      <trkpt lat="46.33755" lon="6.87212">
        <ele>755.59997558594</ele>
        <time>2013-08-17T06:39:08Z</time>
      </trkpt>
      <trkpt lat="46.33731" lon="6.8719">
        <ele>758.40002441406</ele>
        <time>2013-08-17T06:39:23Z</time>
      </trkpt>
      <trkpt lat="46.33724" lon="6.87181">
        <ele>759.59997558594</ele>
        <time>2013-08-17T06:39:29Z</time>
      </trkpt>
      <trkpt lat="46.33718" lon="6.87169">
        <ele>760.40002441406</ele>
        <time>2013-08-17T06:39:35Z</time>
      </trkpt>
      <trkpt lat="46.33707" lon="6.87156">
        <ele>762</ele>
        <time>2013-08-17T06:39:42Z</time>
      </trkpt>
      <trkpt lat="46.33704" lon="6.87147">
        <ele>762.40002441406</ele>
        <time>2013-08-17T06:39:47Z</time>
      </trkpt>
      <trkpt lat="46.33697" lon="6.87128">
        <ele>764.20001220703</ele>
        <time>2013-08-17T06:39:56Z</time>
      </trkpt>
      <trkpt lat="46.33697" lon="6.87124">
        <ele>764.40002441406</ele>
        <time>2013-08-17T06:39:58Z</time>
      </trkpt>
      <trkpt lat="46.33691" lon="6.87111">
        <ele>765.59997558594</ele>
        <time>2013-08-17T06:40:05Z</time>
      </trkpt>
      <trkpt lat="46.33686" lon="6.87105">
        <ele>766.20001220703</ele>
        <time>2013-08-17T06:40:09Z</time>
      </trkpt>
      <trkpt lat="46.33683" lon="6.87096">
        <ele>767</ele>
        <time>2013-08-17T06:40:14Z</time>
      </trkpt>
      <trkpt lat="46.33672" lon="6.87069">
        <ele>768.59997558594</ele>
        <time>2013-08-17T06:40:28Z</time>
      </trkpt>
      <trkpt lat="46.33662" lon="6.87044">
        <ele>770.40002441406</ele>
        <time>2013-08-17T06:40:41Z</time>
      </trkpt>
      <trkpt lat="46.33651" lon="6.87026">
        <ele>771.59997558594</ele>
        <time>2013-08-17T06:40:52Z</time>
      </trkpt>
      <trkpt lat="46.33637" lon="6.87008">
        <ele>773.40002441406</ele>
        <time>2013-08-17T06:41:04Z</time>
      </trkpt>
      <trkpt lat="46.3362" lon="6.86985">
        <ele>776.40002441406</ele>
        <time>2013-08-17T06:41:16Z</time>
      </trkpt>
      <trkpt lat="46.33604" lon="6.86969">
        <ele>778</ele>
        <time>2013-08-17T06:41:27Z</time>
      </trkpt>
      <trkpt lat="46.33584" lon="6.86948">
        <ele>780</ele>
        <time>2013-08-17T06:41:41Z</time>
      </trkpt>
      <trkpt lat="46.33569" lon="6.86926">
        <ele>781.59997558594</ele>
        <time>2013-08-17T06:41:53Z</time>
      </trkpt>
      <trkpt lat="46.33553" lon="6.86898">
        <ele>784.20001220703</ele>
        <time>2013-08-17T06:42:08Z</time>
      </trkpt>
      <trkpt lat="46.33552" lon="6.86895">
        <ele>784.40002441406</ele>
        <time>2013-08-17T06:42:10Z</time>
      </trkpt>
      <trkpt lat="46.33534" lon="6.86875">
        <ele>786.40002441406</ele>
        <time>2013-08-17T06:42:23Z</time>
      </trkpt>
      <trkpt lat="46.33523" lon="6.86857">
        <ele>788.20001220703</ele>
        <time>2013-08-17T06:42:32Z</time>
      </trkpt>
      <trkpt lat="46.33516" lon="6.86839">
        <ele>789.40002441406</ele>
        <time>2013-08-17T06:42:42Z</time>
      </trkpt>
      <trkpt lat="46.33501" lon="6.86808">
        <ele>792</ele>
        <time>2013-08-17T06:42:57Z</time>
      </trkpt>
      <trkpt lat="46.33494" lon="6.86776">
        <ele>795</ele>
        <time>2013-08-17T06:43:12Z</time>
      </trkpt>
      <trkpt lat="46.33491" lon="6.86746">
        <ele>798</ele>
        <time>2013-08-17T06:43:24Z</time>
      </trkpt>
      <trkpt lat="46.33486" lon="6.86714">
        <ele>800.20001220703</ele>
        <time>2013-08-17T06:43:36Z</time>
      </trkpt>
      <trkpt lat="46.33484" lon="6.86695">
        <ele>801.40002441406</ele>
        <time>2013-08-17T06:43:44Z</time>
      </trkpt>
      <trkpt lat="46.33486" lon="6.86669">
        <ele>802.59997558594</ele>
        <time>2013-08-17T06:43:54Z</time>
      </trkpt>
      <trkpt lat="46.33499" lon="6.86647">
        <ele>805.20001220703</ele>
        <time>2013-08-17T06:44:07Z</time>
      </trkpt>
      <trkpt lat="46.33511" lon="6.86616">
        <ele>807.40002441406</ele>
        <time>2013-08-17T06:44:21Z</time>
      </trkpt>
      <trkpt lat="46.33519" lon="6.8658">
        <ele>810</ele>
        <time>2013-08-17T06:44:37Z</time>
      </trkpt>
      <trkpt lat="46.33515" lon="6.86547">
        <ele>812.20001220703</ele>
        <time>2013-08-17T06:44:51Z</time>
      </trkpt>
      <trkpt lat="46.33514" lon="6.86533">
        <ele>813.20001220703</ele>
        <time>2013-08-17T06:44:57Z</time>
      </trkpt>
      <trkpt lat="46.33506" lon="6.86499">
        <ele>815.40002441406</ele>
        <time>2013-08-17T06:45:12Z</time>
      </trkpt>
      <trkpt lat="46.33503" lon="6.8647">
        <ele>817.40002441406</ele>
        <time>2013-08-17T06:45:24Z</time>
      </trkpt>
      <trkpt lat="46.33502" lon="6.86441">
        <ele>819.40002441406</ele>
        <time>2013-08-17T06:45:36Z</time>
      </trkpt>
      <trkpt lat="46.33506" lon="6.86405">
        <ele>821.40002441406</ele>
        <time>2013-08-17T06:45:51Z</time>
      </trkpt>
      <trkpt lat="46.33509" lon="6.86366">
        <ele>824</ele>
        <time>2013-08-17T06:46:06Z</time>
      </trkpt>
      <trkpt lat="46.33508" lon="6.86329">
        <ele>826.40002441406</ele>
        <time>2013-08-17T06:46:19Z</time>
      </trkpt>
      <trkpt lat="46.33508" lon="6.86286">
        <ele>828.59997558594</ele>
        <time>2013-08-17T06:46:34Z</time>
      </trkpt>
      <trkpt lat="46.33506" lon="6.86252">
        <ele>831</ele>
        <time>2013-08-17T06:46:47Z</time>
      </trkpt>
      <trkpt lat="46.335" lon="6.86218">
        <ele>834</ele>
        <time>2013-08-17T06:47:00Z</time>
      </trkpt>
      <trkpt lat="46.33497" lon="6.86185">
        <ele>836.40002441406</ele>
        <time>2013-08-17T06:47:13Z</time>
      </trkpt>
      <trkpt lat="46.33492" lon="6.86154">
        <ele>838.59997558594</ele>
        <time>2013-08-17T06:47:25Z</time>
      </trkpt>
      <trkpt lat="46.33485" lon="6.86119">
        <ele>841.20001220703</ele>
        <time>2013-08-17T06:47:38Z</time>
      </trkpt>
      <trkpt lat="46.33478" lon="6.86094">
        <ele>842.40002441406</ele>
        <time>2013-08-17T06:47:48Z</time>
      </trkpt>
      <trkpt lat="46.3349" lon="6.86092">
        <ele>844</ele>
        <time>2013-08-17T06:47:56Z</time>
      </trkpt>
      <trkpt lat="46.33495" lon="6.86103">
        <ele>844.40002441406</ele>
        <time>2013-08-17T06:48:00Z</time>
      </trkpt>
      <trkpt lat="46.33507" lon="6.86143">
        <ele>846</ele>
        <time>2013-08-17T06:48:14Z</time>
      </trkpt>
      <trkpt lat="46.3351" lon="6.86157">
        <ele>846.40002441406</ele>
        <time>2013-08-17T06:48:19Z</time>
      </trkpt>
      <trkpt lat="46.33513" lon="6.86167">
        <ele>846.59997558594</ele>
        <time>2013-08-17T06:48:23Z</time>
      </trkpt>
      <trkpt lat="46.33517" lon="6.86177">
        <ele>847.40002441406</ele>
        <time>2013-08-17T06:48:29Z</time>
      </trkpt>
      <trkpt lat="46.33522" lon="6.86194">
        <ele>848.59997558594</ele>
        <time>2013-08-17T06:48:39Z</time>
      </trkpt>
      <trkpt lat="46.33522" lon="6.862">
        <ele>849.20001220703</ele>
        <time>2013-08-17T06:48:42Z</time>
      </trkpt>
      <trkpt lat="46.33529" lon="6.86219">
        <ele>850.59997558594</ele>
        <time>2013-08-17T06:48:52Z</time>
      </trkpt>
      <trkpt lat="46.33532" lon="6.86224">
        <ele>847.59997558594</ele>
        <time>2013-08-17T06:48:55Z</time>
      </trkpt>
      <trkpt lat="46.33535" lon="6.86231">
        <ele>851.40002441406</ele>
        <time>2013-08-17T06:48:59Z</time>
      </trkpt>
      <trkpt lat="46.33551" lon="6.8625">
        <ele>852.59997558594</ele>
        <time>2013-08-17T06:49:12Z</time>
      </trkpt>
      <trkpt lat="46.33553" lon="6.86253">
        <ele>852.20001220703</ele>
        <time>2013-08-17T06:49:14Z</time>
      </trkpt>
      <trkpt lat="46.33555" lon="6.86258">
        <ele>855.20001220703</ele>
        <time>2013-08-17T06:49:17Z</time>
      </trkpt>
      <trkpt lat="46.33557" lon="6.86264">
        <ele>854.20001220703</ele>
        <time>2013-08-17T06:49:20Z</time>
      </trkpt>
      <trkpt lat="46.33559" lon="6.86273">
        <ele>857.40002441406</ele>
        <time>2013-08-17T06:49:25Z</time>
      </trkpt>
      <trkpt lat="46.3356" lon="6.86275">
        <ele>857.40002441406</ele>
        <time>2013-08-17T06:49:26Z</time>
      </trkpt>
      <trkpt lat="46.33561" lon="6.86281">
        <ele>855.59997558594</ele>
        <time>2013-08-17T06:49:29Z</time>
      </trkpt>
      <trkpt lat="46.33562" lon="6.86293">
        <ele>856.40002441406</ele>
        <time>2013-08-17T06:49:35Z</time>
      </trkpt>
      <trkpt lat="46.3356" lon="6.86317">
        <ele>857.20001220703</ele>
        <time>2013-08-17T06:49:45Z</time>
      </trkpt>
      <trkpt lat="46.33562" lon="6.86331">
        <ele>861</ele>
        <time>2013-08-17T06:49:52Z</time>
      </trkpt>
      <trkpt lat="46.33564" lon="6.86339">
        <ele>857.40002441406</ele>
        <time>2013-08-17T06:49:57Z</time>
      </trkpt>
      <trkpt lat="46.33565" lon="6.8634">
        <ele>857.20001220703</ele>
        <time>2013-08-17T06:49:58Z</time>
      </trkpt>
      <trkpt lat="46.33568" lon="6.86342">
        <ele>860.20001220703</ele>
        <time>2013-08-17T06:50:00Z</time>
      </trkpt>
      <trkpt lat="46.33569" lon="6.86343">
        <ele>860.40002441406</ele>
        <time>2013-08-17T06:50:01Z</time>
      </trkpt>
      <trkpt lat="46.33587" lon="6.86356">
        <ele>861</ele>
        <time>2013-08-17T06:50:14Z</time>
      </trkpt>
      <trkpt lat="46.336" lon="6.86369">
        <ele>863.40002441406</ele>
        <time>2013-08-17T06:50:23Z</time>
      </trkpt>
      <trkpt lat="46.33605" lon="6.86388">
        <ele>865.20001220703</ele>
        <time>2013-08-17T06:50:31Z</time>
      </trkpt>
      <trkpt lat="46.33606" lon="6.86391">
        <ele>865.40002441406</ele>
        <time>2013-08-17T06:50:32Z</time>
      </trkpt>
      <trkpt lat="46.33609" lon="6.86423">
        <ele>867.40002441406</ele>
        <time>2013-08-17T06:50:44Z</time>
      </trkpt>
      <trkpt lat="46.3361" lon="6.8644">
        <ele>868.20001220703</ele>
        <time>2013-08-17T06:50:50Z</time>
      </trkpt>
      <trkpt lat="46.33612" lon="6.86459">
        <ele>869.20001220703</ele>
        <time>2013-08-17T06:50:57Z</time>
      </trkpt>
      <trkpt lat="46.33617" lon="6.86494">
        <ele>871</ele>
        <time>2013-08-17T06:51:09Z</time>
      </trkpt>
      <trkpt lat="46.33621" lon="6.86529">
        <ele>872.40002441406</ele>
        <time>2013-08-17T06:51:22Z</time>
      </trkpt>
      <trkpt lat="46.3362" lon="6.86565">
        <ele>874</ele>
        <time>2013-08-17T06:51:35Z</time>
      </trkpt>
      <trkpt lat="46.3362" lon="6.86571">
        <ele>874.40002441406</ele>
        <time>2013-08-17T06:51:38Z</time>
      </trkpt>
      <trkpt lat="46.33615" lon="6.86592">
        <ele>875.59997558594</ele>
        <time>2013-08-17T06:51:46Z</time>
      </trkpt>
      <trkpt lat="46.33615" lon="6.86597">
        <ele>875.59997558594</ele>
        <time>2013-08-17T06:51:48Z</time>
      </trkpt>
      <trkpt lat="46.33614" lon="6.86638">
        <ele>878.40002441406</ele>
        <time>2013-08-17T06:52:02Z</time>
      </trkpt>
      <trkpt lat="46.33623" lon="6.86676">
        <ele>881</ele>
        <time>2013-08-17T06:52:15Z</time>
      </trkpt>
      <trkpt lat="46.33642" lon="6.86706">
        <ele>884</ele>
        <time>2013-08-17T06:52:30Z</time>
      </trkpt>
      <trkpt lat="46.33648" lon="6.86712">
        <ele>884.40002441406</ele>
        <time>2013-08-17T06:52:34Z</time>
      </trkpt>
      <trkpt lat="46.33662" lon="6.86732">
        <ele>885.59997558594</ele>
        <time>2013-08-17T06:52:45Z</time>
      </trkpt>
      <trkpt lat="46.33669" lon="6.86745">
        <ele>886.59997558594</ele>
        <time>2013-08-17T06:52:51Z</time>
      </trkpt>
      <trkpt lat="46.33682" lon="6.86762">
        <ele>887.59997558594</ele>
        <time>2013-08-17T06:53:01Z</time>
      </trkpt>
      <trkpt lat="46.3369" lon="6.86775">
        <ele>888.59997558594</ele>
        <time>2013-08-17T06:53:08Z</time>
      </trkpt>
      <trkpt lat="46.3371" lon="6.86792">
        <ele>890.40002441406</ele>
        <time>2013-08-17T06:53:21Z</time>
      </trkpt>
      <trkpt lat="46.33717" lon="6.86797">
        <ele>890.59997558594</ele>
        <time>2013-08-17T06:53:25Z</time>
      </trkpt>
      <trkpt lat="46.33739" lon="6.8681">
        <ele>892.40002441406</ele>
        <time>2013-08-17T06:53:38Z</time>
      </trkpt>
      <trkpt lat="46.33765" lon="6.86828">
        <ele>894.40002441406</ele>
        <time>2013-08-17T06:53:53Z</time>
      </trkpt>
      <trkpt lat="46.33777" lon="6.86836">
        <ele>895.40002441406</ele>
        <time>2013-08-17T06:54:00Z</time>
      </trkpt>
      <trkpt lat="46.33796" lon="6.8685">
        <ele>897.59997558594</ele>
        <time>2013-08-17T06:54:13Z</time>
      </trkpt>
      <trkpt lat="46.33823" lon="6.86866">
        <ele>900.40002441406</ele>
        <time>2013-08-17T06:54:28Z</time>
      </trkpt>
      <trkpt lat="46.33842" lon="6.86879">
        <ele>902.40002441406</ele>
        <time>2013-08-17T06:54:40Z</time>
      </trkpt>
      <trkpt lat="46.33862" lon="6.86892">
        <ele>904.59997558594</ele>
        <time>2013-08-17T06:54:51Z</time>
      </trkpt>
      <trkpt lat="46.33869" lon="6.86898">
        <ele>905.40002441406</ele>
        <time>2013-08-17T06:54:55Z</time>
      </trkpt>
      <trkpt lat="46.33872" lon="6.869">
        <ele>906</ele>
        <time>2013-08-17T06:54:57Z</time>
      </trkpt>
      <trkpt lat="46.33879" lon="6.86904">
        <ele>906.40002441406</ele>
        <time>2013-08-17T06:55:02Z</time>
      </trkpt>
      <trkpt lat="46.33901" lon="6.8692">
        <ele>908.40002441406</ele>
        <time>2013-08-17T06:55:15Z</time>
      </trkpt>
      <trkpt lat="46.3392" lon="6.86935">
        <ele>910.40002441406</ele>
        <time>2013-08-17T06:55:26Z</time>
      </trkpt>
      <trkpt lat="46.33942" lon="6.86951">
        <ele>912.40002441406</ele>
        <time>2013-08-17T06:55:40Z</time>
      </trkpt>
      <trkpt lat="46.33959" lon="6.86961">
        <ele>914.20001220703</ele>
        <time>2013-08-17T06:55:50Z</time>
      </trkpt>
      <trkpt lat="46.33979" lon="6.86965">
        <ele>917</ele>
        <time>2013-08-17T06:56:02Z</time>
      </trkpt>
      <trkpt lat="46.34003" lon="6.86972">
        <ele>919.59997558594</ele>
        <time>2013-08-17T06:56:16Z</time>
      </trkpt>
      <trkpt lat="46.34029" lon="6.86982">
        <ele>922.20001220703</ele>
        <time>2013-08-17T06:56:31Z</time>
      </trkpt>
      <trkpt lat="46.34051" lon="6.86993">
        <ele>924.40002441406</ele>
        <time>2013-08-17T06:56:45Z</time>
      </trkpt>
      <trkpt lat="46.34062" lon="6.86986">
        <ele>925.40002441406</ele>
        <time>2013-08-17T06:56:53Z</time>
      </trkpt>
      <trkpt lat="46.3405" lon="6.86971">
        <ele>926.40002441406</ele>
        <time>2013-08-17T06:57:02Z</time>
      </trkpt>
      <trkpt lat="46.34045" lon="6.8697">
        <ele>926.59997558594</ele>
        <time>2013-08-17T06:57:04Z</time>
      </trkpt>
      <trkpt lat="46.34022" lon="6.86955">
        <ele>928.20001220703</ele>
        <time>2013-08-17T06:57:17Z</time>
      </trkpt>
      <trkpt lat="46.34005" lon="6.86938">
        <ele>930</ele>
        <time>2013-08-17T06:57:28Z</time>
      </trkpt>
      <trkpt lat="46.33986" lon="6.86914">
        <ele>932.40002441406</ele>
        <time>2013-08-17T06:57:43Z</time>
      </trkpt>
      <trkpt lat="46.33971" lon="6.86891">
        <ele>934.40002441406</ele>
        <time>2013-08-17T06:57:57Z</time>
      </trkpt>
      <trkpt lat="46.33956" lon="6.8687">
        <ele>936.40002441406</ele>
        <time>2013-08-17T06:58:10Z</time>
      </trkpt>
      <trkpt lat="46.33954" lon="6.86867">
        <ele>936.59997558594</ele>
        <time>2013-08-17T06:58:12Z</time>
      </trkpt>
      <trkpt lat="46.33943" lon="6.86845">
        <ele>938.40002441406</ele>
        <time>2013-08-17T06:58:23Z</time>
      </trkpt>
      <trkpt lat="46.33926" lon="6.8682">
        <ele>940.40002441406</ele>
        <time>2013-08-17T06:58:36Z</time>
      </trkpt>
      <trkpt lat="46.3391" lon="6.86797">
        <ele>942.59997558594</ele>
        <time>2013-08-17T06:58:50Z</time>
      </trkpt>
      <trkpt lat="46.33893" lon="6.86768">
        <ele>945</ele>
        <time>2013-08-17T06:59:06Z</time>
      </trkpt>
      <trkpt lat="46.33879" lon="6.86728">
        <ele>948.20001220703</ele>
        <time>2013-08-17T06:59:24Z</time>
      </trkpt>
      <trkpt lat="46.33868" lon="6.86699">
        <ele>951.20001220703</ele>
        <time>2013-08-17T06:59:39Z</time>
      </trkpt>
      <trkpt lat="46.33856" lon="6.86656">
        <ele>953.40002441406</ele>
        <time>2013-08-17T06:59:57Z</time>
      </trkpt>
      <trkpt lat="46.33847" lon="6.86605">
        <ele>956</ele>
        <time>2013-08-17T07:00:16Z</time>
      </trkpt>
      <trkpt lat="46.3385" lon="6.86556">
        <ele>958.40002441406</ele>
        <time>2013-08-17T07:00:34Z</time>
      </trkpt>
      <trkpt lat="46.33856" lon="6.86497">
        <ele>961.40002441406</ele>
        <time>2013-08-17T07:00:54Z</time>
      </trkpt>
      <trkpt lat="46.3385" lon="6.86435">
        <ele>963.59997558594</ele>
        <time>2013-08-17T07:01:13Z</time>
      </trkpt>
      <trkpt lat="46.3384" lon="6.86376">
        <ele>966.40002441406</ele>
        <time>2013-08-17T07:01:32Z</time>
      </trkpt>
      <trkpt lat="46.33829" lon="6.86338">
        <ele>969.40002441406</ele>
        <time>2013-08-17T07:01:49Z</time>
      </trkpt>
      <trkpt lat="46.33816" lon="6.86299">
        <ele>972.40002441406</ele>
        <time>2013-08-17T07:02:04Z</time>
      </trkpt>
      <trkpt lat="46.33809" lon="6.8626">
        <ele>975.20001220703</ele>
        <time>2013-08-17T07:02:19Z</time>
      </trkpt>
      <trkpt lat="46.33793" lon="6.8622">
        <ele>978.20001220703</ele>
        <time>2013-08-17T07:02:35Z</time>
      </trkpt>
      <trkpt lat="46.33778" lon="6.86196">
        <ele>980.59997558594</ele>
        <time>2013-08-17T07:02:49Z</time>
      </trkpt>
      <trkpt lat="46.33769" lon="6.86154">
        <ele>983.40002441406</ele>
        <time>2013-08-17T07:03:04Z</time>
      </trkpt>
      <trkpt lat="46.33764" lon="6.86117">
        <ele>985.20001220703</ele>
        <time>2013-08-17T07:03:19Z</time>
      </trkpt>
      <trkpt lat="46.33746" lon="6.86073">
        <ele>986.59997558594</ele>
        <time>2013-08-17T07:03:35Z</time>
      </trkpt>
      <trkpt lat="46.33734" lon="6.86029">
        <ele>989.40002441406</ele>
        <time>2013-08-17T07:03:53Z</time>
      </trkpt>
      <trkpt lat="46.33734" lon="6.85991">
        <ele>993</ele>
        <time>2013-08-17T07:04:07Z</time>
      </trkpt>
      <trkpt lat="46.33735" lon="6.85989">
        <ele>992.40002441406</ele>
        <time>2013-08-17T07:04:08Z</time>
      </trkpt>
      <trkpt lat="46.33746" lon="6.85933">
        <ele>994.40002441406</ele>
        <time>2013-08-17T07:04:25Z</time>
      </trkpt>
      <trkpt lat="46.33744" lon="6.85892">
        <ele>995.59997558594</ele>
        <time>2013-08-17T07:04:37Z</time>
      </trkpt>
      <trkpt lat="46.33736" lon="6.85853">
        <ele>996.59997558594</ele>
        <time>2013-08-17T07:04:49Z</time>
      </trkpt>
      <trkpt lat="46.33724" lon="6.85801">
        <ele>998.40002441406</ele>
        <time>2013-08-17T07:05:05Z</time>
      </trkpt>
      <trkpt lat="46.33726" lon="6.85729">
        <ele>999.40002441406</ele>
        <time>2013-08-17T07:05:23Z</time>
      </trkpt>
      <trkpt lat="46.33726" lon="6.8565">
        <ele>1001.4000244141</ele>
        <time>2013-08-17T07:05:41Z</time>
      </trkpt>
      <trkpt lat="46.33732" lon="6.85576">
        <ele>1002.4000244141</ele>
        <time>2013-08-17T07:05:58Z</time>
      </trkpt>
      <trkpt lat="46.33741" lon="6.85498">
        <ele>1004.4000244141</ele>
        <time>2013-08-17T07:06:17Z</time>
      </trkpt>
      <trkpt lat="46.33749" lon="6.85416">
        <ele>1006.4000244141</ele>
        <time>2013-08-17T07:06:36Z</time>
      </trkpt>
      <trkpt lat="46.33749" lon="6.85405">
        <ele>1006.5999755859</ele>
        <time>2013-08-17T07:06:40Z</time>
      </trkpt>
      <trkpt lat="46.33753" lon="6.854">
        <ele>1008.200012207</ele>
        <time>2013-08-17T07:10:32Z</time>
      </trkpt>
      <trkpt lat="46.33753" lon="6.85402">
        <ele>1008.4000244141</ele>
        <time>2013-08-17T07:10:47Z</time>
      </trkpt>
      <trkpt lat="46.33749" lon="6.85392">
        <ele>1009</ele>
        <time>2013-08-17T07:10:54Z</time>
      </trkpt>
      <trkpt lat="46.33752" lon="6.85351">
        <ele>1011</ele>
        <time>2013-08-17T07:11:09Z</time>
      </trkpt>
      <trkpt lat="46.33756" lon="6.85314">
        <ele>1013.4000244141</ele>
        <time>2013-08-17T07:11:23Z</time>
      </trkpt>
      <trkpt lat="46.33759" lon="6.85274">
        <ele>1016.200012207</ele>
        <time>2013-08-17T07:11:39Z</time>
      </trkpt>
      <trkpt lat="46.33769" lon="6.85237">
        <ele>1018.5999755859</ele>
        <time>2013-08-17T07:11:55Z</time>
      </trkpt>
      <trkpt lat="46.3378" lon="6.85205">
        <ele>1021.200012207</ele>
        <time>2013-08-17T07:12:10Z</time>
      </trkpt>
      <trkpt lat="46.33788" lon="6.85173">
        <ele>1023.4000244141</ele>
        <time>2013-08-17T07:12:23Z</time>
      </trkpt>
      <trkpt lat="46.33796" lon="6.85138">
        <ele>1026</ele>
        <time>2013-08-17T07:12:39Z</time>
      </trkpt>
      <trkpt lat="46.338" lon="6.85103">
        <ele>1029</ele>
        <time>2013-08-17T07:12:54Z</time>
      </trkpt>
      <trkpt lat="46.33801" lon="6.85098">
        <ele>1029</ele>
        <time>2013-08-17T07:12:56Z</time>
      </trkpt>
      <trkpt lat="46.338" lon="6.8508">
        <ele>1030.4000244141</ele>
        <time>2013-08-17T07:13:04Z</time>
      </trkpt>
      <trkpt lat="46.33805" lon="6.85038">
        <ele>1032.4000244141</ele>
        <time>2013-08-17T07:13:22Z</time>
      </trkpt>
      <trkpt lat="46.33814" lon="6.85006">
        <ele>1035.4000244141</ele>
        <time>2013-08-17T07:13:37Z</time>
      </trkpt>
      <trkpt lat="46.33825" lon="6.84988">
        <ele>1038.4000244141</ele>
        <time>2013-08-17T07:13:50Z</time>
      </trkpt>
      <trkpt lat="46.33832" lon="6.84966">
        <ele>1041.4000244141</ele>
        <time>2013-08-17T07:14:04Z</time>
      </trkpt>
      <trkpt lat="46.33835" lon="6.84938">
        <ele>1044.4000244141</ele>
        <time>2013-08-17T07:14:17Z</time>
      </trkpt>
      <trkpt lat="46.3384" lon="6.84896">
        <ele>1047.8000488281</ele>
        <time>2013-08-17T07:14:40Z</time>
      </trkpt>
      <trkpt lat="46.3384" lon="6.84893">
        <ele>1047.8000488281</ele>
        <time>2013-08-17T07:14:41Z</time>
      </trkpt>
      <trkpt lat="46.33833" lon="6.84858">
        <ele>1049</ele>
        <time>2013-08-17T07:14:53Z</time>
      </trkpt>
      <trkpt lat="46.33821" lon="6.8483">
        <ele>1051</ele>
        <time>2013-08-17T07:15:08Z</time>
      </trkpt>
      <trkpt lat="46.33812" lon="6.8481">
        <ele>1054</ele>
        <time>2013-08-17T07:15:20Z</time>
      </trkpt>
      <trkpt lat="46.338" lon="6.84795">
        <ele>1057</ele>
        <time>2013-08-17T07:15:32Z</time>
      </trkpt>
      <trkpt lat="46.33783" lon="6.84781">
        <ele>1060</ele>
        <time>2013-08-17T07:15:48Z</time>
      </trkpt>
      <trkpt lat="46.33782" lon="6.84768">
        <ele>1062</ele>
        <time>2013-08-17T07:15:58Z</time>
      </trkpt>
      <trkpt lat="46.33782" lon="6.84766">
        <ele>1062</ele>
        <time>2013-08-17T07:15:59Z</time>
      </trkpt>
      <trkpt lat="46.33783" lon="6.84734">
        <ele>1066</ele>
        <time>2013-08-17T07:16:22Z</time>
      </trkpt>
      <trkpt lat="46.33781" lon="6.84728">
        <ele>1066.8000488281</ele>
        <time>2013-08-17T07:16:26Z</time>
      </trkpt>
      <trkpt lat="46.33766" lon="6.84708">
        <ele>1070.8000488281</ele>
        <time>2013-08-17T07:16:46Z</time>
      </trkpt>
      <trkpt lat="46.33765" lon="6.84707">
        <ele>1071</ele>
        <time>2013-08-17T07:16:47Z</time>
      </trkpt>
      <trkpt lat="46.33755" lon="6.847">
        <ele>1074.4000244141</ele>
        <time>2013-08-17T07:16:59Z</time>
      </trkpt>
      <trkpt lat="46.33739" lon="6.84679">
        <ele>1078.4000244141</ele>
        <time>2013-08-17T07:17:19Z</time>
      </trkpt>
      <trkpt lat="46.33729" lon="6.84659">
        <ele>1081.4000244141</ele>
        <time>2013-08-17T07:17:33Z</time>
      </trkpt>
      <trkpt lat="46.33723" lon="6.84645">
        <ele>1083</ele>
        <time>2013-08-17T07:18:11Z</time>
      </trkpt>
      <trkpt lat="46.33717" lon="6.84633">
        <ele>1084.4000244141</ele>
        <time>2013-08-17T07:18:18Z</time>
      </trkpt>
      <trkpt lat="46.33709" lon="6.84621">
        <ele>1086.4000244141</ele>
        <time>2013-08-17T07:18:27Z</time>
      </trkpt>
      <trkpt lat="46.33702" lon="6.84609">
        <ele>1089.4000244141</ele>
        <time>2013-08-17T07:18:38Z</time>
      </trkpt>
      <trkpt lat="46.33696" lon="6.84599">
        <ele>1091.4000244141</ele>
        <time>2013-08-17T07:18:48Z</time>
      </trkpt>
      <trkpt lat="46.33691" lon="6.84591">
        <ele>1093</ele>
        <time>2013-08-17T07:18:56Z</time>
      </trkpt>
      <trkpt lat="46.33684" lon="6.84587">
        <ele>1095</ele>
        <time>2013-08-17T07:19:04Z</time>
      </trkpt>
      <trkpt lat="46.33678" lon="6.84582">
        <ele>1096.4000244141</ele>
        <time>2013-08-17T07:19:10Z</time>
      </trkpt>
      <trkpt lat="46.33667" lon="6.84573">
        <ele>1099.4000244141</ele>
        <time>2013-08-17T07:19:22Z</time>
      </trkpt>
      <trkpt lat="46.33666" lon="6.84559">
        <ele>1101.4000244141</ele>
        <time>2013-08-17T07:19:38Z</time>
      </trkpt>
      <trkpt lat="46.33674" lon="6.84562">
        <ele>1103</ele>
        <time>2013-08-17T07:19:47Z</time>
      </trkpt>
      <trkpt lat="46.3369" lon="6.84557">
        <ele>1105.4000244141</ele>
        <time>2013-08-17T07:20:02Z</time>
      </trkpt>
      <trkpt lat="46.33698" lon="6.84556">
        <ele>1107.4000244141</ele>
        <time>2013-08-17T07:20:10Z</time>
      </trkpt>
      <trkpt lat="46.33709" lon="6.84552">
        <ele>1110.4000244141</ele>
        <time>2013-08-17T07:20:21Z</time>
      </trkpt>
      <trkpt lat="46.3372" lon="6.84555">
        <ele>1113.4000244141</ele>
        <time>2013-08-17T07:20:32Z</time>
      </trkpt>
      <trkpt lat="46.33734" lon="6.84553">
        <ele>1116.4000244141</ele>
        <time>2013-08-17T07:20:44Z</time>
      </trkpt>
      <trkpt lat="46.33749" lon="6.84553">
        <ele>1119.4000244141</ele>
        <time>2013-08-17T07:20:57Z</time>
      </trkpt>
      <trkpt lat="46.33762" lon="6.84552">
        <ele>1122.4000244141</ele>
        <time>2013-08-17T07:21:09Z</time>
      </trkpt>
      <trkpt lat="46.33775" lon="6.84548">
        <ele>1126</ele>
        <time>2013-08-17T07:21:20Z</time>
      </trkpt>
      <trkpt lat="46.33786" lon="6.84551">
        <ele>1126</ele>
        <time>2013-08-17T07:21:32Z</time>
      </trkpt>
      <trkpt lat="46.33796" lon="6.84556">
        <ele>1128</ele>
        <time>2013-08-17T07:21:42Z</time>
      </trkpt>
      <trkpt lat="46.33811" lon="6.8456">
        <ele>1130.8000488281</ele>
        <time>2013-08-17T07:22:00Z</time>
      </trkpt>
      <trkpt lat="46.33817" lon="6.84562">
        <ele>1131.8000488281</ele>
        <time>2013-08-17T07:22:05Z</time>
      </trkpt>
      <trkpt lat="46.33829" lon="6.84561">
        <ele>1134</ele>
        <time>2013-08-17T07:22:17Z</time>
      </trkpt>
      <trkpt lat="46.33847" lon="6.84567">
        <ele>1137.4000244141</ele>
        <time>2013-08-17T07:22:40Z</time>
      </trkpt>
      <trkpt lat="46.33848" lon="6.84567">
        <ele>1137.4000244141</ele>
        <time>2013-08-17T07:22:41Z</time>
      </trkpt>
      <trkpt lat="46.33852" lon="6.84567">
        <ele>1138.4000244141</ele>
        <time>2013-08-17T07:22:46Z</time>
      </trkpt>
      <trkpt lat="46.33864" lon="6.84575">
        <ele>1140.8000488281</ele>
        <time>2013-08-17T07:22:57Z</time>
      </trkpt>
      <trkpt lat="46.33866" lon="6.84576">
        <ele>1141</ele>
        <time>2013-08-17T07:22:58Z</time>
      </trkpt>
      <trkpt lat="46.33873" lon="6.84577">
        <ele>1142.4000244141</ele>
        <time>2013-08-17T07:23:11Z</time>
      </trkpt>
      <trkpt lat="46.33876" lon="6.84597">
        <ele>1146</ele>
        <time>2013-08-17T07:23:22Z</time>
      </trkpt>
      <trkpt lat="46.33876" lon="6.84599">
        <ele>1146</ele>
        <time>2013-08-17T07:23:23Z</time>
      </trkpt>
      <trkpt lat="46.33876" lon="6.84608">
        <ele>1147</ele>
        <time>2013-08-17T07:23:27Z</time>
      </trkpt>
      <trkpt lat="46.33886" lon="6.84628">
        <ele>1149.4000244141</ele>
        <time>2013-08-17T07:23:43Z</time>
      </trkpt>
      <trkpt lat="46.33896" lon="6.84637">
        <ele>1151.4000244141</ele>
        <time>2013-08-17T07:23:53Z</time>
      </trkpt>
      <trkpt lat="46.33907" lon="6.84656">
        <ele>1154.4000244141</ele>
        <time>2013-08-17T07:24:50Z</time>
      </trkpt>
      <trkpt lat="46.33914" lon="6.8467">
        <ele>1156.4000244141</ele>
        <time>2013-08-17T07:24:59Z</time>
      </trkpt>
      <trkpt lat="46.33929" lon="6.84688">
        <ele>1160</ele>
        <time>2013-08-17T07:25:18Z</time>
      </trkpt>
      <trkpt lat="46.3393" lon="6.84689">
        <ele>1160</ele>
        <time>2013-08-17T07:25:19Z</time>
      </trkpt>
      <trkpt lat="46.33937" lon="6.8469">
        <ele>1162</ele>
        <time>2013-08-17T07:25:28Z</time>
      </trkpt>
      <trkpt lat="46.33946" lon="6.84681">
        <ele>1165</ele>
        <time>2013-08-17T07:25:40Z</time>
      </trkpt>
      <trkpt lat="46.33948" lon="6.84681">
        <ele>1166</ele>
        <time>2013-08-17T07:25:42Z</time>
      </trkpt>
      <trkpt lat="46.33952" lon="6.8468">
        <ele>1166.4000244141</ele>
        <time>2013-08-17T07:25:46Z</time>
      </trkpt>
      <trkpt lat="46.33957" lon="6.84676">
        <ele>1168.4000244141</ele>
        <time>2013-08-17T07:26:45Z</time>
      </trkpt>
      <trkpt lat="46.33959" lon="6.84668">
        <ele>1169</ele>
        <time>2013-08-17T07:26:49Z</time>
      </trkpt>
      <trkpt lat="46.33959" lon="6.84662">
        <ele>1170</ele>
        <time>2013-08-17T07:26:52Z</time>
      </trkpt>
      <trkpt lat="46.33953" lon="6.84656">
        <ele>1171.8000488281</ele>
        <time>2013-08-17T07:26:58Z</time>
      </trkpt>
      <trkpt lat="46.33947" lon="6.84642">
        <ele>1174.8000488281</ele>
        <time>2013-08-17T07:27:10Z</time>
      </trkpt>
      <trkpt lat="46.33939" lon="6.84627">
        <ele>1177.8000488281</ele>
        <time>2013-08-17T07:27:24Z</time>
      </trkpt>
      <trkpt lat="46.33933" lon="6.84609">
        <ele>1180.4000244141</ele>
        <time>2013-08-17T07:27:39Z</time>
      </trkpt>
      <trkpt lat="46.33929" lon="6.84588">
        <ele>1184</ele>
        <time>2013-08-17T07:27:55Z</time>
      </trkpt>
      <trkpt lat="46.33929" lon="6.8457">
        <ele>1187</ele>
        <time>2013-08-17T07:28:11Z</time>
      </trkpt>
      <trkpt lat="46.33929" lon="6.84538">
        <ele>1191.4000244141</ele>
        <time>2013-08-17T07:28:39Z</time>
      </trkpt>
      <trkpt lat="46.33927" lon="6.84529">
        <ele>1192.4000244141</ele>
        <time>2013-08-17T07:28:45Z</time>
      </trkpt>
      <trkpt lat="46.33921" lon="6.84518">
        <ele>1195.4000244141</ele>
        <time>2013-08-17T07:28:57Z</time>
      </trkpt>
      <trkpt lat="46.33921" lon="6.84516">
        <ele>1195.4000244141</ele>
        <time>2013-08-17T07:28:58Z</time>
      </trkpt>
      <trkpt lat="46.3393" lon="6.84498">
        <ele>1203</ele>
        <time>2013-08-17T07:29:41Z</time>
      </trkpt>
      <trkpt lat="46.33935" lon="6.84505">
        <ele>1204.8000488281</ele>
        <time>2013-08-17T07:29:49Z</time>
      </trkpt>
      <trkpt lat="46.33946" lon="6.84513">
        <ele>1206.4000244141</ele>
        <time>2013-08-17T07:30:02Z</time>
      </trkpt>
      <trkpt lat="46.33958" lon="6.8453">
        <ele>1209.4000244141</ele>
        <time>2013-08-17T07:30:17Z</time>
      </trkpt>
      <trkpt lat="46.33968" lon="6.84551">
        <ele>1212.4000244141</ele>
        <time>2013-08-17T07:30:34Z</time>
      </trkpt>
      <trkpt lat="46.3397" lon="6.84561">
        <ele>1213.8000488281</ele>
        <time>2013-08-17T07:30:41Z</time>
      </trkpt>
      <trkpt lat="46.33973" lon="6.84565">
        <ele>1215</ele>
        <time>2013-08-17T07:30:46Z</time>
      </trkpt>
      <trkpt lat="46.33979" lon="6.8458">
        <ele>1216.8000488281</ele>
        <time>2013-08-17T07:30:57Z</time>
      </trkpt>
      <trkpt lat="46.33997" lon="6.84554">
        <ele>1223</ele>
        <time>2013-08-17T07:31:34Z</time>
      </trkpt>
      <trkpt lat="46.34002" lon="6.84546">
        <ele>1224.4000244141</ele>
        <time>2013-08-17T07:31:43Z</time>
      </trkpt>
      <trkpt lat="46.34003" lon="6.84545">
        <ele>1224.4000244141</ele>
        <time>2013-08-17T07:31:44Z</time>
      </trkpt>
      <trkpt lat="46.34014" lon="6.84528">
        <ele>1227.4000244141</ele>
        <time>2013-08-17T07:32:03Z</time>
      </trkpt>
      <trkpt lat="46.34026" lon="6.84509">
        <ele>1230.4000244141</ele>
        <time>2013-08-17T07:32:18Z</time>
      </trkpt>
      <trkpt lat="46.34031" lon="6.84504">
        <ele>1233.4000244141</ele>
        <time>2013-08-17T07:32:32Z</time>
      </trkpt>
      <trkpt lat="46.34039" lon="6.84503">
        <ele>1236</ele>
        <time>2013-08-17T07:32:44Z</time>
      </trkpt>
      <trkpt lat="46.34067" lon="6.84526">
        <ele>1243.4000244141</ele>
        <time>2013-08-17T07:33:22Z</time>
      </trkpt>
      <trkpt lat="46.34068" lon="6.84526">
        <ele>1243.4000244141</ele>
        <time>2013-08-17T07:33:23Z</time>
      </trkpt>
      <trkpt lat="46.34071" lon="6.84528">
        <ele>1244.4000244141</ele>
        <time>2013-08-17T07:33:27Z</time>
      </trkpt>
      <trkpt lat="46.34078" lon="6.84541">
        <ele>1247.4000244141</ele>
        <time>2013-08-17T07:33:43Z</time>
      </trkpt>
      <trkpt lat="46.34082" lon="6.84561">
        <ele>1250.4000244141</ele>
        <time>2013-08-17T07:33:59Z</time>
      </trkpt>
      <trkpt lat="46.34082" lon="6.84562">
        <ele>1250.4000244141</ele>
        <time>2013-08-17T07:34:00Z</time>
      </trkpt>
      <trkpt lat="46.34107" lon="6.84595">
        <ele>1257.4000244141</ele>
        <time>2013-08-17T07:34:44Z</time>
      </trkpt>
      <trkpt lat="46.34108" lon="6.84596">
        <ele>1257.4000244141</ele>
        <time>2013-08-17T07:34:45Z</time>
      </trkpt>
      <trkpt lat="46.34112" lon="6.84606">
        <ele>1259</ele>
        <time>2013-08-17T07:35:11Z</time>
      </trkpt>
      <trkpt lat="46.34118" lon="6.8462">
        <ele>1262.4000244141</ele>
        <time>2013-08-17T07:35:23Z</time>
      </trkpt>
      <trkpt lat="46.34121" lon="6.84635">
        <ele>1265.4000244141</ele>
        <time>2013-08-17T07:35:39Z</time>
      </trkpt>
      <trkpt lat="46.34126" lon="6.84647">
        <ele>1268</ele>
        <time>2013-08-17T07:35:50Z</time>
      </trkpt>
      <trkpt lat="46.34128" lon="6.84648">
        <ele>1268.4000244141</ele>
        <time>2013-08-17T07:35:53Z</time>
      </trkpt>
      <trkpt lat="46.34133" lon="6.8464">
        <ele>1270</ele>
        <time>2013-08-17T07:36:02Z</time>
      </trkpt>
      <trkpt lat="46.34134" lon="6.84629">
        <ele>1274</ele>
        <time>2013-08-17T07:36:23Z</time>
      </trkpt>
      <trkpt lat="46.34139" lon="6.84574">
        <ele>1284</ele>
        <time>2013-08-17T07:37:17Z</time>
      </trkpt>
      <trkpt lat="46.3414" lon="6.84567">
        <ele>1284</ele>
        <time>2013-08-17T07:37:18Z</time>
      </trkpt>
      <trkpt lat="46.34146" lon="6.8454">
        <ele>1285.4000244141</ele>
        <time>2013-08-17T07:37:26Z</time>
      </trkpt>
      <trkpt lat="46.34164" lon="6.84472">
        <ele>1297</ele>
        <time>2013-08-17T07:38:50Z</time>
      </trkpt>
      <trkpt lat="46.34165" lon="6.84465">
        <ele>1297.8000488281</ele>
        <time>2013-08-17T07:39:26Z</time>
      </trkpt>
      <trkpt lat="46.34164" lon="6.84441">
        <ele>1302</ele>
        <time>2013-08-17T07:39:46Z</time>
      </trkpt>
      <trkpt lat="46.34164" lon="6.84439">
        <ele>1302</ele>
        <time>2013-08-17T07:39:47Z</time>
      </trkpt>
      <trkpt lat="46.34163" lon="6.84435">
        <ele>1302.8000488281</ele>
        <time>2013-08-17T07:39:50Z</time>
      </trkpt>
      <trkpt lat="46.34157" lon="6.84412">
        <ele>1307.4000244141</ele>
        <time>2013-08-17T07:40:11Z</time>
      </trkpt>
      <trkpt lat="46.34156" lon="6.84409">
        <ele>1307.4000244141</ele>
        <time>2013-08-17T07:40:13Z</time>
      </trkpt>
      <trkpt lat="46.34153" lon="6.84391">
        <ele>1310</ele>
        <time>2013-08-17T07:40:25Z</time>
      </trkpt>
      <trkpt lat="46.34146" lon="6.84373">
        <ele>1314.4000244141</ele>
        <time>2013-08-17T07:40:48Z</time>
      </trkpt>
      <trkpt lat="46.34146" lon="6.84372">
        <ele>1314.4000244141</ele>
        <time>2013-08-17T07:40:49Z</time>
      </trkpt>
      <trkpt lat="46.34145" lon="6.84359">
        <ele>1317</ele>
        <time>2013-08-17T07:41:03Z</time>
      </trkpt>
      <trkpt lat="46.3414" lon="6.84339">
        <ele>1320</ele>
        <time>2013-08-17T07:41:19Z</time>
      </trkpt>
      <trkpt lat="46.34134" lon="6.8433">
        <ele>1323</ele>
        <time>2013-08-17T07:41:37Z</time>
      </trkpt>
      <trkpt lat="46.3413" lon="6.8432">
        <ele>1327.4000244141</ele>
        <time>2013-08-17T07:41:50Z</time>
      </trkpt>
      <trkpt lat="46.3413" lon="6.84313">
        <ele>1328.4000244141</ele>
        <time>2013-08-17T07:41:58Z</time>
      </trkpt>
      <trkpt lat="46.34135" lon="6.84314">
        <ele>1331</ele>
        <time>2013-08-17T07:42:11Z</time>
      </trkpt>
      <trkpt lat="46.34139" lon="6.84318">
        <ele>1332.8000488281</ele>
        <time>2013-08-17T07:42:18Z</time>
      </trkpt>
      <trkpt lat="46.3414" lon="6.84318">
        <ele>1332.8000488281</ele>
        <time>2013-08-17T07:42:19Z</time>
      </trkpt>
      <trkpt lat="46.3415" lon="6.84321">
        <ele>1334.4000244141</ele>
        <time>2013-08-17T07:42:31Z</time>
      </trkpt>
      <trkpt lat="46.34172" lon="6.84342">
        <ele>1342</ele>
        <time>2013-08-17T07:43:22Z</time>
      </trkpt>
      <trkpt lat="46.34172" lon="6.84345">
        <ele>1342</ele>
        <time>2013-08-17T07:43:23Z</time>
      </trkpt>
      <trkpt lat="46.34174" lon="6.8436">
        <ele>1344.4000244141</ele>
        <time>2013-08-17T07:43:38Z</time>
      </trkpt>
      <trkpt lat="46.34178" lon="6.84364">
        <ele>1345</ele>
        <time>2013-08-17T07:43:43Z</time>
      </trkpt>
      <trkpt lat="46.34183" lon="6.84362">
        <ele>1346</ele>
        <time>2013-08-17T07:43:49Z</time>
      </trkpt>
      <trkpt lat="46.34186" lon="6.84329">
        <ele>1351.4000244141</ele>
        <time>2013-08-17T07:44:17Z</time>
      </trkpt>
      <trkpt lat="46.3419" lon="6.84313">
        <ele>1354.8000488281</ele>
        <time>2013-08-17T07:44:44Z</time>
      </trkpt>
      <trkpt lat="46.34191" lon="6.8431">
        <ele>1355</ele>
        <time>2013-08-17T07:44:46Z</time>
      </trkpt>
      <trkpt lat="46.34192" lon="6.84307">
        <ele>1355.4000244141</ele>
        <time>2013-08-17T07:44:48Z</time>
      </trkpt>
      <trkpt lat="46.34197" lon="6.84277">
        <ele>1359.4000244141</ele>
        <time>2013-08-17T07:45:13Z</time>
      </trkpt>
      <trkpt lat="46.34197" lon="6.84276">
        <ele>1359.4000244141</ele>
        <time>2013-08-17T07:45:14Z</time>
      </trkpt>
      <trkpt lat="46.34204" lon="6.84255">
        <ele>1362.4000244141</ele>
        <time>2013-08-17T07:45:30Z</time>
      </trkpt>
      <trkpt lat="46.34208" lon="6.84243">
        <ele>1364</ele>
        <time>2013-08-17T07:45:39Z</time>
      </trkpt>
      <trkpt lat="46.34212" lon="6.84217">
        <ele>1367.4000244141</ele>
        <time>2013-08-17T07:45:58Z</time>
      </trkpt>
      <trkpt lat="46.34212" lon="6.84215">
        <ele>1367.4000244141</ele>
        <time>2013-08-17T07:45:59Z</time>
      </trkpt>
      <trkpt lat="46.3422" lon="6.84189">
        <ele>1370.4000244141</ele>
        <time>2013-08-17T07:46:17Z</time>
      </trkpt>
      <trkpt lat="46.34234" lon="6.84158">
        <ele>1376</ele>
        <time>2013-08-17T07:46:50Z</time>
      </trkpt>
      <trkpt lat="46.34234" lon="6.84155">
        <ele>1376.4000244141</ele>
        <time>2013-08-17T07:46:52Z</time>
      </trkpt>
      <trkpt lat="46.34245" lon="6.84145">
        <ele>1378</ele>
        <time>2013-08-17T07:47:01Z</time>
      </trkpt>
      <trkpt lat="46.34257" lon="6.84149">
        <ele>1379</ele>
        <time>2013-08-17T07:47:07Z</time>
      </trkpt>
      <trkpt lat="46.34286" lon="6.84146">
        <ele>1380.8000488281</ele>
        <time>2013-08-17T07:47:18Z</time>
      </trkpt>
      <trkpt lat="46.34269" lon="6.84151">
        <ele>1381.4000244141</ele>
        <time>2013-08-17T07:47:22Z</time>
      </trkpt>
      <trkpt lat="46.34262" lon="6.84155">
        <ele>1381.8000488281</ele>
        <time>2013-08-17T07:47:24Z</time>
      </trkpt>
      <trkpt lat="46.34239" lon="6.84168">
        <ele>1382.8000488281</ele>
        <time>2013-08-17T07:47:30Z</time>
      </trkpt>
      <trkpt lat="46.34219" lon="6.84175">
        <ele>1383.4000244141</ele>
        <time>2013-08-17T07:47:35Z</time>
      </trkpt>
      <trkpt lat="46.34196" lon="6.84193">
        <ele>1384.4000244141</ele>
        <time>2013-08-17T07:47:41Z</time>
      </trkpt>
      <trkpt lat="46.34178" lon="6.84207">
        <ele>1385.4000244141</ele>
        <time>2013-08-17T07:47:46Z</time>
      </trkpt>
      <trkpt lat="46.34124" lon="6.84249">
        <ele>1387.4000244141</ele>
        <time>2013-08-17T07:47:59Z</time>
      </trkpt>
      <trkpt lat="46.34068" lon="6.843">
        <ele>1388.8000488281</ele>
        <time>2013-08-17T07:48:10Z</time>
      </trkpt>
      <trkpt lat="46.34022" lon="6.84336">
        <ele>1391</ele>
        <time>2013-08-17T07:48:20Z</time>
      </trkpt>
      <trkpt lat="46.3397" lon="6.84384">
        <ele>1394</ele>
        <time>2013-08-17T07:48:35Z</time>
      </trkpt>
      <trkpt lat="46.33921" lon="6.84419">
        <ele>1396.4000244141</ele>
        <time>2013-08-17T07:48:51Z</time>
      </trkpt>
      <trkpt lat="46.33885" lon="6.84456">
        <ele>1399</ele>
        <time>2013-08-17T07:49:05Z</time>
      </trkpt>
      <trkpt lat="46.33846" lon="6.84498">
        <ele>1402</ele>
        <time>2013-08-17T07:49:21Z</time>
      </trkpt>
      <trkpt lat="46.33818" lon="6.84522">
        <ele>1403.8000488281</ele>
        <time>2013-08-17T07:49:35Z</time>
      </trkpt>
      <trkpt lat="46.33818" lon="6.84521">
        <ele>1403.8000488281</ele>
        <time>2013-08-17T07:49:36Z</time>
      </trkpt>
      <trkpt lat="46.33833" lon="6.84487">
        <ele>1404</ele>
        <time>2013-08-17T07:49:39Z</time>
      </trkpt>
      <trkpt lat="46.33856" lon="6.84463">
        <ele>1404.4000244141</ele>
        <time>2013-08-17T07:49:43Z</time>
      </trkpt>
      <trkpt lat="46.33905" lon="6.84401">
        <ele>1404.4000244141</ele>
        <time>2013-08-17T07:49:45Z</time>
      </trkpt>
      <trkpt lat="46.34006" lon="6.84283">
        <ele>1404.4000244141</ele>
        <time>2013-08-17T07:49:47Z</time>
      </trkpt>
      <trkpt lat="46.34035" lon="6.84233">
        <ele>1404</ele>
        <time>2013-08-17T07:49:49Z</time>
      </trkpt>
      <trkpt lat="46.34076" lon="6.84133">
        <ele>1402.4000244141</ele>
        <time>2013-08-17T07:49:54Z</time>
      </trkpt>
      <trkpt lat="46.34081" lon="6.84117">
        <ele>1402.4000244141</ele>
        <time>2013-08-17T07:49:55Z</time>
      </trkpt>
      <trkpt lat="46.34104" lon="6.84065">
        <ele>1401.4000244141</ele>
        <time>2013-08-17T07:49:59Z</time>
      </trkpt>
      <trkpt lat="46.34153" lon="6.83982">
        <ele>1399.4000244141</ele>
        <time>2013-08-17T07:50:08Z</time>
      </trkpt>
      <trkpt lat="46.34165" lon="6.83964">
        <ele>1398.4000244141</ele>
        <time>2013-08-17T07:50:10Z</time>
      </trkpt>
      <trkpt lat="46.34174" lon="6.83946">
        <ele>1398</ele>
        <time>2013-08-17T07:50:12Z</time>
      </trkpt>
      <trkpt lat="46.34204" lon="6.839">
        <ele>1397</ele>
        <time>2013-08-17T07:50:17Z</time>
      </trkpt>
      <trkpt lat="46.34242" lon="6.8384">
        <ele>1395.4000244141</ele>
        <time>2013-08-17T07:50:23Z</time>
      </trkpt>
      <trkpt lat="46.34265" lon="6.83789">
        <ele>1394.8000488281</ele>
        <time>2013-08-17T07:50:28Z</time>
      </trkpt>
      <trkpt lat="46.3427" lon="6.8377">
        <ele>1394</ele>
        <time>2013-08-17T07:50:30Z</time>
      </trkpt>
      <trkpt lat="46.34288" lon="6.83735">
        <ele>1392.4000244141</ele>
        <time>2013-08-17T07:50:34Z</time>
      </trkpt>
      <trkpt lat="46.34325" lon="6.83693">
        <ele>1392</ele>
        <time>2013-08-17T07:50:37Z</time>
      </trkpt>
      <trkpt lat="46.34334" lon="6.83672">
        <ele>1391.4000244141</ele>
        <time>2013-08-17T07:50:39Z</time>
      </trkpt>
      <trkpt lat="46.34344" lon="6.83613">
        <ele>1391</ele>
        <time>2013-08-17T07:50:46Z</time>
      </trkpt>
      <trkpt lat="46.34342" lon="6.83583">
        <ele>1390.4000244141</ele>
        <time>2013-08-17T07:50:50Z</time>
      </trkpt>
      <trkpt lat="46.34353" lon="6.83509">
        <ele>1387.4000244141</ele>
        <time>2013-08-17T07:50:57Z</time>
      </trkpt>
      <trkpt lat="46.34359" lon="6.83462">
        <ele>1384</ele>
        <time>2013-08-17T07:51:01Z</time>
      </trkpt>
      <trkpt lat="46.34377" lon="6.83422">
        <ele>1381</ele>
        <time>2013-08-17T07:51:06Z</time>
      </trkpt>
      <trkpt lat="46.3442" lon="6.83361">
        <ele>1379.4000244141</ele>
        <time>2013-08-17T07:51:15Z</time>
      </trkpt>
      <trkpt lat="46.34452" lon="6.83323">
        <ele>1378.4000244141</ele>
        <time>2013-08-17T07:51:19Z</time>
      </trkpt>
      <trkpt lat="46.34489" lon="6.83269">
        <ele>1378.4000244141</ele>
        <time>2013-08-17T07:51:28Z</time>
      </trkpt>
      <trkpt lat="46.34497" lon="6.83253">
        <ele>1379.4000244141</ele>
        <time>2013-08-17T07:51:31Z</time>
      </trkpt>
      <trkpt lat="46.34509" lon="6.83248">
        <ele>1379.4000244141</ele>
        <time>2013-08-17T08:00:18Z</time>
      </trkpt>
      <trkpt lat="46.34496" lon="6.83261">
        <ele>1378</ele>
        <time>2013-08-17T08:12:00Z</time>
      </trkpt>
      <trkpt lat="46.34495" lon="6.83261">
        <ele>1378</ele>
        <time>2013-08-17T08:12:01Z</time>
      </trkpt>
      <trkpt lat="46.34466" lon="6.83253">
        <ele>1378.4000244141</ele>
        <time>2013-08-17T08:12:34Z</time>
      </trkpt>
      <trkpt lat="46.34484" lon="6.83262">
        <ele>1379</ele>
        <time>2013-08-17T08:13:05Z</time>
      </trkpt>
      <trkpt lat="46.34498" lon="6.83264">
        <ele>1378.8000488281</ele>
        <time>2013-08-17T08:13:08Z</time>
      </trkpt>
      <trkpt lat="46.34511" lon="6.83269">
        <ele>1378.4000244141</ele>
        <time>2013-08-17T08:13:17Z</time>
      </trkpt>
      <trkpt lat="46.34528" lon="6.83273">
        <ele>1378.4000244141</ele>
        <time>2013-08-17T08:13:26Z</time>
      </trkpt>
      <trkpt lat="46.34473" lon="6.83283">
        <ele>1381.4000244141</ele>
        <time>2013-08-17T08:19:33Z</time>
      </trkpt>
      <trkpt lat="46.34444" lon="6.8326">
        <ele>1380.8000488281</ele>
        <time>2013-08-17T08:20:00Z</time>
      </trkpt>
      <trkpt lat="46.34447" lon="6.8325">
        <ele>1380.8000488281</ele>
        <time>2013-08-17T08:20:04Z</time>
      </trkpt>
      <trkpt lat="46.34462" lon="6.83222">
        <ele>1381</ele>
        <time>2013-08-17T08:20:16Z</time>
      </trkpt>
      <trkpt lat="46.34465" lon="6.83209">
        <ele>1381</ele>
        <time>2013-08-17T08:20:23Z</time>
      </trkpt>
      <trkpt lat="46.34478" lon="6.83195">
        <ele>1380</ele>
        <time>2013-08-17T08:20:34Z</time>
      </trkpt>
      <trkpt lat="46.34479" lon="6.83195">
        <ele>1380</ele>
        <time>2013-08-17T08:20:35Z</time>
      </trkpt>
      <trkpt lat="46.34488" lon="6.83209">
        <ele>1379.4000244141</ele>
        <time>2013-08-17T08:20:44Z</time>
      </trkpt>
      <trkpt lat="46.3449" lon="6.83265">
        <ele>1378.8000488281</ele>
        <time>2013-08-17T08:20:58Z</time>
      </trkpt>
      <trkpt lat="46.34482" lon="6.83315">
        <ele>1379.4000244141</ele>
        <time>2013-08-17T08:21:11Z</time>
      </trkpt>
      <trkpt lat="46.34484" lon="6.83345">
        <ele>1379.4000244141</ele>
        <time>2013-08-17T08:21:19Z</time>
      </trkpt>
      <trkpt lat="46.34483" lon="6.83375">
        <ele>1380.4000244141</ele>
        <time>2013-08-17T08:21:30Z</time>
      </trkpt>
      <trkpt lat="46.34463" lon="6.8342">
        <ele>1381.4000244141</ele>
        <time>2013-08-17T08:21:44Z</time>
      </trkpt>
      <trkpt lat="46.34437" lon="6.83458">
        <ele>1381.8000488281</ele>
        <time>2013-08-17T08:21:55Z</time>
      </trkpt>
      <trkpt lat="46.34416" lon="6.83491">
        <ele>1381</ele>
        <time>2013-08-17T08:22:05Z</time>
      </trkpt>
      <trkpt lat="46.34425" lon="6.83507">
        <ele>1381</ele>
        <time>2013-08-17T08:22:09Z</time>
      </trkpt>
      <trkpt lat="46.34441" lon="6.83519">
        <ele>1381</ele>
        <time>2013-08-17T08:22:12Z</time>
      </trkpt>
      <trkpt lat="46.34455" lon="6.83537">
        <ele>1382</ele>
        <time>2013-08-17T08:22:18Z</time>
      </trkpt>
      <trkpt lat="46.34464" lon="6.83553">
        <ele>1382</ele>
        <time>2013-08-17T08:22:23Z</time>
      </trkpt>
      <trkpt lat="46.34471" lon="6.83566">
        <ele>1382.4000244141</ele>
        <time>2013-08-17T08:22:26Z</time>
      </trkpt>
      <trkpt lat="46.34484" lon="6.83589">
        <ele>1383.4000244141</ele>
        <time>2013-08-17T08:22:32Z</time>
      </trkpt>
      <trkpt lat="46.34491" lon="6.83609">
        <ele>1383.8000488281</ele>
        <time>2013-08-17T08:22:37Z</time>
      </trkpt>
      <trkpt lat="46.345" lon="6.83633">
        <ele>1384.4000244141</ele>
        <time>2013-08-17T08:22:43Z</time>
      </trkpt>
      <trkpt lat="46.34508" lon="6.83652">
        <ele>1385</ele>
        <time>2013-08-17T08:22:48Z</time>
      </trkpt>
      <trkpt lat="46.34515" lon="6.83689">
        <ele>1384.4000244141</ele>
        <time>2013-08-17T08:22:59Z</time>
      </trkpt>
      <trkpt lat="46.34505" lon="6.83711">
        <ele>1384.8000488281</ele>
        <time>2013-08-17T08:23:06Z</time>
      </trkpt>
      <trkpt lat="46.34499" lon="6.83735">
        <ele>1384.8000488281</ele>
        <time>2013-08-17T08:23:13Z</time>
      </trkpt>
      <trkpt lat="46.34505" lon="6.83756">
        <ele>1385</ele>
        <time>2013-08-17T08:23:19Z</time>
      </trkpt>
      <trkpt lat="46.34517" lon="6.83771">
        <ele>1384.4000244141</ele>
        <time>2013-08-17T08:23:23Z</time>
      </trkpt>
      <trkpt lat="46.34526" lon="6.83779">
        <ele>1384.4000244141</ele>
        <time>2013-08-17T08:23:25Z</time>
      </trkpt>
      <trkpt lat="46.3457" lon="6.83794">
        <ele>1383.8000488281</ele>
        <time>2013-08-17T08:23:27Z</time>
      </trkpt>
      <trkpt lat="46.34576" lon="6.83797">
        <ele>1383.8000488281</ele>
        <time>2013-08-17T08:23:28Z</time>
      </trkpt>
      <trkpt lat="46.34584" lon="6.83813">
        <ele>1383.4000244141</ele>
        <time>2013-08-17T08:23:33Z</time>
      </trkpt>
      <trkpt lat="46.34597" lon="6.83825">
        <ele>1384</ele>
        <time>2013-08-17T08:23:38Z</time>
      </trkpt>
      <trkpt lat="46.34603" lon="6.83833">
        <ele>1384.4000244141</ele>
        <time>2013-08-17T08:23:41Z</time>
      </trkpt>
      <trkpt lat="46.34613" lon="6.83858">
        <ele>1384.8000488281</ele>
        <time>2013-08-17T08:23:51Z</time>
      </trkpt>
      <trkpt lat="46.34615" lon="6.83872">
        <ele>1384.4000244141</ele>
        <time>2013-08-17T08:23:58Z</time>
      </trkpt>
      <trkpt lat="46.34623" lon="6.83896">
        <ele>1384.4000244141</ele>
        <time>2013-08-17T08:24:06Z</time>
      </trkpt>
      <trkpt lat="46.34628" lon="6.8393">
        <ele>1384.8000488281</ele>
        <time>2013-08-17T08:24:18Z</time>
      </trkpt>
      <trkpt lat="46.3463" lon="6.8396">
        <ele>1385</ele>
        <time>2013-08-17T08:24:34Z</time>
      </trkpt>
      <trkpt lat="46.34629" lon="6.83965">
        <ele>1385</ele>
        <time>2013-08-17T08:24:45Z</time>
      </trkpt>
      <trkpt lat="46.34636" lon="6.8399">
        <ele>1385.4000244141</ele>
        <time>2013-08-17T08:24:52Z</time>
      </trkpt>
      <trkpt lat="46.34651" lon="6.84009">
        <ele>1385.8000488281</ele>
        <time>2013-08-17T08:24:58Z</time>
      </trkpt>
      <trkpt lat="46.34659" lon="6.84032">
        <ele>1385.4000244141</ele>
        <time>2013-08-17T08:25:03Z</time>
      </trkpt>
      <trkpt lat="46.34661" lon="6.84045">
        <ele>1385.4000244141</ele>
        <time>2013-08-17T08:25:09Z</time>
      </trkpt>
      <trkpt lat="46.34661" lon="6.84046">
        <ele>1385.4000244141</ele>
        <time>2013-08-17T08:25:10Z</time>
      </trkpt>
      <trkpt lat="46.34673" lon="6.84068">
        <ele>1389</ele>
        <time>2013-08-17T08:25:27Z</time>
      </trkpt>
      <trkpt lat="46.34675" lon="6.84073">
        <ele>1390.4000244141</ele>
        <time>2013-08-17T08:25:34Z</time>
      </trkpt>
      <trkpt lat="46.34681" lon="6.84094">
        <ele>1394.4000244141</ele>
        <time>2013-08-17T08:25:51Z</time>
      </trkpt>
      <trkpt lat="46.34681" lon="6.84095">
        <ele>1394.4000244141</ele>
        <time>2013-08-17T08:25:52Z</time>
      </trkpt>
      <trkpt lat="46.34684" lon="6.8411">
        <ele>1396</ele>
        <time>2013-08-17T08:26:03Z</time>
      </trkpt>
      <trkpt lat="46.34697" lon="6.84099">
        <ele>1404.4000244141</ele>
        <time>2013-08-17T08:26:58Z</time>
      </trkpt>
      <trkpt lat="46.347" lon="6.84115">
        <ele>1407</ele>
        <time>2013-08-17T08:27:15Z</time>
      </trkpt>
      <trkpt lat="46.34701" lon="6.84117">
        <ele>1411.8000488281</ele>
        <time>2013-08-17T08:27:46Z</time>
      </trkpt>
      <trkpt lat="46.347" lon="6.84121">
        <ele>1412</ele>
        <time>2013-08-17T08:27:47Z</time>
      </trkpt>
      <trkpt lat="46.34699" lon="6.84164">
        <ele>1411.8000488281</ele>
        <time>2013-08-17T08:28:51Z</time>
      </trkpt>
      <trkpt lat="46.34699" lon="6.84172">
        <ele>1411</ele>
        <time>2013-08-17T08:28:55Z</time>
      </trkpt>
      <trkpt lat="46.347" lon="6.8419">
        <ele>1409.4000244141</ele>
        <time>2013-08-17T08:29:03Z</time>
      </trkpt>
      <trkpt lat="46.34715" lon="6.84216">
        <ele>1411.8000488281</ele>
        <time>2013-08-17T08:29:34Z</time>
      </trkpt>
      <trkpt lat="46.34716" lon="6.84218">
        <ele>1411.8000488281</ele>
        <time>2013-08-17T08:29:35Z</time>
      </trkpt>
      <trkpt lat="46.34732" lon="6.84251">
        <ele>1416.4000244141</ele>
        <time>2013-08-17T08:30:08Z</time>
      </trkpt>
      <trkpt lat="46.34747" lon="6.84275">
        <ele>1418.4000244141</ele>
        <time>2013-08-17T08:30:34Z</time>
      </trkpt>
      <trkpt lat="46.34758" lon="6.84307">
        <ele>1420</ele>
        <time>2013-08-17T08:31:11Z</time>
      </trkpt>
      <trkpt lat="46.34759" lon="6.84309">
        <ele>1420</ele>
        <time>2013-08-17T08:31:12Z</time>
      </trkpt>
      <trkpt lat="46.34776" lon="6.8434">
        <ele>1422.4000244141</ele>
        <time>2013-08-17T08:31:43Z</time>
      </trkpt>
      <trkpt lat="46.3478" lon="6.84349">
        <ele>1423.4000244141</ele>
        <time>2013-08-17T08:31:53Z</time>
      </trkpt>
      <trkpt lat="46.34787" lon="6.84355">
        <ele>1423.8000488281</ele>
        <time>2013-08-17T08:31:57Z</time>
      </trkpt>
      <trkpt lat="46.34802" lon="6.84373">
        <ele>1425.8000488281</ele>
        <time>2013-08-17T08:32:08Z</time>
      </trkpt>
      <trkpt lat="46.34807" lon="6.84381">
        <ele>1426.8000488281</ele>
        <time>2013-08-17T08:32:12Z</time>
      </trkpt>
      <trkpt lat="46.34818" lon="6.84391">
        <ele>1429</ele>
        <time>2013-08-17T08:32:22Z</time>
      </trkpt>
      <trkpt lat="46.34819" lon="6.84392">
        <ele>1429.4000244141</ele>
        <time>2013-08-17T08:32:23Z</time>
      </trkpt>
      <trkpt lat="46.34821" lon="6.84394">
        <ele>1429.4000244141</ele>
        <time>2013-08-17T08:32:24Z</time>
      </trkpt>
      <trkpt lat="46.34828" lon="6.84399">
        <ele>1431</ele>
        <time>2013-08-17T08:32:29Z</time>
      </trkpt>
      <trkpt lat="46.34858" lon="6.84401">
        <ele>1430.4000244141</ele>
        <time>2013-08-17T08:32:41Z</time>
      </trkpt>
      <trkpt lat="46.34876" lon="6.844">
        <ele>1430.8000488281</ele>
        <time>2013-08-17T08:32:50Z</time>
      </trkpt>
      <trkpt lat="46.3489" lon="6.84395">
        <ele>1431</ele>
        <time>2013-08-17T08:32:59Z</time>
      </trkpt>
      <trkpt lat="46.34911" lon="6.84395">
        <ele>1430</ele>
        <time>2013-08-17T08:33:10Z</time>
      </trkpt>
      <trkpt lat="46.34913" lon="6.84395">
        <ele>1430</ele>
        <time>2013-08-17T08:33:11Z</time>
      </trkpt>
      <trkpt lat="46.34926" lon="6.84404">
        <ele>1432</ele>
        <time>2013-08-17T08:33:20Z</time>
      </trkpt>
      <trkpt lat="46.34928" lon="6.84406">
        <ele>1432</ele>
        <time>2013-08-17T08:33:22Z</time>
      </trkpt>
      <trkpt lat="46.34929" lon="6.84407">
        <ele>1432</ele>
        <time>2013-08-17T08:33:23Z</time>
      </trkpt>
      <trkpt lat="46.34934" lon="6.84415">
        <ele>1432.8000488281</ele>
        <time>2013-08-17T08:33:29Z</time>
      </trkpt>
      <trkpt lat="46.3494" lon="6.84427">
        <ele>1432.4000244141</ele>
        <time>2013-08-17T08:33:33Z</time>
      </trkpt>
      <trkpt lat="46.34942" lon="6.84429">
        <ele>1432</ele>
        <time>2013-08-17T08:33:34Z</time>
      </trkpt>
      <trkpt lat="46.34952" lon="6.84434">
        <ele>1431.4000244141</ele>
        <time>2013-08-17T08:33:44Z</time>
      </trkpt>
      <trkpt lat="46.34962" lon="6.84444">
        <ele>1431</ele>
        <time>2013-08-17T08:33:51Z</time>
      </trkpt>
      <trkpt lat="46.34978" lon="6.84449">
        <ele>1429.8000488281</ele>
        <time>2013-08-17T08:34:02Z</time>
      </trkpt>
      <trkpt lat="46.34989" lon="6.8445">
        <ele>1426.4000244141</ele>
        <time>2013-08-17T08:34:12Z</time>
      </trkpt>
      <trkpt lat="46.35002" lon="6.84457">
        <ele>1423.4000244141</ele>
        <time>2013-08-17T08:34:17Z</time>
      </trkpt>
      <trkpt lat="46.35018" lon="6.84461">
        <ele>1420</ele>
        <time>2013-08-17T08:34:22Z</time>
      </trkpt>
      <trkpt lat="46.3502" lon="6.84462">
        <ele>1419.8000488281</ele>
        <time>2013-08-17T08:34:23Z</time>
      </trkpt>
      <trkpt lat="46.35036" lon="6.84471">
        <ele>1416.8000488281</ele>
        <time>2013-08-17T08:34:28Z</time>
      </trkpt>
      <trkpt lat="46.3504" lon="6.84476">
        <ele>1415.4000244141</ele>
        <time>2013-08-17T08:34:31Z</time>
      </trkpt>
      <trkpt lat="46.35055" lon="6.84481">
        <ele>1413.4000244141</ele>
        <time>2013-08-17T08:34:41Z</time>
      </trkpt>
      <trkpt lat="46.35066" lon="6.84485">
        <ele>1412</ele>
        <time>2013-08-17T08:34:46Z</time>
      </trkpt>
      <trkpt lat="46.35072" lon="6.84487">
        <ele>1411</ele>
        <time>2013-08-17T08:34:48Z</time>
      </trkpt>
      <trkpt lat="46.35082" lon="6.84483">
        <ele>1409</ele>
        <time>2013-08-17T08:34:58Z</time>
      </trkpt>
      <trkpt lat="46.35092" lon="6.84476">
        <ele>1406.8000488281</ele>
        <time>2013-08-17T08:35:06Z</time>
      </trkpt>
      <trkpt lat="46.35109" lon="6.84471">
        <ele>1405</ele>
        <time>2013-08-17T08:35:14Z</time>
      </trkpt>
      <trkpt lat="46.3513" lon="6.84472">
        <ele>1403.4000244141</ele>
        <time>2013-08-17T08:35:24Z</time>
      </trkpt>
      <trkpt lat="46.35147" lon="6.84464">
        <ele>1396</ele>
        <time>2013-08-17T08:36:30Z</time>
      </trkpt>
      <trkpt lat="46.35148" lon="6.84462">
        <ele>1396</ele>
        <time>2013-08-17T08:36:31Z</time>
      </trkpt>
      <trkpt lat="46.35167" lon="6.84449">
        <ele>1393</ele>
        <time>2013-08-17T08:36:38Z</time>
      </trkpt>
      <trkpt lat="46.35178" lon="6.84451">
        <ele>1391.8000488281</ele>
        <time>2013-08-17T08:36:42Z</time>
      </trkpt>
      <trkpt lat="46.35196" lon="6.84454">
        <ele>1388.8000488281</ele>
        <time>2013-08-17T08:36:49Z</time>
      </trkpt>
      <trkpt lat="46.35208" lon="6.8445">
        <ele>1385.8000488281</ele>
        <time>2013-08-17T08:36:56Z</time>
      </trkpt>
      <trkpt lat="46.35225" lon="6.84446">
        <ele>1383</ele>
        <time>2013-08-17T08:37:07Z</time>
      </trkpt>
      <trkpt lat="46.352" lon="6.84411">
        <ele>1381.8000488281</ele>
        <time>2013-08-17T08:39:47Z</time>
      </trkpt>
      <trkpt lat="46.35218" lon="6.8442">
        <ele>1378.4000244141</ele>
        <time>2013-08-17T08:39:56Z</time>
      </trkpt>
      <trkpt lat="46.35225" lon="6.84423">
        <ele>1377.4000244141</ele>
        <time>2013-08-17T08:39:58Z</time>
      </trkpt>
      <trkpt lat="46.35246" lon="6.84423">
        <ele>1374.8000488281</ele>
        <time>2013-08-17T08:40:07Z</time>
      </trkpt>
      <trkpt lat="46.3526" lon="6.84429">
        <ele>1373</ele>
        <time>2013-08-17T08:40:10Z</time>
      </trkpt>
      <trkpt lat="46.35277" lon="6.84432">
        <ele>1369.4000244141</ele>
        <time>2013-08-17T08:40:14Z</time>
      </trkpt>
      <trkpt lat="46.35287" lon="6.84434">
        <ele>1366</ele>
        <time>2013-08-17T08:40:17Z</time>
      </trkpt>
      <trkpt lat="46.35289" lon="6.84435">
        <ele>1365.8000488281</ele>
        <time>2013-08-17T08:40:18Z</time>
      </trkpt>
      <trkpt lat="46.35303" lon="6.84441">
        <ele>1362.4000244141</ele>
        <time>2013-08-17T08:40:25Z</time>
      </trkpt>
      <trkpt lat="46.35305" lon="6.84441">
        <ele>1361.8000488281</ele>
        <time>2013-08-17T08:40:26Z</time>
      </trkpt>
      <trkpt lat="46.35316" lon="6.84438">
        <ele>1358.4000244141</ele>
        <time>2013-08-17T08:40:33Z</time>
      </trkpt>
      <trkpt lat="46.35319" lon="6.84434">
        <ele>1357.4000244141</ele>
        <time>2013-08-17T08:40:35Z</time>
      </trkpt>
      <trkpt lat="46.35321" lon="6.8443">
        <ele>1356.4000244141</ele>
        <time>2013-08-17T08:40:37Z</time>
      </trkpt>
      <trkpt lat="46.35327" lon="6.84417">
        <ele>1353</ele>
        <time>2013-08-17T08:40:41Z</time>
      </trkpt>
      <trkpt lat="46.35336" lon="6.84403">
        <ele>1349.4000244141</ele>
        <time>2013-08-17T08:40:46Z</time>
      </trkpt>
      <trkpt lat="46.35339" lon="6.84393">
        <ele>1348.4000244141</ele>
        <time>2013-08-17T08:40:48Z</time>
      </trkpt>
      <trkpt lat="46.35348" lon="6.84378">
        <ele>1345.4000244141</ele>
        <time>2013-08-17T08:40:52Z</time>
      </trkpt>
      <trkpt lat="46.35351" lon="6.84375">
        <ele>1345</ele>
        <time>2013-08-17T08:40:53Z</time>
      </trkpt>
      <trkpt lat="46.35354" lon="6.84373">
        <ele>1344.4000244141</ele>
        <time>2013-08-17T08:40:54Z</time>
      </trkpt>
      <trkpt lat="46.35357" lon="6.84354">
        <ele>1341.4000244141</ele>
        <time>2013-08-17T08:40:58Z</time>
      </trkpt>
      <trkpt lat="46.35359" lon="6.84339">
        <ele>1339.8000488281</ele>
        <time>2013-08-17T08:41:01Z</time>
      </trkpt>
      <trkpt lat="46.35363" lon="6.84314">
        <ele>1336.8000488281</ele>
        <time>2013-08-17T08:41:05Z</time>
      </trkpt>
      <trkpt lat="46.35371" lon="6.84292">
        <ele>1335.4000244141</ele>
        <time>2013-08-17T08:41:09Z</time>
      </trkpt>
      <trkpt lat="46.35384" lon="6.84274">
        <ele>1335</ele>
        <time>2013-08-17T08:41:13Z</time>
      </trkpt>
      <trkpt lat="46.35402" lon="6.84245">
        <ele>1334.8000488281</ele>
        <time>2013-08-17T08:41:21Z</time>
      </trkpt>
      <trkpt lat="46.35425" lon="6.8422">
        <ele>1331.4000244141</ele>
        <time>2013-08-17T08:41:32Z</time>
      </trkpt>
      <trkpt lat="46.35443" lon="6.84203">
        <ele>1328.4000244141</ele>
        <time>2013-08-17T08:41:41Z</time>
      </trkpt>
      <trkpt lat="46.35451" lon="6.84194">
        <ele>1328</ele>
        <time>2013-08-17T08:41:45Z</time>
      </trkpt>
      <trkpt lat="46.35456" lon="6.84175">
        <ele>1326</ele>
        <time>2013-08-17T08:41:50Z</time>
      </trkpt>
      <trkpt lat="46.35462" lon="6.84162">
        <ele>1323</ele>
        <time>2013-08-17T08:44:47Z</time>
      </trkpt>
      <trkpt lat="46.35464" lon="6.8416">
        <ele>1322.8000488281</ele>
        <time>2013-08-17T08:44:48Z</time>
      </trkpt>
      <trkpt lat="46.35477" lon="6.84152">
        <ele>1319.4000244141</ele>
        <time>2013-08-17T08:44:54Z</time>
      </trkpt>
      <trkpt lat="46.35493" lon="6.84142">
        <ele>1316.4000244141</ele>
        <time>2013-08-17T08:45:00Z</time>
      </trkpt>
      <trkpt lat="46.35504" lon="6.8414">
        <ele>1313.4000244141</ele>
        <time>2013-08-17T08:45:04Z</time>
      </trkpt>
      <trkpt lat="46.3551" lon="6.84139">
        <ele>1310.4000244141</ele>
        <time>2013-08-17T08:45:08Z</time>
      </trkpt>
      <trkpt lat="46.35517" lon="6.8414">
        <ele>1307.4000244141</ele>
        <time>2013-08-17T08:45:15Z</time>
      </trkpt>
      <trkpt lat="46.35523" lon="6.84151">
        <ele>1305</ele>
        <time>2013-08-17T08:45:18Z</time>
      </trkpt>
      <trkpt lat="46.3554" lon="6.84166">
        <ele>1302.8000488281</ele>
        <time>2013-08-17T08:45:23Z</time>
      </trkpt>
      <trkpt lat="46.35568" lon="6.84168">
        <ele>1300.4000244141</ele>
        <time>2013-08-17T08:45:31Z</time>
      </trkpt>
      <trkpt lat="46.35564" lon="6.8417">
        <ele>1300.4000244141</ele>
        <time>2013-08-17T08:47:14Z</time>
      </trkpt>
      <trkpt lat="46.35557" lon="6.84171">
        <ele>1299.8000488281</ele>
        <time>2013-08-17T08:47:26Z</time>
      </trkpt>
      <trkpt lat="46.35557" lon="6.84175">
        <ele>1299.8000488281</ele>
        <time>2013-08-17T08:47:29Z</time>
      </trkpt>
      <trkpt lat="46.35567" lon="6.84194">
        <ele>1296</ele>
        <time>2013-08-17T08:47:36Z</time>
      </trkpt>
      <trkpt lat="46.35572" lon="6.84201">
        <ele>1294.8000488281</ele>
        <time>2013-08-17T08:47:38Z</time>
      </trkpt>
      <trkpt lat="46.35586" lon="6.84207">
        <ele>1291.4000244141</ele>
        <time>2013-08-17T08:47:43Z</time>
      </trkpt>
      <trkpt lat="46.35606" lon="6.84212">
        <ele>1287.4000244141</ele>
        <time>2013-08-17T08:47:55Z</time>
      </trkpt>
      <trkpt lat="46.35619" lon="6.84214">
        <ele>1284.4000244141</ele>
        <time>2013-08-17T08:48:03Z</time>
      </trkpt>
      <trkpt lat="46.35644" lon="6.84208">
        <ele>1281</ele>
        <time>2013-08-17T08:48:11Z</time>
      </trkpt>
      <trkpt lat="46.35659" lon="6.84218">
        <ele>1278</ele>
        <time>2013-08-17T08:48:16Z</time>
      </trkpt>
      <trkpt lat="46.35686" lon="6.8424">
        <ele>1275</ele>
        <time>2013-08-17T08:48:25Z</time>
      </trkpt>
      <trkpt lat="46.35715" lon="6.84263">
        <ele>1273.8000488281</ele>
        <time>2013-08-17T08:48:36Z</time>
      </trkpt>
      <trkpt lat="46.35728" lon="6.84282">
        <ele>1270.4000244141</ele>
        <time>2013-08-17T08:48:41Z</time>
      </trkpt>
      <trkpt lat="46.35733" lon="6.84291">
        <ele>1266.4000244141</ele>
        <time>2013-08-17T08:48:43Z</time>
      </trkpt>
      <trkpt lat="46.35745" lon="6.84307">
        <ele>1263</ele>
        <time>2013-08-17T08:48:47Z</time>
      </trkpt>
      <trkpt lat="46.35752" lon="6.84321">
        <ele>1260</ele>
        <time>2013-08-17T08:48:51Z</time>
      </trkpt>
      <trkpt lat="46.35763" lon="6.84337">
        <ele>1256.4000244141</ele>
        <time>2013-08-17T08:48:57Z</time>
      </trkpt>
      <trkpt lat="46.35765" lon="6.84346">
        <ele>1254.8000488281</ele>
        <time>2013-08-17T08:48:59Z</time>
      </trkpt>
      <trkpt lat="46.35773" lon="6.84366">
        <ele>1253</ele>
        <time>2013-08-17T08:49:02Z</time>
      </trkpt>
      <trkpt lat="46.35788" lon="6.84403">
        <ele>1249.8000488281</ele>
        <time>2013-08-17T08:49:07Z</time>
      </trkpt>
      <trkpt lat="46.35793" lon="6.84413">
        <ele>1249</ele>
        <time>2013-08-17T08:49:08Z</time>
      </trkpt>
      <trkpt lat="46.35806" lon="6.84433">
        <ele>1247</ele>
        <time>2013-08-17T08:49:11Z</time>
      </trkpt>
      <trkpt lat="46.3582" lon="6.84444">
        <ele>1244</ele>
        <time>2013-08-17T08:49:16Z</time>
      </trkpt>
      <trkpt lat="46.35831" lon="6.84453">
        <ele>1241</ele>
        <time>2013-08-17T08:49:20Z</time>
      </trkpt>
      <trkpt lat="46.35834" lon="6.84456">
        <ele>1240</ele>
        <time>2013-08-17T08:49:21Z</time>
      </trkpt>
      <trkpt lat="46.35838" lon="6.84459">
        <ele>1239.4000244141</ele>
        <time>2013-08-17T08:49:22Z</time>
      </trkpt>
      <trkpt lat="46.35847" lon="6.84471">
        <ele>1238.4000244141</ele>
        <time>2013-08-17T08:49:25Z</time>
      </trkpt>
      <trkpt lat="46.35854" lon="6.84483">
        <ele>1237.4000244141</ele>
        <time>2013-08-17T08:49:27Z</time>
      </trkpt>
      <trkpt lat="46.35859" lon="6.84497">
        <ele>1233.8000488281</ele>
        <time>2013-08-17T08:49:30Z</time>
      </trkpt>
      <trkpt lat="46.35867" lon="6.84513">
        <ele>1230.8000488281</ele>
        <time>2013-08-17T08:49:34Z</time>
      </trkpt>
      <trkpt lat="46.35868" lon="6.84518">
        <ele>1229.8000488281</ele>
        <time>2013-08-17T08:49:35Z</time>
      </trkpt>
      <trkpt lat="46.3587" lon="6.84535">
        <ele>1226.4000244141</ele>
        <time>2013-08-17T08:49:38Z</time>
      </trkpt>
      <trkpt lat="46.35873" lon="6.84551">
        <ele>1223</ele>
        <time>2013-08-17T08:49:41Z</time>
      </trkpt>
      <trkpt lat="46.35872" lon="6.84574">
        <ele>1219.4000244141</ele>
        <time>2013-08-17T08:49:45Z</time>
      </trkpt>
      <trkpt lat="46.35872" lon="6.84586">
        <ele>1217.4000244141</ele>
        <time>2013-08-17T08:49:47Z</time>
      </trkpt>
      <trkpt lat="46.35875" lon="6.84606">
        <ele>1214</ele>
        <time>2013-08-17T08:49:50Z</time>
      </trkpt>
      <trkpt lat="46.35882" lon="6.8463">
        <ele>1210.8000488281</ele>
        <time>2013-08-17T08:49:54Z</time>
      </trkpt>
      <trkpt lat="46.35886" lon="6.84641">
        <ele>1210</ele>
        <time>2013-08-17T08:49:56Z</time>
      </trkpt>
      <trkpt lat="46.35895" lon="6.84673">
        <ele>1208</ele>
        <time>2013-08-17T08:50:09Z</time>
      </trkpt>
      <trkpt lat="46.3591" lon="6.84698">
        <ele>1205</ele>
        <time>2013-08-17T08:50:15Z</time>
      </trkpt>
      <trkpt lat="46.35923" lon="6.84715">
        <ele>1202</ele>
        <time>2013-08-17T08:50:18Z</time>
      </trkpt>
      <trkpt lat="46.35934" lon="6.84737">
        <ele>1199</ele>
        <time>2013-08-17T08:50:22Z</time>
      </trkpt>
      <trkpt lat="46.35943" lon="6.84754">
        <ele>1196</ele>
        <time>2013-08-17T08:50:26Z</time>
      </trkpt>
      <trkpt lat="46.35954" lon="6.84779">
        <ele>1192.8000488281</ele>
        <time>2013-08-17T08:50:31Z</time>
      </trkpt>
      <trkpt lat="46.35962" lon="6.848">
        <ele>1190.8000488281</ele>
        <time>2013-08-17T08:50:35Z</time>
      </trkpt>
      <trkpt lat="46.3598" lon="6.84819">
        <ele>1187.8000488281</ele>
        <time>2013-08-17T08:50:39Z</time>
      </trkpt>
      <trkpt lat="46.35992" lon="6.84819">
        <ele>1184</ele>
        <time>2013-08-17T08:50:43Z</time>
      </trkpt>
      <trkpt lat="46.35995" lon="6.84817">
        <ele>1183.4000244141</ele>
        <time>2013-08-17T08:50:44Z</time>
      </trkpt>
      <trkpt lat="46.36013" lon="6.84818">
        <ele>1180.4000244141</ele>
        <time>2013-08-17T08:50:50Z</time>
      </trkpt>
      <trkpt lat="46.36033" lon="6.84846">
        <ele>1177</ele>
        <time>2013-08-17T08:50:59Z</time>
      </trkpt>
      <trkpt lat="46.36038" lon="6.8486">
        <ele>1175.4000244141</ele>
        <time>2013-08-17T08:51:02Z</time>
      </trkpt>
      <trkpt lat="46.36047" lon="6.84879">
        <ele>1172</ele>
        <time>2013-08-17T08:51:06Z</time>
      </trkpt>
      <trkpt lat="46.36061" lon="6.84917">
        <ele>1169</ele>
        <time>2013-08-17T08:51:11Z</time>
      </trkpt>
      <trkpt lat="46.36077" lon="6.84934">
        <ele>1167.4000244141</ele>
        <time>2013-08-17T08:51:16Z</time>
      </trkpt>
      <trkpt lat="46.36086" lon="6.8494">
        <ele>1165</ele>
        <time>2013-08-17T08:51:19Z</time>
      </trkpt>
      <trkpt lat="46.36095" lon="6.84952">
        <ele>1162.8000488281</ele>
        <time>2013-08-17T08:51:22Z</time>
      </trkpt>
      <trkpt lat="46.36105" lon="6.84971">
        <ele>1160.8000488281</ele>
        <time>2013-08-17T08:51:27Z</time>
      </trkpt>
      <trkpt lat="46.36108" lon="6.84976">
        <ele>1160.4000244141</ele>
        <time>2013-08-17T08:51:28Z</time>
      </trkpt>
      <trkpt lat="46.36117" lon="6.84994">
        <ele>1157.4000244141</ele>
        <time>2013-08-17T08:51:31Z</time>
      </trkpt>
      <trkpt lat="46.36129" lon="6.85042">
        <ele>1154.4000244141</ele>
        <time>2013-08-17T08:51:40Z</time>
      </trkpt>
      <trkpt lat="46.36128" lon="6.85053">
        <ele>1152.4000244141</ele>
        <time>2013-08-17T08:51:42Z</time>
      </trkpt>
      <trkpt lat="46.36131" lon="6.85072">
        <ele>1150.8000488281</ele>
        <time>2013-08-17T08:51:45Z</time>
      </trkpt>
      <trkpt lat="46.36145" lon="6.85095">
        <ele>1148.4000244141</ele>
        <time>2013-08-17T08:51:49Z</time>
      </trkpt>
      <trkpt lat="46.36149" lon="6.85099">
        <ele>1148</ele>
        <time>2013-08-17T08:51:50Z</time>
      </trkpt>
      <trkpt lat="46.36164" lon="6.85104">
        <ele>1146.4000244141</ele>
        <time>2013-08-17T08:51:53Z</time>
      </trkpt>
      <trkpt lat="46.36184" lon="6.85111">
        <ele>1143.8000488281</ele>
        <time>2013-08-17T08:51:57Z</time>
      </trkpt>
      <trkpt lat="46.36191" lon="6.85116">
        <ele>1142.8000488281</ele>
        <time>2013-08-17T08:51:59Z</time>
      </trkpt>
      <trkpt lat="46.36205" lon="6.85129">
        <ele>1139.4000244141</ele>
        <time>2013-08-17T08:52:06Z</time>
      </trkpt>
      <trkpt lat="46.36223" lon="6.85146">
        <ele>1135</ele>
        <time>2013-08-17T08:52:09Z</time>
      </trkpt>
      <trkpt lat="46.36231" lon="6.85148">
        <ele>1133.8000488281</ele>
        <time>2013-08-17T08:52:10Z</time>
      </trkpt>
      <trkpt lat="46.36251" lon="6.85154">
        <ele>1131.4000244141</ele>
        <time>2013-08-17T08:52:13Z</time>
      </trkpt>
      <trkpt lat="46.36277" lon="6.85184">
        <ele>1127.4000244141</ele>
        <time>2013-08-17T08:52:18Z</time>
      </trkpt>
      <trkpt lat="46.36285" lon="6.85196">
        <ele>1126</ele>
        <time>2013-08-17T08:52:20Z</time>
      </trkpt>
      <trkpt lat="46.36313" lon="6.85214">
        <ele>1122.4000244141</ele>
        <time>2013-08-17T08:52:25Z</time>
      </trkpt>
      <trkpt lat="46.36334" lon="6.85246">
        <ele>1119.8000488281</ele>
        <time>2013-08-17T08:52:30Z</time>
      </trkpt>
      <trkpt lat="46.36336" lon="6.85252">
        <ele>1119.4000244141</ele>
        <time>2013-08-17T08:52:31Z</time>
      </trkpt>
      <trkpt lat="46.36345" lon="6.85266">
        <ele>1118</ele>
        <time>2013-08-17T08:52:35Z</time>
      </trkpt>
      <trkpt lat="46.3635" lon="6.85269">
        <ele>1116.4000244141</ele>
        <time>2013-08-17T08:52:52Z</time>
      </trkpt>
      <trkpt lat="46.36364" lon="6.85275">
        <ele>1116.4000244141</ele>
        <time>2013-08-17T08:52:55Z</time>
      </trkpt>
      <trkpt lat="46.36392" lon="6.85318">
        <ele>1113.4000244141</ele>
        <time>2013-08-17T08:53:01Z</time>
      </trkpt>
      <trkpt lat="46.36423" lon="6.8536">
        <ele>1109</ele>
        <time>2013-08-17T08:53:06Z</time>
      </trkpt>
      <trkpt lat="46.36457" lon="6.85405">
        <ele>1105.4000244141</ele>
        <time>2013-08-17T08:53:11Z</time>
      </trkpt>
      <trkpt lat="46.36473" lon="6.85433">
        <ele>1102.4000244141</ele>
        <time>2013-08-17T08:53:15Z</time>
      </trkpt>
      <trkpt lat="46.36495" lon="6.85448">
        <ele>1100</ele>
        <time>2013-08-17T08:53:20Z</time>
      </trkpt>
      <trkpt lat="46.36529" lon="6.85459">
        <ele>1097.4000244141</ele>
        <time>2013-08-17T08:53:25Z</time>
      </trkpt>
      <trkpt lat="46.36559" lon="6.85483">
        <ele>1094.4000244141</ele>
        <time>2013-08-17T08:53:29Z</time>
      </trkpt>
      <trkpt lat="46.36566" lon="6.85489">
        <ele>1093.4000244141</ele>
        <time>2013-08-17T08:53:30Z</time>
      </trkpt>
      <trkpt lat="46.36586" lon="6.85503">
        <ele>1090</ele>
        <time>2013-08-17T08:53:34Z</time>
      </trkpt>
      <trkpt lat="46.36576" lon="6.8552">
        <ele>1089</ele>
        <time>2013-08-17T08:53:39Z</time>
      </trkpt>
      <trkpt lat="46.36564" lon="6.8551">
        <ele>1089</ele>
        <time>2013-08-17T08:53:42Z</time>
      </trkpt>
      <trkpt lat="46.36542" lon="6.8549">
        <ele>1088</ele>
        <time>2013-08-17T08:53:47Z</time>
      </trkpt>
      <trkpt lat="46.36512" lon="6.85486">
        <ele>1085.4000244141</ele>
        <time>2013-08-17T08:53:52Z</time>
      </trkpt>
      <trkpt lat="46.36499" lon="6.85488">
        <ele>1081.4000244141</ele>
        <time>2013-08-17T08:55:30Z</time>
      </trkpt>
      <trkpt lat="46.365" lon="6.85488">
        <ele>1081.4000244141</ele>
        <time>2013-08-17T08:55:31Z</time>
      </trkpt>
      <trkpt lat="46.36502" lon="6.85487">
        <ele>1082.4000244141</ele>
        <time>2013-08-17T08:55:34Z</time>
      </trkpt>
      <trkpt lat="46.36526" lon="6.85487">
        <ele>1084</ele>
        <time>2013-08-17T08:55:45Z</time>
      </trkpt>
      <trkpt lat="46.36555" lon="6.85504">
        <ele>1087</ele>
        <time>2013-08-17T08:55:57Z</time>
      </trkpt>
      <trkpt lat="46.36591" lon="6.85507">
        <ele>1089</ele>
        <time>2013-08-17T08:56:12Z</time>
      </trkpt>
      <trkpt lat="46.36596" lon="6.85501">
        <ele>1087.4000244141</ele>
        <time>2013-08-17T08:58:15Z</time>
      </trkpt>
      <trkpt lat="46.36596" lon="6.85501">
        <ele>1087.4000244141</ele>
        <time>2013-08-17T08:58:53Z</time>
      </trkpt>
      <trkpt lat="46.3661" lon="6.85483">
        <ele>1087.4000244141</ele>
        <time>2013-08-17T08:59:01Z</time>
      </trkpt>
      <trkpt lat="46.36631" lon="6.85429">
        <ele>1084</ele>
        <time>2013-08-17T08:59:12Z</time>
      </trkpt>
      <trkpt lat="46.36638" lon="6.85399">
        <ele>1080.8000488281</ele>
        <time>2013-08-17T08:59:16Z</time>
      </trkpt>
      <trkpt lat="46.36649" lon="6.8537">
        <ele>1077</ele>
        <time>2013-08-17T08:59:20Z</time>
      </trkpt>
      <trkpt lat="46.36668" lon="6.85359">
        <ele>1073.4000244141</ele>
        <time>2013-08-17T08:59:24Z</time>
      </trkpt>
      <trkpt lat="46.36677" lon="6.85358">
        <ele>1071.8000488281</ele>
        <time>2013-08-17T08:59:26Z</time>
      </trkpt>
      <trkpt lat="46.36688" lon="6.85356">
        <ele>1068.4000244141</ele>
        <time>2013-08-17T08:59:30Z</time>
      </trkpt>
      <trkpt lat="46.36691" lon="6.85355">
        <ele>1066.4000244141</ele>
        <time>2013-08-17T09:00:01Z</time>
      </trkpt>
      <trkpt lat="46.36692" lon="6.85351">
        <ele>1066.4000244141</ele>
        <time>2013-08-17T09:00:02Z</time>
      </trkpt>
      <trkpt lat="46.36686" lon="6.85317">
        <ele>1063.4000244141</ele>
        <time>2013-08-17T09:00:07Z</time>
      </trkpt>
      <trkpt lat="46.36681" lon="6.85278">
        <ele>1060</ele>
        <time>2013-08-17T09:00:11Z</time>
      </trkpt>
      <trkpt lat="46.36679" lon="6.85246">
        <ele>1056.4000244141</ele>
        <time>2013-08-17T09:00:15Z</time>
      </trkpt>
      <trkpt lat="46.36678" lon="6.85233">
        <ele>1055.4000244141</ele>
        <time>2013-08-17T09:00:17Z</time>
      </trkpt>
      <trkpt lat="46.36692" lon="6.85218">
        <ele>1052.4000244141</ele>
        <time>2013-08-17T09:00:20Z</time>
      </trkpt>
      <trkpt lat="46.36701" lon="6.85234">
        <ele>1049</ele>
        <time>2013-08-17T09:00:26Z</time>
      </trkpt>
      <trkpt lat="46.367" lon="6.85262">
        <ele>1045.8000488281</ele>
        <time>2013-08-17T09:00:30Z</time>
      </trkpt>
      <trkpt lat="46.36704" lon="6.85275">
        <ele>1041.4000244141</ele>
        <time>2013-08-17T09:00:36Z</time>
      </trkpt>
      <trkpt lat="46.36719" lon="6.85259">
        <ele>1038.4000244141</ele>
        <time>2013-08-17T09:00:41Z</time>
      </trkpt>
      <trkpt lat="46.36723" lon="6.85254">
        <ele>1037.4000244141</ele>
        <time>2013-08-17T09:00:42Z</time>
      </trkpt>
      <trkpt lat="46.36734" lon="6.85243">
        <ele>1034</ele>
        <time>2013-08-17T09:00:44Z</time>
      </trkpt>
      <trkpt lat="46.36749" lon="6.85221">
        <ele>1031</ele>
        <time>2013-08-17T09:00:48Z</time>
      </trkpt>
      <trkpt lat="46.36754" lon="6.85216">
        <ele>1030</ele>
        <time>2013-08-17T09:00:49Z</time>
      </trkpt>
      <trkpt lat="46.36764" lon="6.85207">
        <ele>1028</ele>
        <time>2013-08-17T09:00:51Z</time>
      </trkpt>
      <trkpt lat="46.36775" lon="6.85204">
        <ele>1025.8000488281</ele>
        <time>2013-08-17T09:00:55Z</time>
      </trkpt>
      <trkpt lat="46.36763" lon="6.85234">
        <ele>1022.5999755859</ele>
        <time>2013-08-17T09:01:02Z</time>
      </trkpt>
      <trkpt lat="46.36756" lon="6.85264">
        <ele>1019.4000244141</ele>
        <time>2013-08-17T09:01:06Z</time>
      </trkpt>
      <trkpt lat="46.36755" lon="6.85275">
        <ele>1017.4000244141</ele>
        <time>2013-08-17T09:01:08Z</time>
      </trkpt>
      <trkpt lat="46.3676" lon="6.85273">
        <ele>1015.4000244141</ele>
        <time>2013-08-17T09:01:12Z</time>
      </trkpt>
      <trkpt lat="46.36767" lon="6.85261">
        <ele>1013.200012207</ele>
        <time>2013-08-17T09:01:16Z</time>
      </trkpt>
      <trkpt lat="46.36789" lon="6.85236">
        <ele>1010</ele>
        <time>2013-08-17T09:01:20Z</time>
      </trkpt>
      <trkpt lat="46.36803" lon="6.8522">
        <ele>1007</ele>
        <time>2013-08-17T09:01:23Z</time>
      </trkpt>
      <trkpt lat="46.36817" lon="6.85198">
        <ele>1003.5999755859</ele>
        <time>2013-08-17T09:01:26Z</time>
      </trkpt>
      <trkpt lat="46.36827" lon="6.85195">
        <ele>1000.4000244141</ele>
        <time>2013-08-17T09:01:30Z</time>
      </trkpt>
      <trkpt lat="46.36828" lon="6.85209">
        <ele>998.40002441406</ele>
        <time>2013-08-17T09:01:33Z</time>
      </trkpt>
      <trkpt lat="46.36822" lon="6.85218">
        <ele>997.40002441406</ele>
        <time>2013-08-17T09:01:35Z</time>
      </trkpt>
      <trkpt lat="46.36819" lon="6.85224">
        <ele>996.59997558594</ele>
        <time>2013-08-17T09:01:36Z</time>
      </trkpt>
      <trkpt lat="46.36806" lon="6.85259">
        <ele>993.40002441406</ele>
        <time>2013-08-17T09:01:40Z</time>
      </trkpt>
      <trkpt lat="46.36799" lon="6.85277">
        <ele>991</ele>
        <time>2013-08-17T09:01:42Z</time>
      </trkpt>
      <trkpt lat="46.36797" lon="6.85294">
        <ele>988</ele>
        <time>2013-08-17T09:01:45Z</time>
      </trkpt>
      <trkpt lat="46.36808" lon="6.85285">
        <ele>985.40002441406</ele>
        <time>2013-08-17T09:01:50Z</time>
      </trkpt>
      <trkpt lat="46.36815" lon="6.85276">
        <ele>984.40002441406</ele>
        <time>2013-08-17T09:01:52Z</time>
      </trkpt>
      <trkpt lat="46.36823" lon="6.85265">
        <ele>983.20001220703</ele>
        <time>2013-08-17T09:01:54Z</time>
      </trkpt>
      <trkpt lat="46.36837" lon="6.85253">
        <ele>979.20001220703</ele>
        <time>2013-08-17T09:01:57Z</time>
      </trkpt>
      <trkpt lat="46.36842" lon="6.8525">
        <ele>978.20001220703</ele>
        <time>2013-08-17T09:01:58Z</time>
      </trkpt>
      <trkpt lat="46.36859" lon="6.85249">
        <ele>975.20001220703</ele>
        <time>2013-08-17T09:02:02Z</time>
      </trkpt>
      <trkpt lat="46.36871" lon="6.85257">
        <ele>973.40002441406</ele>
        <time>2013-08-17T09:02:05Z</time>
      </trkpt>
      <trkpt lat="46.3687" lon="6.85263">
        <ele>973.20001220703</ele>
        <time>2013-08-17T09:03:17Z</time>
      </trkpt>
      <trkpt lat="46.36851" lon="6.85268">
        <ele>971.40002441406</ele>
        <time>2013-08-17T09:03:24Z</time>
      </trkpt>
      <trkpt lat="46.36848" lon="6.8527">
        <ele>971</ele>
        <time>2013-08-17T09:03:25Z</time>
      </trkpt>
      <trkpt lat="46.36842" lon="6.85276">
        <ele>969.40002441406</ele>
        <time>2013-08-17T09:03:28Z</time>
      </trkpt>
      <trkpt lat="46.36838" lon="6.8528">
        <ele>968.20001220703</ele>
        <time>2013-08-17T09:03:30Z</time>
      </trkpt>
      <trkpt lat="46.36832" lon="6.85304">
        <ele>965.20001220703</ele>
        <time>2013-08-17T09:03:34Z</time>
      </trkpt>
      <trkpt lat="46.36825" lon="6.85335">
        <ele>962</ele>
        <time>2013-08-17T09:03:37Z</time>
      </trkpt>
      <trkpt lat="46.36819" lon="6.85354">
        <ele>959.20001220703</ele>
        <time>2013-08-17T09:03:41Z</time>
      </trkpt>
      <trkpt lat="46.36818" lon="6.85357">
        <ele>957</ele>
        <time>2013-08-17T09:04:11Z</time>
      </trkpt>
      <trkpt lat="46.36818" lon="6.85351">
        <ele>956</ele>
        <time>2013-08-17T09:04:14Z</time>
      </trkpt>
      <trkpt lat="46.36829" lon="6.85334">
        <ele>952.59997558594</ele>
        <time>2013-08-17T09:04:21Z</time>
      </trkpt>
      <trkpt lat="46.36831" lon="6.85331">
        <ele>952.40002441406</ele>
        <time>2013-08-17T09:04:22Z</time>
      </trkpt>
      <trkpt lat="46.36837" lon="6.85319">
        <ele>950.59997558594</ele>
        <time>2013-08-17T09:04:26Z</time>
      </trkpt>
      <trkpt lat="46.3684" lon="6.85331">
        <ele>949.20001220703</ele>
        <time>2013-08-17T09:04:31Z</time>
      </trkpt>
      <trkpt lat="46.36834" lon="6.85353">
        <ele>947.59997558594</ele>
        <time>2013-08-17T09:04:35Z</time>
      </trkpt>
      <trkpt lat="46.36829" lon="6.85375">
        <ele>946.20001220703</ele>
        <time>2013-08-17T09:04:38Z</time>
      </trkpt>
      <trkpt lat="46.36831" lon="6.8539">
        <ele>943.20001220703</ele>
        <time>2013-08-17T09:04:41Z</time>
      </trkpt>
      <trkpt lat="46.36834" lon="6.8539">
        <ele>942.20001220703</ele>
        <time>2013-08-17T09:04:43Z</time>
      </trkpt>
      <trkpt lat="46.36841" lon="6.85378">
        <ele>941</ele>
        <time>2013-08-17T09:04:47Z</time>
      </trkpt>
      <trkpt lat="46.36854" lon="6.8535">
        <ele>941</ele>
        <time>2013-08-17T09:04:55Z</time>
      </trkpt>
      <trkpt lat="46.36879" lon="6.85338">
        <ele>937.40002441406</ele>
        <time>2013-08-17T09:05:04Z</time>
      </trkpt>
      <trkpt lat="46.36887" lon="6.85332">
        <ele>936.20001220703</ele>
        <time>2013-08-17T09:05:06Z</time>
      </trkpt>
      <trkpt lat="46.36895" lon="6.85324">
        <ele>935.20001220703</ele>
        <time>2013-08-17T09:05:08Z</time>
      </trkpt>
      <trkpt lat="46.36912" lon="6.85331">
        <ele>932.40002441406</ele>
        <time>2013-08-17T09:05:14Z</time>
      </trkpt>
      <trkpt lat="46.3691" lon="6.85336">
        <ele>932.20001220703</ele>
        <time>2013-08-17T09:05:15Z</time>
      </trkpt>
      <trkpt lat="46.36903" lon="6.85353">
        <ele>932</ele>
        <time>2013-08-17T09:05:20Z</time>
      </trkpt>
      <trkpt lat="46.36878" lon="6.85368">
        <ele>932</ele>
        <time>2013-08-17T09:05:24Z</time>
      </trkpt>
      <trkpt lat="46.36859" lon="6.8539">
        <ele>932</ele>
        <time>2013-08-17T09:05:33Z</time>
      </trkpt>
      <trkpt lat="46.36857" lon="6.85394">
        <ele>932</ele>
        <time>2013-08-17T09:05:35Z</time>
      </trkpt>
      <trkpt lat="46.36858" lon="6.85397">
        <ele>932</ele>
        <time>2013-08-17T09:05:37Z</time>
      </trkpt>
      <trkpt lat="46.36865" lon="6.854">
        <ele>932</ele>
        <time>2013-08-17T09:05:42Z</time>
      </trkpt>
      <trkpt lat="46.36867" lon="6.854">
        <ele>932</ele>
        <time>2013-08-17T09:05:43Z</time>
      </trkpt>
      <trkpt lat="46.36887" lon="6.85426">
        <ele>932</ele>
        <time>2013-08-17T09:05:52Z</time>
      </trkpt>
      <trkpt lat="46.36906" lon="6.85453">
        <ele>932.40002441406</ele>
        <time>2013-08-17T09:06:01Z</time>
      </trkpt>
      <trkpt lat="46.36916" lon="6.85466">
        <ele>932.40002441406</ele>
        <time>2013-08-17T09:06:05Z</time>
      </trkpt>
      <trkpt lat="46.3692" lon="6.85484">
        <ele>932.20001220703</ele>
        <time>2013-08-17T09:06:09Z</time>
      </trkpt>
      <trkpt lat="46.36922" lon="6.85565">
        <ele>929.20001220703</ele>
        <time>2013-08-17T09:06:18Z</time>
      </trkpt>
      <trkpt lat="46.36922" lon="6.85576">
        <ele>928.40002441406</ele>
        <time>2013-08-17T09:06:19Z</time>
      </trkpt>
      <trkpt lat="46.36924" lon="6.85598">
        <ele>925.59997558594</ele>
        <time>2013-08-17T09:06:21Z</time>
      </trkpt>
      <trkpt lat="46.36922" lon="6.85643">
        <ele>922.40002441406</ele>
        <time>2013-08-17T09:06:25Z</time>
      </trkpt>
      <trkpt lat="46.36918" lon="6.85661">
        <ele>919.40002441406</ele>
        <time>2013-08-17T09:06:28Z</time>
      </trkpt>
      <trkpt lat="46.36916" lon="6.85666">
        <ele>918.40002441406</ele>
        <time>2013-08-17T09:06:30Z</time>
      </trkpt>
      <trkpt lat="46.36914" lon="6.8566">
        <ele>916.40002441406</ele>
        <time>2013-08-17T09:08:38Z</time>
      </trkpt>
      <trkpt lat="46.36913" lon="6.85657">
        <ele>916.20001220703</ele>
        <time>2013-08-17T09:08:39Z</time>
      </trkpt>
      <trkpt lat="46.36908" lon="6.85648">
        <ele>915.20001220703</ele>
        <time>2013-08-17T09:08:52Z</time>
      </trkpt>
      <trkpt lat="46.36913" lon="6.85632">
        <ele>913.40002441406</ele>
        <time>2013-08-17T09:09:01Z</time>
      </trkpt>
      <trkpt lat="46.3692" lon="6.85625">
        <ele>911.40002441406</ele>
        <time>2013-08-17T09:09:08Z</time>
      </trkpt>
      <trkpt lat="46.36931" lon="6.85606">
        <ele>908.40002441406</ele>
        <time>2013-08-17T09:09:11Z</time>
      </trkpt>
      <trkpt lat="46.36943" lon="6.85587">
        <ele>905.59997558594</ele>
        <time>2013-08-17T09:09:14Z</time>
      </trkpt>
      <trkpt lat="46.36953" lon="6.85564">
        <ele>902</ele>
        <time>2013-08-17T09:09:17Z</time>
      </trkpt>
      <trkpt lat="46.36962" lon="6.85543">
        <ele>898.40002441406</ele>
        <time>2013-08-17T09:09:20Z</time>
      </trkpt>
      <trkpt lat="46.36968" lon="6.85532">
        <ele>895.40002441406</ele>
        <time>2013-08-17T09:09:24Z</time>
      </trkpt>
      <trkpt lat="46.36968" lon="6.85533">
        <ele>895</ele>
        <time>2013-08-17T09:09:25Z</time>
      </trkpt>
      <trkpt lat="46.36962" lon="6.85552">
        <ele>893.20001220703</ele>
        <time>2013-08-17T09:09:30Z</time>
      </trkpt>
      <trkpt lat="46.3696" lon="6.85557">
        <ele>892.59997558594</ele>
        <time>2013-08-17T09:09:31Z</time>
      </trkpt>
      <trkpt lat="46.36954" lon="6.85591">
        <ele>889.20001220703</ele>
        <time>2013-08-17T09:09:35Z</time>
      </trkpt>
      <trkpt lat="46.36952" lon="6.85602">
        <ele>888</ele>
        <time>2013-08-17T09:09:36Z</time>
      </trkpt>
      <trkpt lat="46.36942" lon="6.85632">
        <ele>884.59997558594</ele>
        <time>2013-08-17T09:09:39Z</time>
      </trkpt>
      <trkpt lat="46.36934" lon="6.85663">
        <ele>881.40002441406</ele>
        <time>2013-08-17T09:09:42Z</time>
      </trkpt>
      <trkpt lat="46.36929" lon="6.85681">
        <ele>879.40002441406</ele>
        <time>2013-08-17T09:09:44Z</time>
      </trkpt>
      <trkpt lat="46.36927" lon="6.85694">
        <ele>876.20001220703</ele>
        <time>2013-08-17T09:09:47Z</time>
      </trkpt>
      <trkpt lat="46.36926" lon="6.85695">
        <ele>874.40002441406</ele>
        <time>2013-08-17T09:09:49Z</time>
      </trkpt>
      <trkpt lat="46.36933" lon="6.85673">
        <ele>871.40002441406</ele>
        <time>2013-08-17T09:09:55Z</time>
      </trkpt>
      <trkpt lat="46.36934" lon="6.85668">
        <ele>870.59997558594</ele>
        <time>2013-08-17T09:09:56Z</time>
      </trkpt>
      <trkpt lat="46.36945" lon="6.85649">
        <ele>867.59997558594</ele>
        <time>2013-08-17T09:09:59Z</time>
      </trkpt>
      <trkpt lat="46.3695" lon="6.85642">
        <ele>866.40002441406</ele>
        <time>2013-08-17T09:10:00Z</time>
      </trkpt>
      <trkpt lat="46.36962" lon="6.85624">
        <ele>863.40002441406</ele>
        <time>2013-08-17T09:10:03Z</time>
      </trkpt>
      <trkpt lat="46.36976" lon="6.85603">
        <ele>860</ele>
        <time>2013-08-17T09:10:06Z</time>
      </trkpt>
      <trkpt lat="46.36982" lon="6.85587">
        <ele>858</ele>
        <time>2013-08-17T09:10:08Z</time>
      </trkpt>
      <trkpt lat="46.36989" lon="6.85565">
        <ele>855.59997558594</ele>
        <time>2013-08-17T09:10:11Z</time>
      </trkpt>
      <trkpt lat="46.36999" lon="6.85531">
        <ele>852.40002441406</ele>
        <time>2013-08-17T09:10:15Z</time>
      </trkpt>
      <trkpt lat="46.37003" lon="6.85519">
        <ele>850.59997558594</ele>
        <time>2013-08-17T09:10:18Z</time>
      </trkpt>
      <trkpt lat="46.37007" lon="6.8552">
        <ele>848.20001220703</ele>
        <time>2013-08-17T09:10:21Z</time>
      </trkpt>
      <trkpt lat="46.37008" lon="6.85527">
        <ele>847.40002441406</ele>
        <time>2013-08-17T09:10:26Z</time>
      </trkpt>
      <trkpt lat="46.37003" lon="6.85549">
        <ele>845.20001220703</ele>
        <time>2013-08-17T09:10:30Z</time>
      </trkpt>
      <trkpt lat="46.37" lon="6.85586">
        <ele>841.20001220703</ele>
        <time>2013-08-17T09:10:34Z</time>
      </trkpt>
      <trkpt lat="46.36997" lon="6.85615">
        <ele>838.20001220703</ele>
        <time>2013-08-17T09:10:37Z</time>
      </trkpt>
      <trkpt lat="46.36991" lon="6.85646">
        <ele>835</ele>
        <time>2013-08-17T09:10:41Z</time>
      </trkpt>
      <trkpt lat="46.36984" lon="6.85664">
        <ele>833.20001220703</ele>
        <time>2013-08-17T09:10:44Z</time>
      </trkpt>
      <trkpt lat="46.36982" lon="6.85668">
        <ele>833</ele>
        <time>2013-08-17T09:10:45Z</time>
      </trkpt>
      <trkpt lat="46.36973" lon="6.85688">
        <ele>831</ele>
        <time>2013-08-17T09:10:48Z</time>
      </trkpt>
      <trkpt lat="46.36968" lon="6.85703">
        <ele>829.40002441406</ele>
        <time>2013-08-17T09:10:50Z</time>
      </trkpt>
      <trkpt lat="46.36961" lon="6.85724">
        <ele>826</ele>
        <time>2013-08-17T09:10:54Z</time>
      </trkpt>
      <trkpt lat="46.36962" lon="6.85721">
        <ele>824.40002441406</ele>
        <time>2013-08-17T09:10:57Z</time>
      </trkpt>
      <trkpt lat="46.36963" lon="6.85718">
        <ele>824.20001220703</ele>
        <time>2013-08-17T09:10:58Z</time>
      </trkpt>
      <trkpt lat="46.36967" lon="6.85703">
        <ele>822.40002441406</ele>
        <time>2013-08-17T09:11:27Z</time>
      </trkpt>
      <trkpt lat="46.36974" lon="6.85683">
        <ele>821.40002441406</ele>
        <time>2013-08-17T09:11:31Z</time>
      </trkpt>
      <trkpt lat="46.36981" lon="6.8567">
        <ele>820.20001220703</ele>
        <time>2013-08-17T09:11:33Z</time>
      </trkpt>
      <trkpt lat="46.3699" lon="6.85653">
        <ele>816.59997558594</ele>
        <time>2013-08-17T09:11:36Z</time>
      </trkpt>
      <trkpt lat="46.36996" lon="6.8564">
        <ele>815</ele>
        <time>2013-08-17T09:11:38Z</time>
      </trkpt>
      <trkpt lat="46.37008" lon="6.85614">
        <ele>811.40002441406</ele>
        <time>2013-08-17T09:11:41Z</time>
      </trkpt>
      <trkpt lat="46.3701" lon="6.85606">
        <ele>810.20001220703</ele>
        <time>2013-08-17T09:11:42Z</time>
      </trkpt>
      <trkpt lat="46.37024" lon="6.85579">
        <ele>806.40002441406</ele>
        <time>2013-08-17T09:11:45Z</time>
      </trkpt>
      <trkpt lat="46.37027" lon="6.85569">
        <ele>805.40002441406</ele>
        <time>2013-08-17T09:11:46Z</time>
      </trkpt>
      <trkpt lat="46.3703" lon="6.8556">
        <ele>804.40002441406</ele>
        <time>2013-08-17T09:11:47Z</time>
      </trkpt>
      <trkpt lat="46.37043" lon="6.85535">
        <ele>801</ele>
        <time>2013-08-17T09:11:50Z</time>
      </trkpt>
      <trkpt lat="46.37049" lon="6.85509">
        <ele>797</ele>
        <time>2013-08-17T09:11:53Z</time>
      </trkpt>
      <trkpt lat="46.37052" lon="6.85477">
        <ele>793.40002441406</ele>
        <time>2013-08-17T09:11:57Z</time>
      </trkpt>
      <trkpt lat="46.37051" lon="6.85461">
        <ele>790.40002441406</ele>
        <time>2013-08-17T09:12:00Z</time>
      </trkpt>
      <trkpt lat="46.3705" lon="6.85457">
        <ele>790.20001220703</ele>
        <time>2013-08-17T09:12:01Z</time>
      </trkpt>
      <trkpt lat="46.37068" lon="6.85447">
        <ele>787.59997558594</ele>
        <time>2013-08-17T09:12:07Z</time>
      </trkpt>
      <trkpt lat="46.37078" lon="6.85442">
        <ele>784.40002441406</ele>
        <time>2013-08-17T09:12:11Z</time>
      </trkpt>
      <trkpt lat="46.37104" lon="6.85417">
        <ele>781.20001220703</ele>
        <time>2013-08-17T09:12:15Z</time>
      </trkpt>
      <trkpt lat="46.37122" lon="6.85398">
        <ele>778.40002441406</ele>
        <time>2013-08-17T09:12:18Z</time>
      </trkpt>
      <trkpt lat="46.37129" lon="6.85392">
        <ele>777.59997558594</ele>
        <time>2013-08-17T09:12:19Z</time>
      </trkpt>
      <trkpt lat="46.37146" lon="6.85368">
        <ele>774.20001220703</ele>
        <time>2013-08-17T09:12:22Z</time>
      </trkpt>
      <trkpt lat="46.37152" lon="6.85359">
        <ele>773.20001220703</ele>
        <time>2013-08-17T09:12:23Z</time>
      </trkpt>
      <trkpt lat="46.37173" lon="6.8533">
        <ele>769.40002441406</ele>
        <time>2013-08-17T09:12:26Z</time>
      </trkpt>
      <trkpt lat="46.37188" lon="6.85305">
        <ele>766</ele>
        <time>2013-08-17T09:12:29Z</time>
      </trkpt>
      <trkpt lat="46.37198" lon="6.85295">
        <ele>764.20001220703</ele>
        <time>2013-08-17T09:12:31Z</time>
      </trkpt>
      <trkpt lat="46.37204" lon="6.8529">
        <ele>763.40002441406</ele>
        <time>2013-08-17T09:12:32Z</time>
      </trkpt>
      <trkpt lat="46.3722" lon="6.85283">
        <ele>760.40002441406</ele>
        <time>2013-08-17T09:12:35Z</time>
      </trkpt>
      <trkpt lat="46.37245" lon="6.85266">
        <ele>757.20001220703</ele>
        <time>2013-08-17T09:12:39Z</time>
      </trkpt>
      <trkpt lat="46.3726" lon="6.85249">
        <ele>754.40002441406</ele>
        <time>2013-08-17T09:12:42Z</time>
      </trkpt>
      <trkpt lat="46.37272" lon="6.85232">
        <ele>751.40002441406</ele>
        <time>2013-08-17T09:12:45Z</time>
      </trkpt>
      <trkpt lat="46.37286" lon="6.85207">
        <ele>748.20001220703</ele>
        <time>2013-08-17T09:12:48Z</time>
      </trkpt>
      <trkpt lat="46.3731" lon="6.85171">
        <ele>744.20001220703</ele>
        <time>2013-08-17T09:12:52Z</time>
      </trkpt>
      <trkpt lat="46.37315" lon="6.85165">
        <ele>743</ele>
        <time>2013-08-17T09:12:53Z</time>
      </trkpt>
      <trkpt lat="46.37324" lon="6.8515">
        <ele>740</ele>
        <time>2013-08-17T09:12:56Z</time>
      </trkpt>
      <trkpt lat="46.37327" lon="6.85155">
        <ele>738.20001220703</ele>
        <time>2013-08-17T09:12:59Z</time>
      </trkpt>
      <trkpt lat="46.37315" lon="6.85197">
        <ele>735</ele>
        <time>2013-08-17T09:13:06Z</time>
      </trkpt>
      <trkpt lat="46.37305" lon="6.85243">
        <ele>730.40002441406</ele>
        <time>2013-08-17T09:13:10Z</time>
      </trkpt>
      <trkpt lat="46.37294" lon="6.85283">
        <ele>726.40002441406</ele>
        <time>2013-08-17T09:13:13Z</time>
      </trkpt>
      <trkpt lat="46.37283" lon="6.85317">
        <ele>722.40002441406</ele>
        <time>2013-08-17T09:13:16Z</time>
      </trkpt>
      <trkpt lat="46.37277" lon="6.85334">
        <ele>719.59997558594</ele>
        <time>2013-08-17T09:13:18Z</time>
      </trkpt>
      <trkpt lat="46.37265" lon="6.85349">
        <ele>716.20001220703</ele>
        <time>2013-08-17T09:13:21Z</time>
      </trkpt>
      <trkpt lat="46.37263" lon="6.85353">
        <ele>713.20001220703</ele>
        <time>2013-08-17T09:13:24Z</time>
      </trkpt>
      <trkpt lat="46.37265" lon="6.85355">
        <ele>712.20001220703</ele>
        <time>2013-08-17T09:13:26Z</time>
      </trkpt>
      <trkpt lat="46.37269" lon="6.85348">
        <ele>711.40002441406</ele>
        <time>2013-08-17T09:13:28Z</time>
      </trkpt>
      <trkpt lat="46.37276" lon="6.85331">
        <ele>709.40002441406</ele>
        <time>2013-08-17T09:13:32Z</time>
      </trkpt>
      <trkpt lat="46.37285" lon="6.85312">
        <ele>706.40002441406</ele>
        <time>2013-08-17T09:13:35Z</time>
      </trkpt>
      <trkpt lat="46.37295" lon="6.85297">
        <ele>704</ele>
        <time>2013-08-17T09:13:37Z</time>
      </trkpt>
      <trkpt lat="46.37315" lon="6.85274">
        <ele>700.40002441406</ele>
        <time>2013-08-17T09:13:40Z</time>
      </trkpt>
      <trkpt lat="46.37335" lon="6.85249">
        <ele>697.20001220703</ele>
        <time>2013-08-17T09:13:43Z</time>
      </trkpt>
      <trkpt lat="46.37354" lon="6.85222">
        <ele>694.20001220703</ele>
        <time>2013-08-17T09:13:46Z</time>
      </trkpt>
      <trkpt lat="46.37369" lon="6.85197">
        <ele>691</ele>
        <time>2013-08-17T09:13:49Z</time>
      </trkpt>
      <trkpt lat="46.37386" lon="6.85171">
        <ele>687.20001220703</ele>
        <time>2013-08-17T09:13:53Z</time>
      </trkpt>
      <trkpt lat="46.37394" lon="6.85174">
        <ele>684</ele>
        <time>2013-08-17T09:13:57Z</time>
      </trkpt>
      <trkpt lat="46.37394" lon="6.85179">
        <ele>683.20001220703</ele>
        <time>2013-08-17T09:13:58Z</time>
      </trkpt>
      <trkpt lat="46.37395" lon="6.85185">
        <ele>682.40002441406</ele>
        <time>2013-08-17T09:13:59Z</time>
      </trkpt>
      <trkpt lat="46.37394" lon="6.85206">
        <ele>680.40002441406</ele>
        <time>2013-08-17T09:14:02Z</time>
      </trkpt>
      <trkpt lat="46.37391" lon="6.8522">
        <ele>678.40002441406</ele>
        <time>2013-08-17T09:14:05Z</time>
      </trkpt>
      <trkpt lat="46.3739" lon="6.85225">
        <ele>677.59997558594</ele>
        <time>2013-08-17T09:14:06Z</time>
      </trkpt>
      <trkpt lat="46.37389" lon="6.85221">
        <ele>677.40002441406</ele>
        <time>2013-08-17T09:14:07Z</time>
      </trkpt>
      <trkpt lat="46.3738" lon="6.85191">
        <ele>676.59997558594</ele>
        <time>2013-08-17T09:15:23Z</time>
      </trkpt>
      <trkpt lat="46.37376" lon="6.85155">
        <ele>676</ele>
        <time>2013-08-17T09:15:26Z</time>
      </trkpt>
      <trkpt lat="46.37367" lon="6.85155">
        <ele>674</ele>
        <time>2013-08-17T09:15:30Z</time>
      </trkpt>
      <trkpt lat="46.37349" lon="6.85189">
        <ele>669.59997558594</ele>
        <time>2013-08-17T09:15:34Z</time>
      </trkpt>
      <trkpt lat="46.37342" lon="6.852">
        <ele>668.20001220703</ele>
        <time>2013-08-17T09:15:36Z</time>
      </trkpt>
      <trkpt lat="46.37336" lon="6.8521">
        <ele>666.59997558594</ele>
        <time>2013-08-17T09:15:38Z</time>
      </trkpt>
      <trkpt lat="46.37332" lon="6.85233">
        <ele>663.40002441406</ele>
        <time>2013-08-17T09:15:42Z</time>
      </trkpt>
      <trkpt lat="46.37326" lon="6.85237">
        <ele>661.59997558594</ele>
        <time>2013-08-17T09:15:44Z</time>
      </trkpt>
      <trkpt lat="46.37321" lon="6.85237">
        <ele>661</ele>
        <time>2013-08-17T09:15:45Z</time>
      </trkpt>
      <trkpt lat="46.3732" lon="6.85218">
        <ele>658.40002441406</ele>
        <time>2013-08-17T09:15:49Z</time>
      </trkpt>
      <trkpt lat="46.37321" lon="6.85212">
        <ele>658</ele>
        <time>2013-08-17T09:15:50Z</time>
      </trkpt>
      <trkpt lat="46.37322" lon="6.85207">
        <ele>657.40002441406</ele>
        <time>2013-08-17T09:15:51Z</time>
      </trkpt>
      <trkpt lat="46.3733" lon="6.85177">
        <ele>654.40002441406</ele>
        <time>2013-08-17T09:15:56Z</time>
      </trkpt>
      <trkpt lat="46.37336" lon="6.85158">
        <ele>651.20001220703</ele>
        <time>2013-08-17T09:15:59Z</time>
      </trkpt>
      <trkpt lat="46.37341" lon="6.85149">
        <ele>649.20001220703</ele>
        <time>2013-08-17T09:16:01Z</time>
      </trkpt>
      <trkpt lat="46.37347" lon="6.8513">
        <ele>645.20001220703</ele>
        <time>2013-08-17T09:16:04Z</time>
      </trkpt>
      <trkpt lat="46.37351" lon="6.85114">
        <ele>641.40002441406</ele>
        <time>2013-08-17T09:16:07Z</time>
      </trkpt>
      <trkpt lat="46.37363" lon="6.85092">
        <ele>638.40002441406</ele>
        <time>2013-08-17T09:16:10Z</time>
      </trkpt>
      <trkpt lat="46.37369" lon="6.85074">
        <ele>635.40002441406</ele>
        <time>2013-08-17T09:16:13Z</time>
      </trkpt>
      <trkpt lat="46.37371" lon="6.85068">
        <ele>634.40002441406</ele>
        <time>2013-08-17T09:16:14Z</time>
      </trkpt>
      <trkpt lat="46.37376" lon="6.85053">
        <ele>631.40002441406</ele>
        <time>2013-08-17T09:16:17Z</time>
      </trkpt>
      <trkpt lat="46.37378" lon="6.85043">
        <ele>630.40002441406</ele>
        <time>2013-08-17T09:16:18Z</time>
      </trkpt>
      <trkpt lat="46.3738" lon="6.85033">
        <ele>629.59997558594</ele>
        <time>2013-08-17T09:16:19Z</time>
      </trkpt>
      <trkpt lat="46.37387" lon="6.85013">
        <ele>628.20001220703</ele>
        <time>2013-08-17T09:16:21Z</time>
      </trkpt>
      <trkpt lat="46.37399" lon="6.84996">
        <ele>625.20001220703</ele>
        <time>2013-08-17T09:16:23Z</time>
      </trkpt>
      <trkpt lat="46.37405" lon="6.84987">
        <ele>624</ele>
        <time>2013-08-17T09:16:24Z</time>
      </trkpt>
      <trkpt lat="46.37418" lon="6.84956">
        <ele>620.40002441406</ele>
        <time>2013-08-17T09:16:27Z</time>
      </trkpt>
      <trkpt lat="46.37424" lon="6.84933">
        <ele>617.40002441406</ele>
        <time>2013-08-17T09:16:29Z</time>
      </trkpt>
      <trkpt lat="46.37428" lon="6.84924">
        <ele>616.40002441406</ele>
        <time>2013-08-17T09:16:30Z</time>
      </trkpt>
      <trkpt lat="46.37435" lon="6.84892">
        <ele>613.20001220703</ele>
        <time>2013-08-17T09:16:33Z</time>
      </trkpt>
      <trkpt lat="46.37441" lon="6.8488">
        <ele>611.40002441406</ele>
        <time>2013-08-17T09:16:35Z</time>
      </trkpt>
      <trkpt lat="46.37439" lon="6.84875">
        <ele>611.20001220703</ele>
        <time>2013-08-17T09:16:36Z</time>
      </trkpt>
      <trkpt lat="46.37438" lon="6.84866">
        <ele>609.20001220703</ele>
        <time>2013-08-17T09:16:40Z</time>
      </trkpt>
      <trkpt lat="46.37416" lon="6.84845">
        <ele>605.20001220703</ele>
        <time>2013-08-17T09:16:46Z</time>
      </trkpt>
      <trkpt lat="46.37407" lon="6.84828">
        <ele>601.59997558594</ele>
        <time>2013-08-17T09:16:51Z</time>
      </trkpt>
      <trkpt lat="46.37414" lon="6.84812">
        <ele>599.59997558594</ele>
        <time>2013-08-17T09:16:54Z</time>
      </trkpt>
      <trkpt lat="46.37416" lon="6.84789">
        <ele>596.59997558594</ele>
        <time>2013-08-17T09:16:58Z</time>
      </trkpt>
      <trkpt lat="46.37426" lon="6.84766">
        <ele>593.40002441406</ele>
        <time>2013-08-17T09:17:02Z</time>
      </trkpt>
      <trkpt lat="46.37455" lon="6.84743">
        <ele>590.40002441406</ele>
        <time>2013-08-17T09:17:06Z</time>
      </trkpt>
      <trkpt lat="46.37473" lon="6.84724">
        <ele>588.20001220703</ele>
        <time>2013-08-17T09:17:09Z</time>
      </trkpt>
      <trkpt lat="46.37472" lon="6.84717">
        <ele>584.59997558594</ele>
        <time>2013-08-17T09:17:12Z</time>
      </trkpt>
      <trkpt lat="46.37475" lon="6.84718">
        <ele>584</ele>
        <time>2013-08-17T09:17:13Z</time>
      </trkpt>
      <trkpt lat="46.3749" lon="6.84721">
        <ele>581.40002441406</ele>
        <time>2013-08-17T09:17:16Z</time>
      </trkpt>
      <trkpt lat="46.37501" lon="6.84722">
        <ele>580</ele>
        <time>2013-08-17T09:17:18Z</time>
      </trkpt>
      <trkpt lat="46.37521" lon="6.84718">
        <ele>577.40002441406</ele>
        <time>2013-08-17T09:17:21Z</time>
      </trkpt>
      <trkpt lat="46.37548" lon="6.84703">
        <ele>574.40002441406</ele>
        <time>2013-08-17T09:17:25Z</time>
      </trkpt>
      <trkpt lat="46.37599" lon="6.84674">
        <ele>571.40002441406</ele>
        <time>2013-08-17T09:17:29Z</time>
      </trkpt>
      <trkpt lat="46.37634" lon="6.8466">
        <ele>568.40002441406</ele>
        <time>2013-08-17T09:17:32Z</time>
      </trkpt>
      <trkpt lat="46.3764" lon="6.84657">
        <ele>567.59997558594</ele>
        <time>2013-08-17T09:17:33Z</time>
      </trkpt>
      <trkpt lat="46.37657" lon="6.8465">
        <ele>564</ele>
        <time>2013-08-17T09:17:36Z</time>
      </trkpt>
      <trkpt lat="46.3779" lon="6.84631">
        <ele>563.20001220703</ele>
        <time>2013-08-17T09:17:37Z</time>
      </trkpt>
      <trkpt lat="46.37794" lon="6.84633">
        <ele>562.59997558594</ele>
        <time>2013-08-17T09:17:38Z</time>
      </trkpt>
      <trkpt lat="46.37796" lon="6.84635">
        <ele>562.40002441406</ele>
        <time>2013-08-17T09:17:39Z</time>
      </trkpt>
      <trkpt lat="46.37805" lon="6.84635">
        <ele>561.20001220703</ele>
        <time>2013-08-17T09:17:43Z</time>
      </trkpt>
      <trkpt lat="46.37825" lon="6.84621">
        <ele>558</ele>
        <time>2013-08-17T09:17:52Z</time>
      </trkpt>
      <trkpt lat="46.37828" lon="6.84611">
        <ele>556.40002441406</ele>
        <time>2013-08-17T09:17:55Z</time>
      </trkpt>
      <trkpt lat="46.37834" lon="6.84599">
        <ele>553.40002441406</ele>
        <time>2013-08-17T09:17:58Z</time>
      </trkpt>
      <trkpt lat="46.37836" lon="6.84596">
        <ele>553</ele>
        <time>2013-08-17T09:17:59Z</time>
      </trkpt>
      <trkpt lat="46.37851" lon="6.84584">
        <ele>550.20001220703</ele>
        <time>2013-08-17T09:18:03Z</time>
      </trkpt>
      <trkpt lat="46.3787" lon="6.84574">
        <ele>547.20001220703</ele>
        <time>2013-08-17T09:18:07Z</time>
      </trkpt>
      <trkpt lat="46.37884" lon="6.84558">
        <ele>544.20001220703</ele>
        <time>2013-08-17T09:18:10Z</time>
      </trkpt>
      <trkpt lat="46.37893" lon="6.84544">
        <ele>542.20001220703</ele>
        <time>2013-08-17T09:18:12Z</time>
      </trkpt>
      <trkpt lat="46.37917" lon="6.84515">
        <ele>539</ele>
        <time>2013-08-17T09:18:16Z</time>
      </trkpt>
      <trkpt lat="46.37923" lon="6.8451">
        <ele>538.20001220703</ele>
        <time>2013-08-17T09:18:17Z</time>
      </trkpt>
      <trkpt lat="46.37936" lon="6.84502">
        <ele>537.20001220703</ele>
        <time>2013-08-17T09:18:19Z</time>
      </trkpt>
      <trkpt lat="46.37953" lon="6.84485">
        <ele>535.20001220703</ele>
        <time>2013-08-17T09:18:22Z</time>
      </trkpt>
      <trkpt lat="46.37971" lon="6.84467">
        <ele>531.40002441406</ele>
        <time>2013-08-17T09:18:25Z</time>
      </trkpt>
      <trkpt lat="46.37977" lon="6.84461">
        <ele>530.40002441406</ele>
        <time>2013-08-17T09:18:26Z</time>
      </trkpt>
      <trkpt lat="46.37991" lon="6.84446">
        <ele>528.59997558594</ele>
        <time>2013-08-17T09:18:29Z</time>
      </trkpt>
      <trkpt lat="46.37993" lon="6.8444">
        <ele>528.40002441406</ele>
        <time>2013-08-17T09:18:30Z</time>
      </trkpt>
      <trkpt lat="46.38009" lon="6.84426">
        <ele>526.59997558594</ele>
        <time>2013-08-17T09:18:36Z</time>
      </trkpt>
      <trkpt lat="46.38021" lon="6.84431">
        <ele>523</ele>
        <time>2013-08-17T09:18:41Z</time>
      </trkpt>
      <trkpt lat="46.38027" lon="6.84434">
        <ele>521.20001220703</ele>
        <time>2013-08-17T09:18:43Z</time>
      </trkpt>
      <trkpt lat="46.38034" lon="6.8444">
        <ele>517.59997558594</ele>
        <time>2013-08-17T09:18:46Z</time>
      </trkpt>
      <trkpt lat="46.38041" lon="6.84447">
        <ele>514.20001220703</ele>
        <time>2013-08-17T09:18:49Z</time>
      </trkpt>
      <trkpt lat="46.38047" lon="6.84457">
        <ele>512.40002441406</ele>
        <time>2013-08-17T09:18:51Z</time>
      </trkpt>
      <trkpt lat="46.38067" lon="6.8447">
        <ele>509.20001220703</ele>
        <time>2013-08-17T09:18:57Z</time>
      </trkpt>
      <trkpt lat="46.38073" lon="6.8447">
        <ele>508</ele>
        <time>2013-08-17T09:18:59Z</time>
      </trkpt>
      <trkpt lat="46.38091" lon="6.84477">
        <ele>504.20001220703</ele>
        <time>2013-08-17T09:19:06Z</time>
      </trkpt>
      <trkpt lat="46.38097" lon="6.84479">
        <ele>502.60000610352</ele>
        <time>2013-08-17T09:19:08Z</time>
      </trkpt>
      <trkpt lat="46.38111" lon="6.84478">
        <ele>500</ele>
        <time>2013-08-17T09:19:11Z</time>
      </trkpt>
      <trkpt lat="46.38121" lon="6.84479">
        <ele>499</ele>
        <time>2013-08-17T09:19:13Z</time>
      </trkpt>
      <trkpt lat="46.38155" lon="6.84488">
        <ele>498</ele>
        <time>2013-08-17T09:19:23Z</time>
      </trkpt>
      <trkpt lat="46.38183" lon="6.84495">
        <ele>498.60000610352</ele>
        <time>2013-08-17T09:19:29Z</time>
      </trkpt>
      <trkpt lat="46.38204" lon="6.8451">
        <ele>499.20001220703</ele>
        <time>2013-08-17T09:19:38Z</time>
      </trkpt>
      <trkpt lat="46.38207" lon="6.84524">
        <ele>498.60000610352</ele>
        <time>2013-08-17T09:19:43Z</time>
      </trkpt>
      <trkpt lat="46.38208" lon="6.84527">
        <ele>498.60000610352</ele>
        <time>2013-08-17T09:19:44Z</time>
      </trkpt>
      <trkpt lat="46.38211" lon="6.84554">
        <ele>498</ele>
        <time>2013-08-17T09:19:48Z</time>
      </trkpt>
      <trkpt lat="46.38223" lon="6.84579">
        <ele>497.60000610352</ele>
        <time>2013-08-17T09:19:51Z</time>
      </trkpt>
      <trkpt lat="46.38232" lon="6.84608">
        <ele>497.60000610352</ele>
        <time>2013-08-17T09:19:56Z</time>
      </trkpt>
      <trkpt lat="46.38257" lon="6.84654">
        <ele>497.20001220703</ele>
        <time>2013-08-17T09:20:07Z</time>
      </trkpt>
      <trkpt lat="46.3826" lon="6.84658">
        <ele>496.60000610352</ele>
        <time>2013-08-17T09:20:08Z</time>
      </trkpt>
      <trkpt lat="46.38288" lon="6.84678">
        <ele>493.60000610352</ele>
        <time>2013-08-17T09:20:15Z</time>
      </trkpt>
      <trkpt lat="46.38305" lon="6.84688">
        <ele>490.20001220703</ele>
        <time>2013-08-17T09:20:21Z</time>
      </trkpt>
      <trkpt lat="46.38315" lon="6.84697">
        <ele>486.60000610352</ele>
        <time>2013-08-17T09:20:25Z</time>
      </trkpt>
      <trkpt lat="46.38317" lon="6.84701">
        <ele>486</ele>
        <time>2013-08-17T09:20:26Z</time>
      </trkpt>
      <trkpt lat="46.38322" lon="6.84717">
        <ele>482.60000610352</ele>
        <time>2013-08-17T09:20:29Z</time>
      </trkpt>
      <trkpt lat="46.38329" lon="6.84726">
        <ele>479.20001220703</ele>
        <time>2013-08-17T09:20:32Z</time>
      </trkpt>
      <trkpt lat="46.38334" lon="6.84731">
        <ele>477.20001220703</ele>
        <time>2013-08-17T09:20:34Z</time>
      </trkpt>
      <trkpt lat="46.38342" lon="6.84741">
        <ele>473.60000610352</ele>
        <time>2013-08-17T09:20:37Z</time>
      </trkpt>
      <trkpt lat="46.38352" lon="6.84753">
        <ele>470.60000610352</ele>
        <time>2013-08-17T09:20:41Z</time>
      </trkpt>
      <trkpt lat="46.38362" lon="6.84766">
        <ele>466.60000610352</ele>
        <time>2013-08-17T09:20:45Z</time>
      </trkpt>
      <trkpt lat="46.38367" lon="6.84772">
        <ele>464</ele>
        <time>2013-08-17T09:20:47Z</time>
      </trkpt>
      <trkpt lat="46.3838" lon="6.84785">
        <ele>461.60000610352</ele>
        <time>2013-08-17T09:20:51Z</time>
      </trkpt>
      <trkpt lat="46.38395" lon="6.848">
        <ele>458.60000610352</ele>
        <time>2013-08-17T09:20:56Z</time>
      </trkpt>
      <trkpt lat="46.384" lon="6.84807">
        <ele>458</ele>
        <time>2013-08-17T09:20:59Z</time>
      </trkpt>
      <trkpt lat="46.38405" lon="6.84834">
        <ele>454.60000610352</ele>
        <time>2013-08-17T09:21:05Z</time>
      </trkpt>
      <trkpt lat="46.38405" lon="6.84838">
        <ele>453.60000610352</ele>
        <time>2013-08-17T09:21:06Z</time>
      </trkpt>
      <trkpt lat="46.38413" lon="6.84857">
        <ele>450.20001220703</ele>
        <time>2013-08-17T09:21:10Z</time>
      </trkpt>
      <trkpt lat="46.38417" lon="6.84872">
        <ele>447.20001220703</ele>
        <time>2013-08-17T09:21:13Z</time>
      </trkpt>
      <trkpt lat="46.38419" lon="6.84877">
        <ele>447.20001220703</ele>
        <time>2013-08-17T09:21:14Z</time>
      </trkpt>
      <trkpt lat="46.38422" lon="6.84899">
        <ele>444.60000610352</ele>
        <time>2013-08-17T09:21:17Z</time>
      </trkpt>
      <trkpt lat="46.38426" lon="6.84916">
        <ele>442.60000610352</ele>
        <time>2013-08-17T09:21:19Z</time>
      </trkpt>
      <trkpt lat="46.38434" lon="6.84938">
        <ele>441.60000610352</ele>
        <time>2013-08-17T09:21:22Z</time>
      </trkpt>
      <trkpt lat="46.38458" lon="6.8496">
        <ele>441.60000610352</ele>
        <time>2013-08-17T09:21:29Z</time>
      </trkpt>
      <trkpt lat="46.38462" lon="6.84963">
        <ele>441.60000610352</ele>
        <time>2013-08-17T09:21:30Z</time>
      </trkpt>
      <trkpt lat="46.38477" lon="6.84958">
        <ele>443</ele>
        <time>2013-08-17T09:21:34Z</time>
      </trkpt>
      <trkpt lat="46.3848" lon="6.84954">
        <ele>443.60000610352</ele>
        <time>2013-08-17T09:21:35Z</time>
      </trkpt>
      <trkpt lat="46.38484" lon="6.84943">
        <ele>444.20001220703</ele>
        <time>2013-08-17T09:21:37Z</time>
      </trkpt>
      <trkpt lat="46.38487" lon="6.84923">
        <ele>444.60000610352</ele>
        <time>2013-08-17T09:21:40Z</time>
      </trkpt>
      <trkpt lat="46.38493" lon="6.84891">
        <ele>445.60000610352</ele>
        <time>2013-08-17T09:21:44Z</time>
      </trkpt>
      <trkpt lat="46.38505" lon="6.8486">
        <ele>447.20001220703</ele>
        <time>2013-08-17T09:21:48Z</time>
      </trkpt>
      <trkpt lat="46.38522" lon="6.84816">
        <ele>446.20001220703</ele>
        <time>2013-08-17T09:21:54Z</time>
      </trkpt>
      <trkpt lat="46.38529" lon="6.84778">
        <ele>445.60000610352</ele>
        <time>2013-08-17T09:22:00Z</time>
      </trkpt>
      <trkpt lat="46.38531" lon="6.84766">
        <ele>445.20001220703</ele>
        <time>2013-08-17T09:22:02Z</time>
      </trkpt>
      <trkpt lat="46.38536" lon="6.84749">
        <ele>444</ele>
        <time>2013-08-17T09:22:05Z</time>
      </trkpt>
      <trkpt lat="46.38525" lon="6.8472">
        <ele>441.60000610352</ele>
        <time>2013-08-17T09:22:11Z</time>
      </trkpt>
      <trkpt lat="46.38525" lon="6.84709">
        <ele>441.20001220703</ele>
        <time>2013-08-17T09:22:18Z</time>
      </trkpt>
      <trkpt lat="46.38535" lon="6.84728">
        <ele>437.60000610352</ele>
        <time>2013-08-17T09:22:23Z</time>
      </trkpt>
      <trkpt lat="46.38545" lon="6.84748">
        <ele>435.60000610352</ele>
        <time>2013-08-17T09:22:26Z</time>
      </trkpt>
      <trkpt lat="46.38551" lon="6.84765">
        <ele>432.20001220703</ele>
        <time>2013-08-17T09:22:29Z</time>
      </trkpt>
      <trkpt lat="46.38554" lon="6.84771">
        <ele>431</ele>
        <time>2013-08-17T09:22:30Z</time>
      </trkpt>
      <trkpt lat="46.38565" lon="6.84788">
        <ele>427.60000610352</ele>
        <time>2013-08-17T09:22:33Z</time>
      </trkpt>
      <trkpt lat="46.38572" lon="6.84805">
        <ele>426</ele>
        <time>2013-08-17T09:22:35Z</time>
      </trkpt>
      <trkpt lat="46.38574" lon="6.84814">
        <ele>425.20001220703</ele>
        <time>2013-08-17T09:22:36Z</time>
      </trkpt>
      <trkpt lat="46.3858" lon="6.84843">
        <ele>422.20001220703</ele>
        <time>2013-08-17T09:22:41Z</time>
      </trkpt>
      <trkpt lat="46.38578" lon="6.84865">
        <ele>421.60000610352</ele>
        <time>2013-08-17T09:22:48Z</time>
      </trkpt>
      <trkpt lat="46.38579" lon="6.84881">
        <ele>421.20001220703</ele>
        <time>2013-08-17T09:23:15Z</time>
      </trkpt>
      <trkpt lat="46.38594" lon="6.84897">
        <ele>419.60000610352</ele>
        <time>2013-08-17T09:23:20Z</time>
      </trkpt>
      <trkpt lat="46.38599" lon="6.84903">
        <ele>419.60000610352</ele>
        <time>2013-08-17T09:23:21Z</time>
      </trkpt>
      <trkpt lat="46.3861" lon="6.84911">
        <ele>418.20001220703</ele>
        <time>2013-08-17T09:23:23Z</time>
      </trkpt>
      <trkpt lat="46.3862" lon="6.84933">
        <ele>415.20001220703</ele>
        <time>2013-08-17T09:23:26Z</time>
      </trkpt>
      <trkpt lat="46.38622" lon="6.84946">
        <ele>414.20001220703</ele>
        <time>2013-08-17T09:23:28Z</time>
      </trkpt>
      <trkpt lat="46.38623" lon="6.84951">
        <ele>413.20001220703</ele>
        <time>2013-08-17T09:23:29Z</time>
      </trkpt>
      <trkpt lat="46.38635" lon="6.84949">
        <ele>410.20001220703</ele>
        <time>2013-08-17T09:23:34Z</time>
      </trkpt>
      <trkpt lat="46.3864" lon="6.84945">
        <ele>408.60000610352</ele>
        <time>2013-08-17T09:23:35Z</time>
      </trkpt>
      <trkpt lat="46.3866" lon="6.84922">
        <ele>405.20001220703</ele>
        <time>2013-08-17T09:23:39Z</time>
      </trkpt>
      <trkpt lat="46.38666" lon="6.84927">
        <ele>404</ele>
        <time>2013-08-17T09:23:41Z</time>
      </trkpt>
      <trkpt lat="46.38676" lon="6.84937">
        <ele>401.60000610352</ele>
        <time>2013-08-17T09:23:47Z</time>
      </trkpt>
      <trkpt lat="46.38686" lon="6.84932">
        <ele>398.60000610352</ele>
        <time>2013-08-17T09:23:50Z</time>
      </trkpt>
      <trkpt lat="46.38688" lon="6.84943">
        <ele>397</ele>
        <time>2013-08-17T09:23:52Z</time>
      </trkpt>
      <trkpt lat="46.38683" lon="6.84956">
        <ele>396</ele>
        <time>2013-08-17T09:23:54Z</time>
      </trkpt>
      <trkpt lat="46.38682" lon="6.84968">
        <ele>393.60000610352</ele>
        <time>2013-08-17T09:23:57Z</time>
      </trkpt>
      <trkpt lat="46.3869" lon="6.84955">
        <ele>391.20001220703</ele>
        <time>2013-08-17T09:24:01Z</time>
      </trkpt>
      <trkpt lat="46.38694" lon="6.84969">
        <ele>390.20001220703</ele>
        <time>2013-08-17T09:24:06Z</time>
      </trkpt>
      <trkpt lat="46.38691" lon="6.8498">
        <ele>390.60000610352</ele>
        <time>2013-08-17T09:24:08Z</time>
      </trkpt>
      <trkpt lat="46.3869" lon="6.84986">
        <ele>390.20001220703</ele>
        <time>2013-08-17T09:24:09Z</time>
      </trkpt>
      <trkpt lat="46.38684" lon="6.85007">
        <ele>389.60000610352</ele>
        <time>2013-08-17T09:24:13Z</time>
      </trkpt>
      <trkpt lat="46.38692" lon="6.85021">
        <ele>389.60000610352</ele>
        <time>2013-08-17T09:24:18Z</time>
      </trkpt>
      <trkpt lat="46.38689" lon="6.85031">
        <ele>389.60000610352</ele>
        <time>2013-08-17T09:24:21Z</time>
      </trkpt>
      <trkpt lat="46.38687" lon="6.85044">
        <ele>390</ele>
        <time>2013-08-17T09:24:24Z</time>
      </trkpt>
      <trkpt lat="46.38678" lon="6.85084">
        <ele>390.60000610352</ele>
        <time>2013-08-17T09:24:31Z</time>
      </trkpt>
      <trkpt lat="46.3867" lon="6.85125">
        <ele>389</ele>
        <time>2013-08-17T09:24:37Z</time>
      </trkpt>
      <trkpt lat="46.38664" lon="6.85134">
        <ele>388.20001220703</ele>
        <time>2013-08-17T09:24:38Z</time>
      </trkpt>
      <trkpt lat="46.38655" lon="6.85149">
        <ele>386.60000610352</ele>
        <time>2013-08-17T09:24:40Z</time>
      </trkpt>
      <trkpt lat="46.38643" lon="6.85162">
        <ele>385.60000610352</ele>
        <time>2013-08-17T09:24:42Z</time>
      </trkpt>
      <trkpt lat="46.38596" lon="6.85196">
        <ele>385.60000610352</ele>
        <time>2013-08-17T09:24:51Z</time>
      </trkpt>
      <trkpt lat="46.38585" lon="6.85208">
        <ele>386</ele>
        <time>2013-08-17T09:24:54Z</time>
      </trkpt>
      <trkpt lat="46.38561" lon="6.8524">
        <ele>386</ele>
        <time>2013-08-17T09:25:04Z</time>
      </trkpt>
      <trkpt lat="46.38561" lon="6.8524">
        <ele>385.20001220703</ele>
        <time>2013-08-17T09:25:10Z</time>
      </trkpt>
      <trkpt lat="46.38568" lon="6.85226">
        <ele>383.60000610352</ele>
        <time>2013-08-17T09:25:14Z</time>
      </trkpt>
      <trkpt lat="46.38597" lon="6.852">
        <ele>382.20001220703</ele>
        <time>2013-08-17T09:25:20Z</time>
      </trkpt>
      <trkpt lat="46.38612" lon="6.852">
        <ele>380</ele>
        <time>2013-08-17T09:25:23Z</time>
      </trkpt>
      <trkpt lat="46.38643" lon="6.85192">
        <ele>379.20001220703</ele>
        <time>2013-08-17T09:25:28Z</time>
      </trkpt>
      <trkpt lat="46.38665" lon="6.85184">
        <ele>379.20001220703</ele>
        <time>2013-08-17T09:25:34Z</time>
      </trkpt>
      <trkpt lat="46.38667" lon="6.85203">
        <ele>379.60000610352</ele>
        <time>2013-08-17T09:25:38Z</time>
      </trkpt>
      <trkpt lat="46.38656" lon="6.85268">
        <ele>379.20001220703</ele>
        <time>2013-08-17T09:25:51Z</time>
      </trkpt>
      <trkpt lat="46.38654" lon="6.8531">
        <ele>379.20001220703</ele>
        <time>2013-08-17T09:26:02Z</time>
      </trkpt>
      <trkpt lat="46.38634" lon="6.85364">
        <ele>378.60000610352</ele>
        <time>2013-08-17T09:26:17Z</time>
      </trkpt>
      <trkpt lat="46.38604" lon="6.85421">
        <ele>379</ele>
        <time>2013-08-17T09:26:32Z</time>
      </trkpt>
      <trkpt lat="46.38573" lon="6.85479">
        <ele>378.60000610352</ele>
        <time>2013-08-17T09:26:46Z</time>
      </trkpt>
      <trkpt lat="46.38566" lon="6.85492">
        <ele>378.60000610352</ele>
        <time>2013-08-17T09:26:49Z</time>
      </trkpt>
      <trkpt lat="46.38535" lon="6.85527">
        <ele>378.20001220703</ele>
        <time>2013-08-17T09:26:59Z</time>
      </trkpt>
      <trkpt lat="46.38526" lon="6.85571">
        <ele>378.20001220703</ele>
        <time>2013-08-17T09:27:07Z</time>
      </trkpt>
      <trkpt lat="46.38531" lon="6.85596">
        <ele>378.20001220703</ele>
        <time>2013-08-17T09:27:11Z</time>
      </trkpt>
      <trkpt lat="46.38562" lon="6.85666">
        <ele>378.20001220703</ele>
        <time>2013-08-17T09:27:24Z</time>
      </trkpt>
      <trkpt lat="46.38554" lon="6.85691">
        <ele>378.20001220703</ele>
        <time>2013-08-17T09:27:29Z</time>
      </trkpt>
      <trkpt lat="46.38536" lon="6.85716">
        <ele>378.20001220703</ele>
        <time>2013-08-17T09:27:35Z</time>
      </trkpt>
      <trkpt lat="46.38541" lon="6.85732">
        <ele>379</ele>
        <time>2013-08-17T09:27:39Z</time>
      </trkpt>
      <trkpt lat="46.38569" lon="6.85798">
        <ele>379</ele>
        <time>2013-08-17T09:27:54Z</time>
      </trkpt>
      <trkpt lat="46.38589" lon="6.85838">
        <ele>379.20001220703</ele>
        <time>2013-08-17T09:28:05Z</time>
      </trkpt>
      <trkpt lat="46.38569" lon="6.85851">
        <ele>378.60000610352</ele>
        <time>2013-08-17T09:28:11Z</time>
      </trkpt>
      <trkpt lat="46.38559" lon="6.85855">
        <ele>378.60000610352</ele>
        <time>2013-08-17T09:28:13Z</time>
      </trkpt>
      <trkpt lat="46.3849" lon="6.85914">
        <ele>378.20001220703</ele>
        <time>2013-08-17T09:28:29Z</time>
      </trkpt>
      <trkpt lat="46.38391" lon="6.86">
        <ele>379</ele>
        <time>2013-08-17T09:28:49Z</time>
      </trkpt>
      <trkpt lat="46.3832" lon="6.8607">
        <ele>379.20001220703</ele>
        <time>2013-08-17T09:29:05Z</time>
      </trkpt>
      <trkpt lat="46.38307" lon="6.86098">
        <ele>378.60000610352</ele>
        <time>2013-08-17T09:29:14Z</time>
      </trkpt>
      <trkpt lat="46.38312" lon="6.86123">
        <ele>378.60000610352</ele>
        <time>2013-08-17T09:29:18Z</time>
      </trkpt>
      <trkpt lat="46.3835" lon="6.86233">
        <ele>378.60000610352</ele>
        <time>2013-08-17T09:29:34Z</time>
      </trkpt>
      <trkpt lat="46.38386" lon="6.86343">
        <ele>379.20001220703</ele>
        <time>2013-08-17T09:29:49Z</time>
      </trkpt>
      <trkpt lat="46.38406" lon="6.86402">
        <ele>379.60000610352</ele>
        <time>2013-08-17T09:29:57Z</time>
      </trkpt>
      <trkpt lat="46.3841" lon="6.86475">
        <ele>379.20001220703</ele>
        <time>2013-08-17T09:30:06Z</time>
      </trkpt>
      <trkpt lat="46.38407" lon="6.86593">
        <ele>379</ele>
        <time>2013-08-17T09:30:19Z</time>
      </trkpt>
      <trkpt lat="46.38411" lon="6.86716">
        <ele>379.20001220703</ele>
        <time>2013-08-17T09:30:34Z</time>
      </trkpt>
      <trkpt lat="46.38414" lon="6.86806">
        <ele>380</ele>
        <time>2013-08-17T09:30:45Z</time>
      </trkpt>
      <trkpt lat="46.38415" lon="6.86831">
        <ele>380.20001220703</ele>
        <time>2013-08-17T09:30:48Z</time>
      </trkpt>
      <trkpt lat="46.38419" lon="6.86934">
        <ele>380</ele>
        <time>2013-08-17T09:31:00Z</time>
      </trkpt>
      <trkpt lat="46.3842" lon="6.87026">
        <ele>379.60000610352</ele>
        <time>2013-08-17T09:31:12Z</time>
      </trkpt>
      <trkpt lat="46.38425" lon="6.87106">
        <ele>381.60000610352</ele>
        <time>2013-08-17T09:31:25Z</time>
      </trkpt>
      <trkpt lat="46.3842" lon="6.87116">
        <ele>382.20001220703</ele>
        <time>2013-08-17T09:31:29Z</time>
      </trkpt>
      <trkpt lat="46.38431" lon="6.87109">
        <ele>383</ele>
        <time>2013-08-17T09:31:36Z</time>
      </trkpt>
      <trkpt lat="46.38432" lon="6.8711">
        <ele>383.20001220703</ele>
        <time>2013-08-17T09:31:40Z</time>
      </trkpt>
      <trkpt lat="46.38423" lon="6.87117">
        <ele>383.60000610352</ele>
        <time>2013-08-17T09:31:44Z</time>
      </trkpt>
      <trkpt lat="46.38419" lon="6.87122">
        <ele>383.60000610352</ele>
        <time>2013-08-17T09:31:46Z</time>
      </trkpt>
      <trkpt lat="46.38432" lon="6.87153">
        <ele>385.20001220703</ele>
        <time>2013-08-17T09:31:54Z</time>
      </trkpt>
      <trkpt lat="46.3846" lon="6.87207">
        <ele>384.20001220703</ele>
        <time>2013-08-17T09:32:11Z</time>
      </trkpt>
      <trkpt lat="46.38463" lon="6.87215">
        <ele>384.20001220703</ele>
        <time>2013-08-17T09:32:15Z</time>
      </trkpt>
      <trkpt lat="46.38475" lon="6.87207">
        <ele>383.60000610352</ele>
        <time>2013-08-17T09:32:21Z</time>
      </trkpt>
      <trkpt lat="46.38477" lon="6.87208">
        <ele>383.20001220703</ele>
        <time>2013-08-17T09:32:23Z</time>
      </trkpt>
      <trkpt lat="46.3846" lon="6.8723">
        <ele>382.60000610352</ele>
        <time>2013-08-17T09:32:31Z</time>
      </trkpt>
      <trkpt lat="46.38418" lon="6.87263">
        <ele>383</ele>
        <time>2013-08-17T09:32:44Z</time>
      </trkpt>
      <trkpt lat="46.3838" lon="6.87295">
        <ele>383.20001220703</ele>
        <time>2013-08-17T09:32:53Z</time>
      </trkpt>
      <trkpt lat="46.38319" lon="6.87361">
        <ele>383</ele>
        <time>2013-08-17T09:33:08Z</time>
      </trkpt>
      <trkpt lat="46.38227" lon="6.87476">
        <ele>383.20001220703</ele>
        <time>2013-08-17T09:33:30Z</time>
      </trkpt>
      <trkpt lat="46.38163" lon="6.87591">
        <ele>383.60000610352</ele>
        <time>2013-08-17T09:33:48Z</time>
      </trkpt>
      <trkpt lat="46.38109" lon="6.87731">
        <ele>384.20001220703</ele>
        <time>2013-08-17T09:34:07Z</time>
      </trkpt>
      <trkpt lat="46.38058" lon="6.87875">
        <ele>383.60000610352</ele>
        <time>2013-08-17T09:34:26Z</time>
      </trkpt>
      <trkpt lat="46.38001" lon="6.88008">
        <ele>384</ele>
        <time>2013-08-17T09:34:44Z</time>
      </trkpt>
      <trkpt lat="46.37926" lon="6.88143">
        <ele>384.20001220703</ele>
        <time>2013-08-17T09:35:04Z</time>
      </trkpt>
      <trkpt lat="46.37839" lon="6.88268">
        <ele>385</ele>
        <time>2013-08-17T09:35:25Z</time>
      </trkpt>
      <trkpt lat="46.37779" lon="6.88347">
        <ele>385.60000610352</ele>
        <time>2013-08-17T09:35:41Z</time>
      </trkpt>
      <trkpt lat="46.37762" lon="6.88373">
        <ele>385.60000610352</ele>
        <time>2013-08-17T09:35:45Z</time>
      </trkpt>
      <trkpt lat="46.37692" lon="6.88452">
        <ele>385.60000610352</ele>
        <time>2013-08-17T09:35:58Z</time>
      </trkpt>
      <trkpt lat="46.376" lon="6.88544">
        <ele>385.20001220703</ele>
        <time>2013-08-17T09:36:14Z</time>
      </trkpt>
      <trkpt lat="46.37492" lon="6.88609">
        <ele>385</ele>
        <time>2013-08-17T09:36:31Z</time>
      </trkpt>
      <trkpt lat="46.37365" lon="6.88642">
        <ele>385.20001220703</ele>
        <time>2013-08-17T09:36:49Z</time>
      </trkpt>
      <trkpt lat="46.37223" lon="6.88685">
        <ele>385</ele>
        <time>2013-08-17T09:37:10Z</time>
      </trkpt>
      <trkpt lat="46.37097" lon="6.88713">
        <ele>383.60000610352</ele>
        <time>2013-08-17T09:37:26Z</time>
      </trkpt>
      <trkpt lat="46.36936" lon="6.88739">
        <ele>384.60000610352</ele>
        <time>2013-08-17T09:37:46Z</time>
      </trkpt>
      <trkpt lat="46.36782" lon="6.8877">
        <ele>385</ele>
        <time>2013-08-17T09:38:05Z</time>
      </trkpt>
      <trkpt lat="46.36643" lon="6.88778">
        <ele>384.60000610352</ele>
        <time>2013-08-17T09:38:22Z</time>
      </trkpt>
      <trkpt lat="46.3651" lon="6.88761">
        <ele>385.20001220703</ele>
        <time>2013-08-17T09:38:38Z</time>
      </trkpt>
      <trkpt lat="46.36376" lon="6.8871">
        <ele>385.20001220703</ele>
        <time>2013-08-17T09:38:55Z</time>
      </trkpt>
      <trkpt lat="46.3623" lon="6.88655">
        <ele>385.60000610352</ele>
        <time>2013-08-17T09:39:13Z</time>
      </trkpt>
      <trkpt lat="46.36086" lon="6.88557">
        <ele>386.20001220703</ele>
        <time>2013-08-17T09:39:32Z</time>
      </trkpt>
      <trkpt lat="46.35966" lon="6.88465">
        <ele>386.20001220703</ele>
        <time>2013-08-17T09:39:48Z</time>
      </trkpt>
      <trkpt lat="46.3586" lon="6.8839">
        <ele>385.60000610352</ele>
        <time>2013-08-17T09:40:02Z</time>
      </trkpt>
      <trkpt lat="46.35793" lon="6.88343">
        <ele>386.20001220703</ele>
        <time>2013-08-17T09:40:14Z</time>
      </trkpt>
      <trkpt lat="46.35769" lon="6.88336">
        <ele>386</ele>
        <time>2013-08-17T09:40:18Z</time>
      </trkpt>
      <trkpt lat="46.35712" lon="6.88297">
        <ele>384</ele>
        <time>2013-08-17T09:40:27Z</time>
      </trkpt>
      <trkpt lat="46.35707" lon="6.88292">
        <ele>384.20001220703</ele>
        <time>2013-08-17T09:40:28Z</time>
      </trkpt>
      <trkpt lat="46.35691" lon="6.88271">
        <ele>385.60000610352</ele>
        <time>2013-08-17T09:40:32Z</time>
      </trkpt>
      <trkpt lat="46.35629" lon="6.88241">
        <ele>387</ele>
        <time>2013-08-17T09:40:44Z</time>
      </trkpt>
      <trkpt lat="46.35526" lon="6.88229">
        <ele>387</ele>
        <time>2013-08-17T09:41:00Z</time>
      </trkpt>
      <trkpt lat="46.3541" lon="6.88254">
        <ele>386.60000610352</ele>
        <time>2013-08-17T09:41:18Z</time>
      </trkpt>
      <trkpt lat="46.35312" lon="6.88315">
        <ele>386.60000610352</ele>
        <time>2013-08-17T09:41:34Z</time>
      </trkpt>
      <trkpt lat="46.35229" lon="6.88417">
        <ele>387</ele>
        <time>2013-08-17T09:41:50Z</time>
      </trkpt>
      <trkpt lat="46.35157" lon="6.88543">
        <ele>387.60000610352</ele>
        <time>2013-08-17T09:42:06Z</time>
      </trkpt>
      <trkpt lat="46.35078" lon="6.88704">
        <ele>387.60000610352</ele>
        <time>2013-08-17T09:42:25Z</time>
      </trkpt>
      <trkpt lat="46.35005" lon="6.88807">
        <ele>388</ele>
        <time>2013-08-17T09:42:40Z</time>
      </trkpt>
      <trkpt lat="46.34951" lon="6.88892">
        <ele>387.60000610352</ele>
        <time>2013-08-17T09:42:56Z</time>
      </trkpt>
      <trkpt lat="46.34938" lon="6.88884">
        <ele>387.60000610352</ele>
        <time>2013-08-17T09:43:02Z</time>
      </trkpt>
      <trkpt lat="46.34912" lon="6.88819">
        <ele>388.60000610352</ele>
        <time>2013-08-17T09:43:13Z</time>
      </trkpt>
      <trkpt lat="46.34896" lon="6.88787">
        <ele>387.60000610352</ele>
        <time>2013-08-17T09:43:20Z</time>
      </trkpt>
      <trkpt lat="46.34886" lon="6.88806">
        <ele>388.20001220703</ele>
        <time>2013-08-17T09:43:25Z</time>
      </trkpt>
      <trkpt lat="46.34868" lon="6.88828">
        <ele>388.20001220703</ele>
        <time>2013-08-17T09:43:31Z</time>
      </trkpt>
      <trkpt lat="46.34811" lon="6.88879">
        <ele>388.60000610352</ele>
        <time>2013-08-17T09:43:45Z</time>
      </trkpt>
      <trkpt lat="46.34734" lon="6.88946">
        <ele>389.20001220703</ele>
        <time>2013-08-17T09:44:00Z</time>
      </trkpt>
      <trkpt lat="46.34646" lon="6.89011">
        <ele>389.20001220703</ele>
        <time>2013-08-17T09:44:16Z</time>
      </trkpt>
      <trkpt lat="46.3454" lon="6.89085">
        <ele>389.60000610352</ele>
        <time>2013-08-17T09:44:35Z</time>
      </trkpt>
      <trkpt lat="46.34441" lon="6.89156">
        <ele>390</ele>
        <time>2013-08-17T09:44:52Z</time>
      </trkpt>
      <trkpt lat="46.34337" lon="6.89232">
        <ele>390.20001220703</ele>
        <time>2013-08-17T09:45:09Z</time>
      </trkpt>
      <trkpt lat="46.34226" lon="6.89312">
        <ele>391.20001220703</ele>
        <time>2013-08-17T09:45:27Z</time>
      </trkpt>
      <trkpt lat="46.34131" lon="6.89396">
        <ele>391.60000610352</ele>
        <time>2013-08-17T09:45:43Z</time>
      </trkpt>
      <trkpt lat="46.34074" lon="6.89456">
        <ele>391.60000610352</ele>
        <time>2013-08-17T09:45:53Z</time>
      </trkpt>
      <trkpt lat="46.34017" lon="6.89557">
        <ele>392.20001220703</ele>
        <time>2013-08-17T09:46:06Z</time>
      </trkpt>
      <trkpt lat="46.33966" lon="6.89644">
        <ele>392.20001220703</ele>
        <time>2013-08-17T09:46:20Z</time>
      </trkpt>
      <trkpt lat="46.33966" lon="6.89642">
        <ele>391.60000610352</ele>
        <time>2013-08-17T09:46:31Z</time>
      </trkpt>
      <trkpt lat="46.33959" lon="6.8962">
        <ele>390.20001220703</ele>
        <time>2013-08-17T09:46:40Z</time>
      </trkpt>
      <trkpt lat="46.33947" lon="6.89625">
        <ele>389.60000610352</ele>
        <time>2013-08-17T09:46:45Z</time>
      </trkpt>
      <trkpt lat="46.33918" lon="6.89646">
        <ele>389.60000610352</ele>
        <time>2013-08-17T09:46:53Z</time>
      </trkpt>
      <trkpt lat="46.33872" lon="6.89659">
        <ele>388.60000610352</ele>
        <time>2013-08-17T09:47:01Z</time>
      </trkpt>
      <trkpt lat="46.33792" lon="6.89735">
        <ele>388.60000610352</ele>
        <time>2013-08-17T09:47:16Z</time>
      </trkpt>
      <trkpt lat="46.33733" lon="6.89795">
        <ele>388.60000610352</ele>
        <time>2013-08-17T09:47:28Z</time>
      </trkpt>
      <trkpt lat="46.33717" lon="6.89775">
        <ele>388.60000610352</ele>
        <time>2013-08-17T09:47:33Z</time>
      </trkpt>
      <trkpt lat="46.33695" lon="6.89682">
        <ele>387.60000610352</ele>
        <time>2013-08-17T09:47:45Z</time>
      </trkpt>
      <trkpt lat="46.33676" lon="6.89678">
        <ele>387.60000610352</ele>
        <time>2013-08-17T09:47:51Z</time>
      </trkpt>
      <trkpt lat="46.33636" lon="6.89752">
        <ele>388</ele>
        <time>2013-08-17T09:48:02Z</time>
      </trkpt>
      <trkpt lat="46.33569" lon="6.89873">
        <ele>388</ele>
        <time>2013-08-17T09:48:18Z</time>
      </trkpt>
      <trkpt lat="46.33482" lon="6.89964">
        <ele>387.60000610352</ele>
        <time>2013-08-17T09:48:34Z</time>
      </trkpt>
      <trkpt lat="46.33384" lon="6.90057">
        <ele>388.20001220703</ele>
        <time>2013-08-17T09:48:51Z</time>
      </trkpt>
      <trkpt lat="46.33279" lon="6.90161">
        <ele>387.20001220703</ele>
        <time>2013-08-17T09:49:09Z</time>
      </trkpt>
      <trkpt lat="46.33173" lon="6.90262">
        <ele>387</ele>
        <time>2013-08-17T09:49:27Z</time>
      </trkpt>
      <trkpt lat="46.33077" lon="6.90355">
        <ele>386.60000610352</ele>
        <time>2013-08-17T09:49:43Z</time>
      </trkpt>
      <trkpt lat="46.32962" lon="6.90449">
        <ele>386.60000610352</ele>
        <time>2013-08-17T09:50:01Z</time>
      </trkpt>
      <trkpt lat="46.32837" lon="6.90531">
        <ele>386.20001220703</ele>
        <time>2013-08-17T09:50:20Z</time>
      </trkpt>
      <trkpt lat="46.32716" lon="6.90612">
        <ele>386.20001220703</ele>
        <time>2013-08-17T09:50:38Z</time>
      </trkpt>
      <trkpt lat="46.32605" lon="6.90686">
        <ele>386.20001220703</ele>
        <time>2013-08-17T09:50:55Z</time>
      </trkpt>
      <trkpt lat="46.32497" lon="6.90748">
        <ele>386.20001220703</ele>
        <time>2013-08-17T09:51:11Z</time>
      </trkpt>
      <trkpt lat="46.32377" lon="6.90807">
        <ele>387</ele>
        <time>2013-08-17T09:51:29Z</time>
      </trkpt>
      <trkpt lat="46.32279" lon="6.90856">
        <ele>387.60000610352</ele>
        <time>2013-08-17T09:51:44Z</time>
      </trkpt>
      <trkpt lat="46.32167" lon="6.90912">
        <ele>387</ele>
        <time>2013-08-17T09:52:01Z</time>
      </trkpt>
      <trkpt lat="46.32063" lon="6.90967">
        <ele>387.20001220703</ele>
        <time>2013-08-17T09:52:17Z</time>
      </trkpt>
      <trkpt lat="46.31952" lon="6.91033">
        <ele>388.20001220703</ele>
        <time>2013-08-17T09:52:34Z</time>
      </trkpt>
      <trkpt lat="46.31831" lon="6.91118">
        <ele>388</ele>
        <time>2013-08-17T09:52:53Z</time>
      </trkpt>
      <trkpt lat="46.31738" lon="6.91198">
        <ele>387.60000610352</ele>
        <time>2013-08-17T09:53:08Z</time>
      </trkpt>
      <trkpt lat="46.31653" lon="6.91279">
        <ele>387.60000610352</ele>
        <time>2013-08-17T09:53:22Z</time>
      </trkpt>
      <trkpt lat="46.31576" lon="6.91352">
        <ele>388.20001220703</ele>
        <time>2013-08-17T09:53:35Z</time>
      </trkpt>
      <trkpt lat="46.31462" lon="6.9146">
        <ele>387.60000610352</ele>
        <time>2013-08-17T09:53:54Z</time>
      </trkpt>
      <trkpt lat="46.31377" lon="6.9152">
        <ele>387.20001220703</ele>
        <time>2013-08-17T09:54:07Z</time>
      </trkpt>
      <trkpt lat="46.31359" lon="6.91532">
        <ele>386.60000610352</ele>
        <time>2013-08-17T09:54:10Z</time>
      </trkpt>
      <trkpt lat="46.31332" lon="6.91547">
        <ele>387.20001220703</ele>
        <time>2013-08-17T09:54:14Z</time>
      </trkpt>
      <trkpt lat="46.31264" lon="6.91591">
        <ele>388.20001220703</ele>
        <time>2013-08-17T09:54:24Z</time>
      </trkpt>
      <trkpt lat="46.31183" lon="6.91645">
        <ele>387.60000610352</ele>
        <time>2013-08-17T09:54:36Z</time>
      </trkpt>
      <trkpt lat="46.31148" lon="6.91667">
        <ele>388</ele>
        <time>2013-08-17T09:54:41Z</time>
      </trkpt>
      <trkpt lat="46.31069" lon="6.91719">
        <ele>388</ele>
        <time>2013-08-17T09:54:53Z</time>
      </trkpt>
      <trkpt lat="46.30975" lon="6.91779">
        <ele>388</ele>
        <time>2013-08-17T09:55:08Z</time>
      </trkpt>
      <trkpt lat="46.30885" lon="6.91838">
        <ele>388</ele>
        <time>2013-08-17T09:55:22Z</time>
      </trkpt>
      <trkpt lat="46.30767" lon="6.91914">
        <ele>388.60000610352</ele>
        <time>2013-08-17T09:55:41Z</time>
      </trkpt>
      <trkpt lat="46.30678" lon="6.9197">
        <ele>388.20001220703</ele>
        <time>2013-08-17T09:55:56Z</time>
      </trkpt>
      <trkpt lat="46.30647" lon="6.9199">
        <ele>388</ele>
        <time>2013-08-17T09:56:02Z</time>
      </trkpt>
      <trkpt lat="46.30577" lon="6.92037">
        <ele>389.20001220703</ele>
        <time>2013-08-17T09:56:15Z</time>
      </trkpt>
      <trkpt lat="46.30491" lon="6.92091">
        <ele>389.20001220703</ele>
        <time>2013-08-17T09:56:29Z</time>
      </trkpt>
      <trkpt lat="46.30394" lon="6.92155">
        <ele>389.20001220703</ele>
        <time>2013-08-17T09:56:43Z</time>
      </trkpt>
      <trkpt lat="46.30293" lon="6.92219">
        <ele>388.60000610352</ele>
        <time>2013-08-17T09:56:57Z</time>
      </trkpt>
      <trkpt lat="46.30281" lon="6.92226">
        <ele>389.20001220703</ele>
        <time>2013-08-17T09:56:59Z</time>
      </trkpt>
      <trkpt lat="46.30266" lon="6.92238">
        <ele>389.20001220703</ele>
        <time>2013-08-17T09:57:02Z</time>
      </trkpt>
      <trkpt lat="46.30213" lon="6.92271">
        <ele>389.20001220703</ele>
        <time>2013-08-17T09:57:12Z</time>
      </trkpt>
      <trkpt lat="46.30142" lon="6.92314">
        <ele>389</ele>
        <time>2013-08-17T09:57:24Z</time>
      </trkpt>
      <trkpt lat="46.3004" lon="6.92381">
        <ele>390</ele>
        <time>2013-08-17T09:57:40Z</time>
      </trkpt>
      <trkpt lat="46.2995" lon="6.92438">
        <ele>390.20001220703</ele>
        <time>2013-08-17T09:57:54Z</time>
      </trkpt>
      <trkpt lat="46.29837" lon="6.92506">
        <ele>390.60000610352</ele>
        <time>2013-08-17T09:58:11Z</time>
      </trkpt>
      <trkpt lat="46.29741" lon="6.92563">
        <ele>390.60000610352</ele>
        <time>2013-08-17T09:58:25Z</time>
      </trkpt>
      <trkpt lat="46.2962" lon="6.92635">
        <ele>391.60000610352</ele>
        <time>2013-08-17T09:58:42Z</time>
      </trkpt>
      <trkpt lat="46.29511" lon="6.927">
        <ele>392.20001220703</ele>
        <time>2013-08-17T09:58:58Z</time>
      </trkpt>
      <trkpt lat="46.294" lon="6.92767">
        <ele>392.20001220703</ele>
        <time>2013-08-17T09:59:14Z</time>
      </trkpt>
      <trkpt lat="46.29276" lon="6.9285">
        <ele>393.20001220703</ele>
        <time>2013-08-17T09:59:32Z</time>
      </trkpt>
      <trkpt lat="46.29192" lon="6.92909">
        <ele>393</ele>
        <time>2013-08-17T09:59:44Z</time>
      </trkpt>
      <trkpt lat="46.29099" lon="6.92975">
        <ele>393.20001220703</ele>
        <time>2013-08-17T09:59:58Z</time>
      </trkpt>
      <trkpt lat="46.2901" lon="6.93036">
        <ele>393</ele>
        <time>2013-08-17T10:00:11Z</time>
      </trkpt>
      <trkpt lat="46.28896" lon="6.9311">
        <ele>393.20001220703</ele>
        <time>2013-08-17T10:00:27Z</time>
      </trkpt>
      <trkpt lat="46.28814" lon="6.93165">
        <ele>393.20001220703</ele>
        <time>2013-08-17T10:00:39Z</time>
      </trkpt>
      <trkpt lat="46.28749" lon="6.93209">
        <ele>393.20001220703</ele>
        <time>2013-08-17T10:00:50Z</time>
      </trkpt>
      <trkpt lat="46.28737" lon="6.93215">
        <ele>393.20001220703</ele>
        <time>2013-08-17T10:00:53Z</time>
      </trkpt>
      <trkpt lat="46.28719" lon="6.93228">
        <ele>393.60000610352</ele>
        <time>2013-08-17T10:01:38Z</time>
      </trkpt>
      <trkpt lat="46.28701" lon="6.93239">
        <ele>393.60000610352</ele>
        <time>2013-08-17T10:01:46Z</time>
      </trkpt>
      <trkpt lat="46.28672" lon="6.93258">
        <ele>390.60000610352</ele>
        <time>2013-08-17T10:01:53Z</time>
      </trkpt>
      <trkpt lat="46.28663" lon="6.93265">
        <ele>388.60000610352</ele>
        <time>2013-08-17T10:01:55Z</time>
      </trkpt>
      <trkpt lat="46.28658" lon="6.93268">
        <ele>391.60000610352</ele>
        <time>2013-08-17T10:01:56Z</time>
      </trkpt>
      <trkpt lat="46.28649" lon="6.93274">
        <ele>394</ele>
        <time>2013-08-17T10:01:58Z</time>
      </trkpt>
      <trkpt lat="46.28629" lon="6.93286">
        <ele>393.60000610352</ele>
        <time>2013-08-17T10:02:02Z</time>
      </trkpt>
      <trkpt lat="46.28573" lon="6.93323">
        <ele>394</ele>
        <time>2013-08-17T10:02:13Z</time>
      </trkpt>
      <trkpt lat="46.28558" lon="6.93334">
        <ele>396.20001220703</ele>
        <time>2013-08-17T10:02:16Z</time>
      </trkpt>
      <trkpt lat="46.28544" lon="6.93343">
        <ele>394.20001220703</ele>
        <time>2013-08-17T10:02:19Z</time>
      </trkpt>
      <trkpt lat="46.28456" lon="6.934">
        <ele>394.60000610352</ele>
        <time>2013-08-17T10:02:35Z</time>
      </trkpt>
      <trkpt lat="46.28406" lon="6.93439">
        <ele>394.60000610352</ele>
        <time>2013-08-17T10:02:44Z</time>
      </trkpt>
      <trkpt lat="46.28362" lon="6.93495">
        <ele>394.60000610352</ele>
        <time>2013-08-17T10:02:55Z</time>
      </trkpt>
      <trkpt lat="46.28324" lon="6.9355">
        <ele>394.60000610352</ele>
        <time>2013-08-17T10:03:06Z</time>
      </trkpt>
      <trkpt lat="46.28331" lon="6.93582">
        <ele>395.60000610352</ele>
        <time>2013-08-17T10:03:11Z</time>
      </trkpt>
      <trkpt lat="46.2839" lon="6.93666">
        <ele>396.20001220703</ele>
        <time>2013-08-17T10:03:26Z</time>
      </trkpt>
      <trkpt lat="46.2841" lon="6.93697">
        <ele>395.60000610352</ele>
        <time>2013-08-17T10:03:33Z</time>
      </trkpt>
      <trkpt lat="46.28393" lon="6.93718">
        <ele>394.60000610352</ele>
        <time>2013-08-17T10:03:38Z</time>
      </trkpt>
      <trkpt lat="46.28301" lon="6.93781">
        <ele>394.60000610352</ele>
        <time>2013-08-17T10:03:55Z</time>
      </trkpt>
      <trkpt lat="46.28268" lon="6.93805">
        <ele>394.60000610352</ele>
        <time>2013-08-17T10:04:01Z</time>
      </trkpt>
      <trkpt lat="46.28198" lon="6.93856">
        <ele>394</ele>
        <time>2013-08-17T10:04:13Z</time>
      </trkpt>
      <trkpt lat="46.2809" lon="6.93934">
        <ele>395.20001220703</ele>
        <time>2013-08-17T10:04:30Z</time>
      </trkpt>
      <trkpt lat="46.28001" lon="6.94">
        <ele>395.20001220703</ele>
        <time>2013-08-17T10:04:45Z</time>
      </trkpt>
      <trkpt lat="46.27917" lon="6.94059">
        <ele>396</ele>
        <time>2013-08-17T10:04:59Z</time>
      </trkpt>
      <trkpt lat="46.27811" lon="6.94137">
        <ele>396.60000610352</ele>
        <time>2013-08-17T10:05:16Z</time>
      </trkpt>
      <trkpt lat="46.27738" lon="6.94187">
        <ele>397.60000610352</ele>
        <time>2013-08-17T10:05:30Z</time>
      </trkpt>
      <trkpt lat="46.27726" lon="6.94196">
        <ele>397.60000610352</ele>
        <time>2013-08-17T10:05:33Z</time>
      </trkpt>
      <trkpt lat="46.27718" lon="6.942">
        <ele>397.60000610352</ele>
        <time>2013-08-17T10:05:35Z</time>
      </trkpt>
      <trkpt lat="46.27657" lon="6.94251">
        <ele>397.20001220703</ele>
        <time>2013-08-17T10:05:48Z</time>
      </trkpt>
      <trkpt lat="46.27574" lon="6.94322">
        <ele>397.20001220703</ele>
        <time>2013-08-17T10:06:04Z</time>
      </trkpt>
      <trkpt lat="46.27504" lon="6.94385">
        <ele>397.60000610352</ele>
        <time>2013-08-17T10:06:18Z</time>
      </trkpt>
      <trkpt lat="46.27451" lon="6.94431">
        <ele>397.20001220703</ele>
        <time>2013-08-17T10:06:28Z</time>
      </trkpt>
      <trkpt lat="46.27375" lon="6.94496">
        <ele>397.60000610352</ele>
        <time>2013-08-17T10:06:42Z</time>
      </trkpt>
      <trkpt lat="46.2736" lon="6.94509">
        <ele>397.60000610352</ele>
        <time>2013-08-17T10:06:45Z</time>
      </trkpt>
      <trkpt lat="46.27351" lon="6.94493">
        <ele>398</ele>
        <time>2013-08-17T10:06:50Z</time>
      </trkpt>
      <trkpt lat="46.27348" lon="6.94486">
        <ele>397.60000610352</ele>
        <time>2013-08-17T10:06:52Z</time>
      </trkpt>
      <trkpt lat="46.27359" lon="6.9448">
        <ele>398.20001220703</ele>
        <time>2013-08-17T10:06:59Z</time>
      </trkpt>
      <trkpt lat="46.27359" lon="6.94477">
        <ele>397.60000610352</ele>
        <time>2013-08-17T10:07:59Z</time>
      </trkpt>
      <trkpt lat="46.27356" lon="6.94474">
        <ele>398.20001220703</ele>
        <time>2013-08-17T10:11:32Z</time>
      </trkpt>
      <trkpt lat="46.27355" lon="6.94474">
        <ele>398</ele>
        <time>2013-08-17T10:11:37Z</time>
      </trkpt>
      <trkpt lat="46.27352" lon="6.94477">
        <ele>398</ele>
        <time>2013-08-17T10:11:40Z</time>
      </trkpt>
      <trkpt lat="46.27351" lon="6.94481">
        <ele>397.60000610352</ele>
        <time>2013-08-17T10:11:44Z</time>
      </trkpt>
      <trkpt lat="46.27355" lon="6.94496">
        <ele>398</ele>
        <time>2013-08-17T10:11:49Z</time>
      </trkpt>
      <trkpt lat="46.27359" lon="6.94509">
        <ele>398.20001220703</ele>
        <time>2013-08-17T10:11:54Z</time>
      </trkpt>
      <trkpt lat="46.2734" lon="6.94529">
        <ele>398.60000610352</ele>
        <time>2013-08-17T10:12:00Z</time>
      </trkpt>
      <trkpt lat="46.27314" lon="6.94553">
        <ele>398.20001220703</ele>
        <time>2013-08-17T10:12:06Z</time>
      </trkpt>
      <trkpt lat="46.27304" lon="6.94569">
        <ele>399</ele>
        <time>2013-08-17T10:12:10Z</time>
      </trkpt>
      <trkpt lat="46.2729" lon="6.9458">
        <ele>397.60000610352</ele>
        <time>2013-08-17T10:13:28Z</time>
      </trkpt>
      <trkpt lat="46.27275" lon="6.94586">
        <ele>397.60000610352</ele>
        <time>2013-08-17T10:13:34Z</time>
      </trkpt>
      <trkpt lat="46.27272" lon="6.94589">
        <ele>397.60000610352</ele>
        <time>2013-08-17T10:13:35Z</time>
      </trkpt>
      <trkpt lat="46.27259" lon="6.94598">
        <ele>397.60000610352</ele>
        <time>2013-08-17T10:13:38Z</time>
      </trkpt>
      <trkpt lat="46.27246" lon="6.9461">
        <ele>398.20001220703</ele>
        <time>2013-08-17T10:13:41Z</time>
      </trkpt>
      <trkpt lat="46.27222" lon="6.94633">
        <ele>398.60000610352</ele>
        <time>2013-08-17T10:13:46Z</time>
      </trkpt>
      <trkpt lat="46.27191" lon="6.94657">
        <ele>398.20001220703</ele>
        <time>2013-08-17T10:13:52Z</time>
      </trkpt>
      <trkpt lat="46.27145" lon="6.94691">
        <ele>398.20001220703</ele>
        <time>2013-08-17T10:14:01Z</time>
      </trkpt>
      <trkpt lat="46.27099" lon="6.9472">
        <ele>398</ele>
        <time>2013-08-17T10:14:10Z</time>
      </trkpt>
    </trkseg>
  </trk>
</gpx>